<?xml version="1.0" encoding="UTF-8" standalone="no" ?>
<gpx xmlns="http://www.topografix.com/GPX/1/1" xmlns:xsi="http://www.w3.org/2001/XMLSchema-instance" xsi:schemaLocation="http://www.topografix.com/GPX/1/1 http://www.topografix.com/GPX/1/1/gpx.xsd" version="1.1" creator="VisuGPX - https://www.visugpx.com">
  <metadata>
    <name>amandine</name>
    <desc><![CDATA[Rando enceinte]]></desc>
  </metadata>
  <wpt lat="46.04571" lon="6.49672">
    <ele>1186</ele>
    <name><![CDATA[Pause à 28/6 14:33]]></name>
    <desc><![CDATA[Pause de 2min 57s]]></desc>
  </wpt>
  <wpt lat="46.04455" lon="6.49488">
    <ele>1221</ele>
    <name><![CDATA[Pause à 28/6 14:41]]></name>
    <desc><![CDATA[Pause de 3min 16s]]></desc>
  </wpt>
  <wpt lat="46.02933" lon="6.50389">
    <ele>1500</ele>
    <name><![CDATA[Pause à 28/6 15:28]]></name>
    <desc><![CDATA[Pause de 3min 0s]]></desc>
  </wpt>
  <wpt lat="46.02882" lon="6.50418">
    <ele>1476</ele>
    <name><![CDATA[Pause à 28/6 15:31]]></name>
    <desc><![CDATA[Pause de 5min 26s]]></desc>
  </wpt>
  <wpt lat="46.0287" lon="6.50414">
    <ele>1468</ele>
    <name><![CDATA[Pause à 28/6 15:53]]></name>
    <desc><![CDATA[Pause de 2min 34s]]></desc>
  </wpt>
  <wpt lat="46.02843" lon="6.50355">
    <ele>1465</ele>
    <name><![CDATA[Pause à 28/6 15:56]]></name>
    <desc><![CDATA[Pause de 3min 4s]]></desc>
  </wpt>
  <wpt lat="46.02792" lon="6.50329">
    <ele>1472</ele>
    <name><![CDATA[Pause à 28/6 15:59]]></name>
    <desc><![CDATA[Pause de 2min 46s]]></desc>
  </wpt>
  <wpt lat="46.02691" lon="6.50281">
    <ele>1468</ele>
    <name><![CDATA[Pause à 28/6 16:05]]></name>
    <desc><![CDATA[Pause de 2min 29s]]></desc>
  </wpt>
  <wpt lat="46.0266" lon="6.50351">
    <ele>1458</ele>
    <name><![CDATA[Pause à 28/6 16:07]]></name>
    <desc><![CDATA[Pause de 2min 21s]]></desc>
  </wpt>
  <wpt lat="46.02677" lon="6.50438">
    <ele>1456</ele>
    <name><![CDATA[Pause à 28/6 16:10]]></name>
    <desc><![CDATA[Pause de 6min 35s]]></desc>
  </wpt>
  <wpt lat="46.02721" lon="6.50518">
    <ele>1467</ele>
    <name><![CDATA[Pause à 28/6 16:17]]></name>
    <desc><![CDATA[Pause de 3min 40s]]></desc>
  </wpt>
  <wpt lat="46.02846" lon="6.50629">
    <ele>1466</ele>
    <name><![CDATA[Pause à 28/6 16:24]]></name>
    <desc><![CDATA[Pause de 6min 47s]]></desc>
  </wpt>
  <wpt lat="46.02953" lon="6.50431">
    <ele>1496</ele>
    <name><![CDATA[Pause à 28/6 16:34]]></name>
    <desc><![CDATA[Pause de 2min 33s]]></desc>
  </wpt>
  <wpt lat="46.03976" lon="6.49701">
    <ele>1351</ele>
    <name><![CDATA[Pause à 28/6 17:03]]></name>
    <desc><![CDATA[Pause de 2min 10s]]></desc>
  </wpt>
  <wpt lat="46.04081" lon="6.49524">
    <ele>1320</ele>
    <name><![CDATA[Pause à 28/6 17:09]]></name>
    <desc><![CDATA[Pause de 2min 15s]]></desc>
  </wpt>
  <trk>
    <name><![CDATA[Benit]]></name>
    <trkseg>
      <trkpt lat="46.04834" lon="6.48968">
        <ele>1069</ele>
        <time>2015-06-28T12:12:44Z</time>
      </trkpt>
      <trkpt lat="46.04839" lon="6.48966">
        <ele>1073</ele>
        <time>2015-06-28T12:13:07Z</time>
      </trkpt>
      <trkpt lat="46.04838" lon="6.48966">
        <ele>1072</ele>
        <time>2015-06-28T12:13:28Z</time>
      </trkpt>
      <trkpt lat="46.04834" lon="6.48973">
        <ele>1072</ele>
        <time>2015-06-28T12:13:34Z</time>
      </trkpt>
      <trkpt lat="46.04837" lon="6.48978">
        <ele>1070</ele>
        <time>2015-06-28T12:13:39Z</time>
      </trkpt>
      <trkpt lat="46.04842" lon="6.48989">
        <ele>1071</ele>
        <time>2015-06-28T12:13:46Z</time>
      </trkpt>
      <trkpt lat="46.04845" lon="6.48996">
        <ele>1073</ele>
        <time>2015-06-28T12:13:50Z</time>
      </trkpt>
      <trkpt lat="46.04847" lon="6.49004">
        <ele>1074</ele>
        <time>2015-06-28T12:13:54Z</time>
      </trkpt>
      <trkpt lat="46.04849" lon="6.4901">
        <ele>1070</ele>
        <time>2015-06-28T12:14:00Z</time>
      </trkpt>
      <trkpt lat="46.04851" lon="6.49016">
        <ele>1067</ele>
        <time>2015-06-28T12:14:04Z</time>
      </trkpt>
      <trkpt lat="46.04851" lon="6.49025">
        <ele>1064</ele>
        <time>2015-06-28T12:14:10Z</time>
      </trkpt>
      <trkpt lat="46.0485" lon="6.49033">
        <ele>1063</ele>
        <time>2015-06-28T12:14:15Z</time>
      </trkpt>
      <trkpt lat="46.04846" lon="6.49039">
        <ele>1061</ele>
        <time>2015-06-28T12:14:18Z</time>
      </trkpt>
      <trkpt lat="46.04842" lon="6.49041">
        <ele>1075</ele>
        <time>2015-06-28T12:14:39Z</time>
      </trkpt>
      <trkpt lat="46.04838" lon="6.49043">
        <ele>1082</ele>
        <time>2015-06-28T12:14:51Z</time>
      </trkpt>
      <trkpt lat="46.04835" lon="6.49049">
        <ele>1084</ele>
        <time>2015-06-28T12:14:59Z</time>
      </trkpt>
      <trkpt lat="46.04831" lon="6.49054">
        <ele>1084</ele>
        <time>2015-06-28T12:15:06Z</time>
      </trkpt>
      <trkpt lat="46.04829" lon="6.4906">
        <ele>1085</ele>
        <time>2015-06-28T12:15:11Z</time>
      </trkpt>
      <trkpt lat="46.04829" lon="6.49066">
        <ele>1083</ele>
        <time>2015-06-28T12:15:18Z</time>
      </trkpt>
      <trkpt lat="46.04829" lon="6.49072">
        <ele>1084</ele>
        <time>2015-06-28T12:15:31Z</time>
      </trkpt>
      <trkpt lat="46.04828" lon="6.4908">
        <ele>1087</ele>
        <time>2015-06-28T12:15:35Z</time>
      </trkpt>
      <trkpt lat="46.04826" lon="6.49086">
        <ele>1087</ele>
        <time>2015-06-28T12:15:38Z</time>
      </trkpt>
      <trkpt lat="46.04826" lon="6.49093">
        <ele>1090</ele>
        <time>2015-06-28T12:15:43Z</time>
      </trkpt>
      <trkpt lat="46.04824" lon="6.49101">
        <ele>1093</ele>
        <time>2015-06-28T12:15:50Z</time>
      </trkpt>
      <trkpt lat="46.04826" lon="6.49106">
        <ele>1092</ele>
        <time>2015-06-28T12:15:55Z</time>
      </trkpt>
      <trkpt lat="46.04829" lon="6.49112">
        <ele>1087</ele>
        <time>2015-06-28T12:16:05Z</time>
      </trkpt>
      <trkpt lat="46.04831" lon="6.49118">
        <ele>1090</ele>
        <time>2015-06-28T12:16:14Z</time>
      </trkpt>
      <trkpt lat="46.04835" lon="6.49125">
        <ele>1090</ele>
        <time>2015-06-28T12:16:20Z</time>
      </trkpt>
      <trkpt lat="46.04839" lon="6.49128">
        <ele>1092</ele>
        <time>2015-06-28T12:16:27Z</time>
      </trkpt>
      <trkpt lat="46.04844" lon="6.49132">
        <ele>1090</ele>
        <time>2015-06-28T12:16:32Z</time>
      </trkpt>
      <trkpt lat="46.04847" lon="6.49135">
        <ele>1089</ele>
        <time>2015-06-28T12:16:37Z</time>
      </trkpt>
      <trkpt lat="46.04852" lon="6.4914">
        <ele>1088</ele>
        <time>2015-06-28T12:16:43Z</time>
      </trkpt>
      <trkpt lat="46.04855" lon="6.49145">
        <ele>1089</ele>
        <time>2015-06-28T12:16:48Z</time>
      </trkpt>
      <trkpt lat="46.04855" lon="6.49153">
        <ele>1088</ele>
        <time>2015-06-28T12:16:53Z</time>
      </trkpt>
      <trkpt lat="46.04858" lon="6.49161">
        <ele>1090</ele>
        <time>2015-06-28T12:16:59Z</time>
      </trkpt>
      <trkpt lat="46.0486" lon="6.49168">
        <ele>1091</ele>
        <time>2015-06-28T12:17:04Z</time>
      </trkpt>
      <trkpt lat="46.04862" lon="6.49175">
        <ele>1092</ele>
        <time>2015-06-28T12:17:09Z</time>
      </trkpt>
      <trkpt lat="46.04863" lon="6.49183">
        <ele>1091</ele>
        <time>2015-06-28T12:17:15Z</time>
      </trkpt>
      <trkpt lat="46.04866" lon="6.49189">
        <ele>1092</ele>
        <time>2015-06-28T12:17:20Z</time>
      </trkpt>
      <trkpt lat="46.04866" lon="6.49196">
        <ele>1093</ele>
        <time>2015-06-28T12:17:24Z</time>
      </trkpt>
      <trkpt lat="46.04867" lon="6.49203">
        <ele>1094</ele>
        <time>2015-06-28T12:17:29Z</time>
      </trkpt>
      <trkpt lat="46.04866" lon="6.49209">
        <ele>1095</ele>
        <time>2015-06-28T12:17:33Z</time>
      </trkpt>
      <trkpt lat="46.04868" lon="6.49216">
        <ele>1098</ele>
        <time>2015-06-28T12:17:38Z</time>
      </trkpt>
      <trkpt lat="46.04868" lon="6.49223">
        <ele>1100</ele>
        <time>2015-06-28T12:17:43Z</time>
      </trkpt>
      <trkpt lat="46.04868" lon="6.49231">
        <ele>1098</ele>
        <time>2015-06-28T12:17:51Z</time>
      </trkpt>
      <trkpt lat="46.04869" lon="6.49238">
        <ele>1101</ele>
        <time>2015-06-28T12:17:56Z</time>
      </trkpt>
      <trkpt lat="46.0487" lon="6.49245">
        <ele>1100</ele>
        <time>2015-06-28T12:18:02Z</time>
      </trkpt>
      <trkpt lat="46.04869" lon="6.49252">
        <ele>1097</ele>
        <time>2015-06-28T12:18:06Z</time>
      </trkpt>
      <trkpt lat="46.0487" lon="6.49258">
        <ele>1097</ele>
        <time>2015-06-28T12:18:12Z</time>
      </trkpt>
      <trkpt lat="46.0487" lon="6.49266">
        <ele>1099</ele>
        <time>2015-06-28T12:18:19Z</time>
      </trkpt>
      <trkpt lat="46.0487" lon="6.49273">
        <ele>1098</ele>
        <time>2015-06-28T12:18:25Z</time>
      </trkpt>
      <trkpt lat="46.0487" lon="6.49282">
        <ele>1098</ele>
        <time>2015-06-28T12:18:31Z</time>
      </trkpt>
      <trkpt lat="46.0487" lon="6.49289">
        <ele>1101</ele>
        <time>2015-06-28T12:18:35Z</time>
      </trkpt>
      <trkpt lat="46.04871" lon="6.49297">
        <ele>1103</ele>
        <time>2015-06-28T12:18:41Z</time>
      </trkpt>
      <trkpt lat="46.04869" lon="6.49303">
        <ele>1102</ele>
        <time>2015-06-28T12:18:46Z</time>
      </trkpt>
      <trkpt lat="46.04866" lon="6.4931">
        <ele>1099</ele>
        <time>2015-06-28T12:18:52Z</time>
      </trkpt>
      <trkpt lat="46.04862" lon="6.49319">
        <ele>1095</ele>
        <time>2015-06-28T12:18:59Z</time>
      </trkpt>
      <trkpt lat="46.04858" lon="6.49329">
        <ele>1099</ele>
        <time>2015-06-28T12:19:05Z</time>
      </trkpt>
      <trkpt lat="46.04853" lon="6.49333">
        <ele>1097</ele>
        <time>2015-06-28T12:19:08Z</time>
      </trkpt>
      <trkpt lat="46.04854" lon="6.4934">
        <ele>1102</ele>
        <time>2015-06-28T12:19:11Z</time>
      </trkpt>
      <trkpt lat="46.04852" lon="6.49346">
        <ele>1103</ele>
        <time>2015-06-28T12:19:15Z</time>
      </trkpt>
      <trkpt lat="46.04848" lon="6.4935">
        <ele>1104</ele>
        <time>2015-06-28T12:19:18Z</time>
      </trkpt>
      <trkpt lat="46.04844" lon="6.49356">
        <ele>1104</ele>
        <time>2015-06-28T12:19:22Z</time>
      </trkpt>
      <trkpt lat="46.04841" lon="6.49361">
        <ele>1106</ele>
        <time>2015-06-28T12:19:27Z</time>
      </trkpt>
      <trkpt lat="46.04836" lon="6.49364">
        <ele>1103</ele>
        <time>2015-06-28T12:19:31Z</time>
      </trkpt>
      <trkpt lat="46.04832" lon="6.49369">
        <ele>1101</ele>
        <time>2015-06-28T12:19:36Z</time>
      </trkpt>
      <trkpt lat="46.04831" lon="6.49375">
        <ele>1101</ele>
        <time>2015-06-28T12:19:41Z</time>
      </trkpt>
      <trkpt lat="46.04828" lon="6.49383">
        <ele>1098</ele>
        <time>2015-06-28T12:19:46Z</time>
      </trkpt>
      <trkpt lat="46.04823" lon="6.49385">
        <ele>1095</ele>
        <time>2015-06-28T12:19:50Z</time>
      </trkpt>
      <trkpt lat="46.04821" lon="6.49391">
        <ele>1098</ele>
        <time>2015-06-28T12:19:56Z</time>
      </trkpt>
      <trkpt lat="46.04818" lon="6.49398">
        <ele>1099</ele>
        <time>2015-06-28T12:20:02Z</time>
      </trkpt>
      <trkpt lat="46.04816" lon="6.49404">
        <ele>1100</ele>
        <time>2015-06-28T12:20:07Z</time>
      </trkpt>
      <trkpt lat="46.04812" lon="6.49407">
        <ele>1100</ele>
        <time>2015-06-28T12:20:12Z</time>
      </trkpt>
      <trkpt lat="46.04807" lon="6.49414">
        <ele>1101</ele>
        <time>2015-06-28T12:20:18Z</time>
      </trkpt>
      <trkpt lat="46.04805" lon="6.4942">
        <ele>1103</ele>
        <time>2015-06-28T12:20:23Z</time>
      </trkpt>
      <trkpt lat="46.04804" lon="6.49428">
        <ele>1104</ele>
        <time>2015-06-28T12:20:30Z</time>
      </trkpt>
      <trkpt lat="46.04801" lon="6.49433">
        <ele>1108</ele>
        <time>2015-06-28T12:20:35Z</time>
      </trkpt>
      <trkpt lat="46.04797" lon="6.49438">
        <ele>1106</ele>
        <time>2015-06-28T12:20:42Z</time>
      </trkpt>
      <trkpt lat="46.04792" lon="6.49441">
        <ele>1104</ele>
        <time>2015-06-28T12:20:47Z</time>
      </trkpt>
      <trkpt lat="46.04787" lon="6.49443">
        <ele>1101</ele>
        <time>2015-06-28T12:20:51Z</time>
      </trkpt>
      <trkpt lat="46.04783" lon="6.49448">
        <ele>1101</ele>
        <time>2015-06-28T12:20:56Z</time>
      </trkpt>
      <trkpt lat="46.0478" lon="6.49453">
        <ele>1101</ele>
        <time>2015-06-28T12:21:00Z</time>
      </trkpt>
      <trkpt lat="46.04778" lon="6.4946">
        <ele>1103</ele>
        <time>2015-06-28T12:21:08Z</time>
      </trkpt>
      <trkpt lat="46.04776" lon="6.49467">
        <ele>1106</ele>
        <time>2015-06-28T12:21:18Z</time>
      </trkpt>
      <trkpt lat="46.04775" lon="6.49474">
        <ele>1107</ele>
        <time>2015-06-28T12:21:24Z</time>
      </trkpt>
      <trkpt lat="46.04772" lon="6.4948">
        <ele>1108</ele>
        <time>2015-06-28T12:21:28Z</time>
      </trkpt>
      <trkpt lat="46.04771" lon="6.49487">
        <ele>1111</ele>
        <time>2015-06-28T12:21:32Z</time>
      </trkpt>
      <trkpt lat="46.04768" lon="6.49495">
        <ele>1110</ele>
        <time>2015-06-28T12:21:38Z</time>
      </trkpt>
      <trkpt lat="46.04767" lon="6.49501">
        <ele>1111</ele>
        <time>2015-06-28T12:21:42Z</time>
      </trkpt>
      <trkpt lat="46.04763" lon="6.49505">
        <ele>1111</ele>
        <time>2015-06-28T12:21:46Z</time>
      </trkpt>
      <trkpt lat="46.04763" lon="6.49513">
        <ele>1114</ele>
        <time>2015-06-28T12:21:51Z</time>
      </trkpt>
      <trkpt lat="46.04764" lon="6.4952">
        <ele>1116</ele>
        <time>2015-06-28T12:21:56Z</time>
      </trkpt>
      <trkpt lat="46.04763" lon="6.49526">
        <ele>1118</ele>
        <time>2015-06-28T12:22:00Z</time>
      </trkpt>
      <trkpt lat="46.04763" lon="6.49533">
        <ele>1117</ele>
        <time>2015-06-28T12:22:05Z</time>
      </trkpt>
      <trkpt lat="46.04762" lon="6.49541">
        <ele>1118</ele>
        <time>2015-06-28T12:22:10Z</time>
      </trkpt>
      <trkpt lat="46.04762" lon="6.49548">
        <ele>1119</ele>
        <time>2015-06-28T12:22:16Z</time>
      </trkpt>
      <trkpt lat="46.0476" lon="6.49558">
        <ele>1120</ele>
        <time>2015-06-28T12:22:22Z</time>
      </trkpt>
      <trkpt lat="46.0476" lon="6.49566">
        <ele>1119</ele>
        <time>2015-06-28T12:22:28Z</time>
      </trkpt>
      <trkpt lat="46.04759" lon="6.49573">
        <ele>1121</ele>
        <time>2015-06-28T12:22:33Z</time>
      </trkpt>
      <trkpt lat="46.0476" lon="6.4958">
        <ele>1123</ele>
        <time>2015-06-28T12:22:38Z</time>
      </trkpt>
      <trkpt lat="46.04761" lon="6.49587">
        <ele>1123</ele>
        <time>2015-06-28T12:22:42Z</time>
      </trkpt>
      <trkpt lat="46.04762" lon="6.49594">
        <ele>1120</ele>
        <time>2015-06-28T12:22:47Z</time>
      </trkpt>
      <trkpt lat="46.04763" lon="6.49601">
        <ele>1122</ele>
        <time>2015-06-28T12:22:52Z</time>
      </trkpt>
      <trkpt lat="46.04765" lon="6.49607">
        <ele>1123</ele>
        <time>2015-06-28T12:22:56Z</time>
      </trkpt>
      <trkpt lat="46.04768" lon="6.49614">
        <ele>1126</ele>
        <time>2015-06-28T12:23:00Z</time>
      </trkpt>
      <trkpt lat="46.04768" lon="6.49622">
        <ele>1126</ele>
        <time>2015-06-28T12:23:05Z</time>
      </trkpt>
      <trkpt lat="46.04772" lon="6.49626">
        <ele>1127</ele>
        <time>2015-06-28T12:23:10Z</time>
      </trkpt>
      <trkpt lat="46.04771" lon="6.49632">
        <ele>1128</ele>
        <time>2015-06-28T12:23:22Z</time>
      </trkpt>
      <trkpt lat="46.04772" lon="6.49639">
        <ele>1130</ele>
        <time>2015-06-28T12:23:38Z</time>
      </trkpt>
      <trkpt lat="46.04773" lon="6.49646">
        <ele>1128</ele>
        <time>2015-06-28T12:23:42Z</time>
      </trkpt>
      <trkpt lat="46.04775" lon="6.49653">
        <ele>1128</ele>
        <time>2015-06-28T12:23:46Z</time>
      </trkpt>
      <trkpt lat="46.04776" lon="6.4966">
        <ele>1131</ele>
        <time>2015-06-28T12:23:51Z</time>
      </trkpt>
      <trkpt lat="46.04778" lon="6.49667">
        <ele>1131</ele>
        <time>2015-06-28T12:23:56Z</time>
      </trkpt>
      <trkpt lat="46.04781" lon="6.49677">
        <ele>1130</ele>
        <time>2015-06-28T12:24:03Z</time>
      </trkpt>
      <trkpt lat="46.04783" lon="6.49683">
        <ele>1132</ele>
        <time>2015-06-28T12:24:08Z</time>
      </trkpt>
      <trkpt lat="46.04786" lon="6.4969">
        <ele>1133</ele>
        <time>2015-06-28T12:24:12Z</time>
      </trkpt>
      <trkpt lat="46.04787" lon="6.49696">
        <ele>1131</ele>
        <time>2015-06-28T12:24:16Z</time>
      </trkpt>
      <trkpt lat="46.04787" lon="6.49704">
        <ele>1128</ele>
        <time>2015-06-28T12:24:20Z</time>
      </trkpt>
      <trkpt lat="46.04787" lon="6.49711">
        <ele>1129</ele>
        <time>2015-06-28T12:24:24Z</time>
      </trkpt>
      <trkpt lat="46.04787" lon="6.49718">
        <ele>1131</ele>
        <time>2015-06-28T12:24:28Z</time>
      </trkpt>
      <trkpt lat="46.04788" lon="6.49726">
        <ele>1132</ele>
        <time>2015-06-28T12:24:33Z</time>
      </trkpt>
      <trkpt lat="46.04788" lon="6.49734">
        <ele>1133</ele>
        <time>2015-06-28T12:24:38Z</time>
      </trkpt>
      <trkpt lat="46.04787" lon="6.4974">
        <ele>1132</ele>
        <time>2015-06-28T12:24:43Z</time>
      </trkpt>
      <trkpt lat="46.04787" lon="6.49748">
        <ele>1133</ele>
        <time>2015-06-28T12:24:48Z</time>
      </trkpt>
      <trkpt lat="46.04785" lon="6.49754">
        <ele>1134</ele>
        <time>2015-06-28T12:24:52Z</time>
      </trkpt>
      <trkpt lat="46.04784" lon="6.49762">
        <ele>1134</ele>
        <time>2015-06-28T12:24:59Z</time>
      </trkpt>
      <trkpt lat="46.04781" lon="6.49768">
        <ele>1134</ele>
        <time>2015-06-28T12:25:04Z</time>
      </trkpt>
      <trkpt lat="46.04777" lon="6.49775">
        <ele>1135</ele>
        <time>2015-06-28T12:25:11Z</time>
      </trkpt>
      <trkpt lat="46.04773" lon="6.49781">
        <ele>1136</ele>
        <time>2015-06-28T12:25:16Z</time>
      </trkpt>
      <trkpt lat="46.04768" lon="6.49785">
        <ele>1137</ele>
        <time>2015-06-28T12:25:23Z</time>
      </trkpt>
      <trkpt lat="46.04762" lon="6.49789">
        <ele>1139</ele>
        <time>2015-06-28T12:25:28Z</time>
      </trkpt>
      <trkpt lat="46.04758" lon="6.49793">
        <ele>1139</ele>
        <time>2015-06-28T12:25:33Z</time>
      </trkpt>
      <trkpt lat="46.04752" lon="6.49798">
        <ele>1136</ele>
        <time>2015-06-28T12:25:39Z</time>
      </trkpt>
      <trkpt lat="46.04748" lon="6.49802">
        <ele>1136</ele>
        <time>2015-06-28T12:25:44Z</time>
      </trkpt>
      <trkpt lat="46.04742" lon="6.49804">
        <ele>1136</ele>
        <time>2015-06-28T12:25:48Z</time>
      </trkpt>
      <trkpt lat="46.04737" lon="6.49806">
        <ele>1136</ele>
        <time>2015-06-28T12:25:52Z</time>
      </trkpt>
      <trkpt lat="46.04733" lon="6.49808">
        <ele>1137</ele>
        <time>2015-06-28T12:25:56Z</time>
      </trkpt>
      <trkpt lat="46.04727" lon="6.49811">
        <ele>1136</ele>
        <time>2015-06-28T12:26:02Z</time>
      </trkpt>
      <trkpt lat="46.04721" lon="6.49812">
        <ele>1135</ele>
        <time>2015-06-28T12:26:07Z</time>
      </trkpt>
      <trkpt lat="46.04715" lon="6.49813">
        <ele>1134</ele>
        <time>2015-06-28T12:26:12Z</time>
      </trkpt>
      <trkpt lat="46.04709" lon="6.49811">
        <ele>1134</ele>
        <time>2015-06-28T12:26:17Z</time>
      </trkpt>
      <trkpt lat="46.04704" lon="6.4981">
        <ele>1138</ele>
        <time>2015-06-28T12:26:23Z</time>
      </trkpt>
      <trkpt lat="46.04702" lon="6.49804">
        <ele>1142</ele>
        <time>2015-06-28T12:26:29Z</time>
      </trkpt>
      <trkpt lat="46.04698" lon="6.498">
        <ele>1144</ele>
        <time>2015-06-28T12:26:35Z</time>
      </trkpt>
      <trkpt lat="46.04691" lon="6.49799">
        <ele>1143</ele>
        <time>2015-06-28T12:26:43Z</time>
      </trkpt>
      <trkpt lat="46.04686" lon="6.49801">
        <ele>1139</ele>
        <time>2015-06-28T12:26:48Z</time>
      </trkpt>
      <trkpt lat="46.04681" lon="6.49803">
        <ele>1139</ele>
        <time>2015-06-28T12:26:55Z</time>
      </trkpt>
      <trkpt lat="46.04677" lon="6.49798">
        <ele>1143</ele>
        <time>2015-06-28T12:27:08Z</time>
      </trkpt>
      <trkpt lat="46.04674" lon="6.49793">
        <ele>1146</ele>
        <time>2015-06-28T12:27:15Z</time>
      </trkpt>
      <trkpt lat="46.04677" lon="6.49787">
        <ele>1144</ele>
        <time>2015-06-28T12:27:20Z</time>
      </trkpt>
      <trkpt lat="46.04679" lon="6.4978">
        <ele>1149</ele>
        <time>2015-06-28T12:27:28Z</time>
      </trkpt>
      <trkpt lat="46.04676" lon="6.49774">
        <ele>1152</ele>
        <time>2015-06-28T12:27:35Z</time>
      </trkpt>
      <trkpt lat="46.04673" lon="6.49768">
        <ele>1154</ele>
        <time>2015-06-28T12:27:43Z</time>
      </trkpt>
      <trkpt lat="46.04668" lon="6.49764">
        <ele>1155</ele>
        <time>2015-06-28T12:27:59Z</time>
      </trkpt>
      <trkpt lat="46.04664" lon="6.49761">
        <ele>1155</ele>
        <time>2015-06-28T12:28:03Z</time>
      </trkpt>
      <trkpt lat="46.0466" lon="6.49755">
        <ele>1158</ele>
        <time>2015-06-28T12:28:09Z</time>
      </trkpt>
      <trkpt lat="46.04656" lon="6.49751">
        <ele>1159</ele>
        <time>2015-06-28T12:28:15Z</time>
      </trkpt>
      <trkpt lat="46.04652" lon="6.49747">
        <ele>1162</ele>
        <time>2015-06-28T12:28:23Z</time>
      </trkpt>
      <trkpt lat="46.04648" lon="6.49742">
        <ele>1164</ele>
        <time>2015-06-28T12:28:28Z</time>
      </trkpt>
      <trkpt lat="46.04644" lon="6.49738">
        <ele>1164</ele>
        <time>2015-06-28T12:28:33Z</time>
      </trkpt>
      <trkpt lat="46.0464" lon="6.49736">
        <ele>1162</ele>
        <time>2015-06-28T12:28:43Z</time>
      </trkpt>
      <trkpt lat="46.04636" lon="6.49731">
        <ele>1162</ele>
        <time>2015-06-28T12:28:51Z</time>
      </trkpt>
      <trkpt lat="46.04634" lon="6.49725">
        <ele>1163</ele>
        <time>2015-06-28T12:29:01Z</time>
      </trkpt>
      <trkpt lat="46.0463" lon="6.49721">
        <ele>1167</ele>
        <time>2015-06-28T12:29:07Z</time>
      </trkpt>
      <trkpt lat="46.04628" lon="6.49714">
        <ele>1166</ele>
        <time>2015-06-28T12:29:15Z</time>
      </trkpt>
      <trkpt lat="46.04625" lon="6.49708">
        <ele>1167</ele>
        <time>2015-06-28T12:29:23Z</time>
      </trkpt>
      <trkpt lat="46.04623" lon="6.49702">
        <ele>1169</ele>
        <time>2015-06-28T12:29:29Z</time>
      </trkpt>
      <trkpt lat="46.04621" lon="6.49695">
        <ele>1171</ele>
        <time>2015-06-28T12:29:35Z</time>
      </trkpt>
      <trkpt lat="46.04618" lon="6.49691">
        <ele>1170</ele>
        <time>2015-06-28T12:29:43Z</time>
      </trkpt>
      <trkpt lat="46.04613" lon="6.49687">
        <ele>1172</ele>
        <time>2015-06-28T12:29:51Z</time>
      </trkpt>
      <trkpt lat="46.04609" lon="6.49685">
        <ele>1175</ele>
        <time>2015-06-28T12:30:00Z</time>
      </trkpt>
      <trkpt lat="46.04604" lon="6.49681">
        <ele>1177</ele>
        <time>2015-06-28T12:30:07Z</time>
      </trkpt>
      <trkpt lat="46.046" lon="6.4968">
        <ele>1179</ele>
        <time>2015-06-28T12:30:20Z</time>
      </trkpt>
      <trkpt lat="46.04596" lon="6.49677">
        <ele>1180</ele>
        <time>2015-06-28T12:30:26Z</time>
      </trkpt>
      <trkpt lat="46.04591" lon="6.49675">
        <ele>1180</ele>
        <time>2015-06-28T12:30:35Z</time>
      </trkpt>
      <trkpt lat="46.04585" lon="6.49673">
        <ele>1179</ele>
        <time>2015-06-28T12:30:41Z</time>
      </trkpt>
      <trkpt lat="46.04581" lon="6.49671">
        <ele>1181</ele>
        <time>2015-06-28T12:30:48Z</time>
      </trkpt>
      <trkpt lat="46.04576" lon="6.49672">
        <ele>1182</ele>
        <time>2015-06-28T12:30:57Z</time>
      </trkpt>
      <trkpt lat="46.04571" lon="6.49672">
        <ele>1186</ele>
        <time>2015-06-28T12:31:06Z</time>
      </trkpt>
      <trkpt lat="46.04566" lon="6.4967">
        <ele>1189</ele>
        <time>2015-06-28T12:31:14Z</time>
      </trkpt>
      <trkpt lat="46.04562" lon="6.49668">
        <ele>1189</ele>
        <time>2015-06-28T12:31:20Z</time>
      </trkpt>
      <trkpt lat="46.04561" lon="6.49664">
        <ele>1195</ele>
        <time>2015-06-28T12:31:48Z</time>
      </trkpt>
      <trkpt lat="46.04558" lon="6.49662">
        <ele>1193</ele>
        <time>2015-06-28T12:31:55Z</time>
      </trkpt>
      <trkpt lat="46.04559" lon="6.49663">
        <ele>1194</ele>
        <time>2015-06-28T12:32:18Z</time>
      </trkpt>
      <trkpt lat="46.04561" lon="6.49665">
        <ele>1196</ele>
        <time>2015-06-28T12:32:34Z</time>
      </trkpt>
      <trkpt lat="46.04564" lon="6.49666">
        <ele>1197</ele>
        <time>2015-06-28T12:32:45Z</time>
      </trkpt>
      <trkpt lat="46.04566" lon="6.4966">
        <ele>1205</ele>
        <time>2015-06-28T12:32:55Z</time>
      </trkpt>
      <trkpt lat="46.0459" lon="6.49606">
        <ele>1206</ele>
        <time>2015-06-28T12:34:03Z</time>
      </trkpt>
      <trkpt lat="46.04593" lon="6.496">
        <ele>1204</ele>
        <time>2015-06-28T12:34:08Z</time>
      </trkpt>
      <trkpt lat="46.04598" lon="6.49595">
        <ele>1205</ele>
        <time>2015-06-28T12:34:11Z</time>
      </trkpt>
      <trkpt lat="46.04595" lon="6.49587">
        <ele>1199</ele>
        <time>2015-06-28T12:34:17Z</time>
      </trkpt>
      <trkpt lat="46.04591" lon="6.49582">
        <ele>1194</ele>
        <time>2015-06-28T12:34:20Z</time>
      </trkpt>
      <trkpt lat="46.04589" lon="6.49575">
        <ele>1192</ele>
        <time>2015-06-28T12:34:24Z</time>
      </trkpt>
      <trkpt lat="46.04587" lon="6.49569">
        <ele>1190</ele>
        <time>2015-06-28T12:34:29Z</time>
      </trkpt>
      <trkpt lat="46.04583" lon="6.49564">
        <ele>1189</ele>
        <time>2015-06-28T12:34:33Z</time>
      </trkpt>
      <trkpt lat="46.04581" lon="6.49558">
        <ele>1190</ele>
        <time>2015-06-28T12:34:40Z</time>
      </trkpt>
      <trkpt lat="46.04578" lon="6.49553">
        <ele>1191</ele>
        <time>2015-06-28T12:34:47Z</time>
      </trkpt>
      <trkpt lat="46.04575" lon="6.49548">
        <ele>1192</ele>
        <time>2015-06-28T12:34:55Z</time>
      </trkpt>
      <trkpt lat="46.04572" lon="6.49543">
        <ele>1191</ele>
        <time>2015-06-28T12:35:01Z</time>
      </trkpt>
      <trkpt lat="46.04569" lon="6.49538">
        <ele>1193</ele>
        <time>2015-06-28T12:35:07Z</time>
      </trkpt>
      <trkpt lat="46.0457" lon="6.49531">
        <ele>1195</ele>
        <time>2015-06-28T12:35:14Z</time>
      </trkpt>
      <trkpt lat="46.04571" lon="6.49523">
        <ele>1196</ele>
        <time>2015-06-28T12:35:20Z</time>
      </trkpt>
      <trkpt lat="46.04572" lon="6.49516">
        <ele>1197</ele>
        <time>2015-06-28T12:35:29Z</time>
      </trkpt>
      <trkpt lat="46.04572" lon="6.49509">
        <ele>1200</ele>
        <time>2015-06-28T12:35:37Z</time>
      </trkpt>
      <trkpt lat="46.04573" lon="6.49503">
        <ele>1201</ele>
        <time>2015-06-28T12:35:43Z</time>
      </trkpt>
      <trkpt lat="46.0457" lon="6.49498">
        <ele>1201</ele>
        <time>2015-06-28T12:35:49Z</time>
      </trkpt>
      <trkpt lat="46.04568" lon="6.49491">
        <ele>1204</ele>
        <time>2015-06-28T12:35:58Z</time>
      </trkpt>
      <trkpt lat="46.04566" lon="6.49486">
        <ele>1203</ele>
        <time>2015-06-28T12:36:05Z</time>
      </trkpt>
      <trkpt lat="46.04562" lon="6.49479">
        <ele>1203</ele>
        <time>2015-06-28T12:36:12Z</time>
      </trkpt>
      <trkpt lat="46.0456" lon="6.49473">
        <ele>1206</ele>
        <time>2015-06-28T12:36:18Z</time>
      </trkpt>
      <trkpt lat="46.04558" lon="6.49467">
        <ele>1205</ele>
        <time>2015-06-28T12:36:24Z</time>
      </trkpt>
      <trkpt lat="46.04554" lon="6.49461">
        <ele>1205</ele>
        <time>2015-06-28T12:36:31Z</time>
      </trkpt>
      <trkpt lat="46.0455" lon="6.49458">
        <ele>1205</ele>
        <time>2015-06-28T12:36:36Z</time>
      </trkpt>
      <trkpt lat="46.04546" lon="6.4946">
        <ele>1206</ele>
        <time>2015-06-28T12:36:45Z</time>
      </trkpt>
      <trkpt lat="46.04543" lon="6.49466">
        <ele>1208</ele>
        <time>2015-06-28T12:37:00Z</time>
      </trkpt>
      <trkpt lat="46.04538" lon="6.49468">
        <ele>1206</ele>
        <time>2015-06-28T12:37:05Z</time>
      </trkpt>
      <trkpt lat="46.04535" lon="6.49473">
        <ele>1209</ele>
        <time>2015-06-28T12:37:11Z</time>
      </trkpt>
      <trkpt lat="46.04532" lon="6.49481">
        <ele>1212</ele>
        <time>2015-06-28T12:37:20Z</time>
      </trkpt>
      <trkpt lat="46.04528" lon="6.49484">
        <ele>1213</ele>
        <time>2015-06-28T12:37:27Z</time>
      </trkpt>
      <trkpt lat="46.04524" lon="6.49488">
        <ele>1215</ele>
        <time>2015-06-28T12:37:34Z</time>
      </trkpt>
      <trkpt lat="46.0452" lon="6.49492">
        <ele>1215</ele>
        <time>2015-06-28T12:37:42Z</time>
      </trkpt>
      <trkpt lat="46.04516" lon="6.49496">
        <ele>1214</ele>
        <time>2015-06-28T12:37:47Z</time>
      </trkpt>
      <trkpt lat="46.0451" lon="6.49497">
        <ele>1213</ele>
        <time>2015-06-28T12:37:55Z</time>
      </trkpt>
      <trkpt lat="46.04505" lon="6.49497">
        <ele>1213</ele>
        <time>2015-06-28T12:38:00Z</time>
      </trkpt>
      <trkpt lat="46.045" lon="6.49496">
        <ele>1215</ele>
        <time>2015-06-28T12:38:07Z</time>
      </trkpt>
      <trkpt lat="46.04496" lon="6.49494">
        <ele>1215</ele>
        <time>2015-06-28T12:38:12Z</time>
      </trkpt>
      <trkpt lat="46.0449" lon="6.49489">
        <ele>1217</ele>
        <time>2015-06-28T12:38:19Z</time>
      </trkpt>
      <trkpt lat="46.04486" lon="6.49486">
        <ele>1218</ele>
        <time>2015-06-28T12:38:28Z</time>
      </trkpt>
      <trkpt lat="46.0448" lon="6.49483">
        <ele>1216</ele>
        <time>2015-06-28T12:38:35Z</time>
      </trkpt>
      <trkpt lat="46.04475" lon="6.49483">
        <ele>1216</ele>
        <time>2015-06-28T12:38:43Z</time>
      </trkpt>
      <trkpt lat="46.0447" lon="6.49486">
        <ele>1218</ele>
        <time>2015-06-28T12:38:51Z</time>
      </trkpt>
      <trkpt lat="46.04466" lon="6.49487">
        <ele>1219</ele>
        <time>2015-06-28T12:38:58Z</time>
      </trkpt>
      <trkpt lat="46.04459" lon="6.49486">
        <ele>1220</ele>
        <time>2015-06-28T12:39:04Z</time>
      </trkpt>
      <trkpt lat="46.04455" lon="6.49488">
        <ele>1221</ele>
        <time>2015-06-28T12:39:13Z</time>
      </trkpt>
      <trkpt lat="46.0445" lon="6.49488">
        <ele>1225</ele>
        <time>2015-06-28T12:39:20Z</time>
      </trkpt>
      <trkpt lat="46.04446" lon="6.49486">
        <ele>1227</ele>
        <time>2015-06-28T12:39:34Z</time>
      </trkpt>
      <trkpt lat="46.04441" lon="6.49487">
        <ele>1234</ele>
        <time>2015-06-28T12:39:51Z</time>
      </trkpt>
      <trkpt lat="46.04437" lon="6.49487">
        <ele>1234</ele>
        <time>2015-06-28T12:39:55Z</time>
      </trkpt>
      <trkpt lat="46.04432" lon="6.49484">
        <ele>1235</ele>
        <time>2015-06-28T12:40:06Z</time>
      </trkpt>
      <trkpt lat="46.04431" lon="6.49485">
        <ele>1235</ele>
        <time>2015-06-28T12:40:18Z</time>
      </trkpt>
      <trkpt lat="46.04431" lon="6.49485">
        <ele>1236</ele>
        <time>2015-06-28T12:40:37Z</time>
      </trkpt>
      <trkpt lat="46.04431" lon="6.49485">
        <ele>1236</ele>
        <time>2015-06-28T12:40:56Z</time>
      </trkpt>
      <trkpt lat="46.04408" lon="6.49485">
        <ele>1229</ele>
        <time>2015-06-28T12:42:29Z</time>
      </trkpt>
      <trkpt lat="46.04403" lon="6.49485">
        <ele>1227</ele>
        <time>2015-06-28T12:42:33Z</time>
      </trkpt>
      <trkpt lat="46.04398" lon="6.49485">
        <ele>1229</ele>
        <time>2015-06-28T12:42:41Z</time>
      </trkpt>
      <trkpt lat="46.04393" lon="6.49485">
        <ele>1234</ele>
        <time>2015-06-28T12:42:52Z</time>
      </trkpt>
      <trkpt lat="46.04389" lon="6.49483">
        <ele>1237</ele>
        <time>2015-06-28T12:43:01Z</time>
      </trkpt>
      <trkpt lat="46.04384" lon="6.49482">
        <ele>1239</ele>
        <time>2015-06-28T12:43:09Z</time>
      </trkpt>
      <trkpt lat="46.04379" lon="6.49481">
        <ele>1245</ele>
        <time>2015-06-28T12:43:18Z</time>
      </trkpt>
      <trkpt lat="46.04374" lon="6.49482">
        <ele>1249</ele>
        <time>2015-06-28T12:43:28Z</time>
      </trkpt>
      <trkpt lat="46.04369" lon="6.49486">
        <ele>1248</ele>
        <time>2015-06-28T12:43:35Z</time>
      </trkpt>
      <trkpt lat="46.04366" lon="6.49491">
        <ele>1249</ele>
        <time>2015-06-28T12:43:47Z</time>
      </trkpt>
      <trkpt lat="46.04361" lon="6.49489">
        <ele>1250</ele>
        <time>2015-06-28T12:43:56Z</time>
      </trkpt>
      <trkpt lat="46.04357" lon="6.49491">
        <ele>1246</ele>
        <time>2015-06-28T12:44:03Z</time>
      </trkpt>
      <trkpt lat="46.04355" lon="6.49492">
        <ele>1250</ele>
        <time>2015-06-28T12:44:20Z</time>
      </trkpt>
      <trkpt lat="46.04352" lon="6.49493">
        <ele>1249</ele>
        <time>2015-06-28T12:44:24Z</time>
      </trkpt>
      <trkpt lat="46.04347" lon="6.49495">
        <ele>1252</ele>
        <time>2015-06-28T12:44:35Z</time>
      </trkpt>
      <trkpt lat="46.04339" lon="6.49496">
        <ele>1249</ele>
        <time>2015-06-28T12:44:56Z</time>
      </trkpt>
      <trkpt lat="46.04333" lon="6.49498">
        <ele>1251</ele>
        <time>2015-06-28T12:45:02Z</time>
      </trkpt>
      <trkpt lat="46.04332" lon="6.495">
        <ele>1254</ele>
        <time>2015-06-28T12:45:14Z</time>
      </trkpt>
      <trkpt lat="46.04328" lon="6.49503">
        <ele>1253</ele>
        <time>2015-06-28T12:45:17Z</time>
      </trkpt>
      <trkpt lat="46.04324" lon="6.49507">
        <ele>1256</ele>
        <time>2015-06-28T12:45:28Z</time>
      </trkpt>
      <trkpt lat="46.04319" lon="6.4951">
        <ele>1256</ele>
        <time>2015-06-28T12:45:37Z</time>
      </trkpt>
      <trkpt lat="46.04314" lon="6.4951">
        <ele>1257</ele>
        <time>2015-06-28T12:45:44Z</time>
      </trkpt>
      <trkpt lat="46.0431" lon="6.49514">
        <ele>1259</ele>
        <time>2015-06-28T12:45:54Z</time>
      </trkpt>
      <trkpt lat="46.04305" lon="6.49516">
        <ele>1261</ele>
        <time>2015-06-28T12:46:01Z</time>
      </trkpt>
      <trkpt lat="46.043" lon="6.4952">
        <ele>1261</ele>
        <time>2015-06-28T12:46:08Z</time>
      </trkpt>
      <trkpt lat="46.04295" lon="6.49521">
        <ele>1263</ele>
        <time>2015-06-28T12:46:25Z</time>
      </trkpt>
      <trkpt lat="46.0429" lon="6.49525">
        <ele>1265</ele>
        <time>2015-06-28T12:46:38Z</time>
      </trkpt>
      <trkpt lat="46.04285" lon="6.49529">
        <ele>1266</ele>
        <time>2015-06-28T12:46:47Z</time>
      </trkpt>
      <trkpt lat="46.0428" lon="6.49529">
        <ele>1267</ele>
        <time>2015-06-28T12:46:55Z</time>
      </trkpt>
      <trkpt lat="46.04275" lon="6.49534">
        <ele>1269</ele>
        <time>2015-06-28T12:47:11Z</time>
      </trkpt>
      <trkpt lat="46.04271" lon="6.49537">
        <ele>1270</ele>
        <time>2015-06-28T12:47:15Z</time>
      </trkpt>
      <trkpt lat="46.04268" lon="6.49542">
        <ele>1270</ele>
        <time>2015-06-28T12:47:21Z</time>
      </trkpt>
      <trkpt lat="46.04263" lon="6.49547">
        <ele>1270</ele>
        <time>2015-06-28T12:47:25Z</time>
      </trkpt>
      <trkpt lat="46.04259" lon="6.4955">
        <ele>1275</ele>
        <time>2015-06-28T12:47:31Z</time>
      </trkpt>
      <trkpt lat="46.04255" lon="6.49553">
        <ele>1278</ele>
        <time>2015-06-28T12:47:38Z</time>
      </trkpt>
      <trkpt lat="46.04251" lon="6.49558">
        <ele>1280</ele>
        <time>2015-06-28T12:47:48Z</time>
      </trkpt>
      <trkpt lat="46.04246" lon="6.49561">
        <ele>1282</ele>
        <time>2015-06-28T12:47:53Z</time>
      </trkpt>
      <trkpt lat="46.04242" lon="6.49565">
        <ele>1283</ele>
        <time>2015-06-28T12:47:56Z</time>
      </trkpt>
      <trkpt lat="46.04239" lon="6.4957">
        <ele>1284</ele>
        <time>2015-06-28T12:48:01Z</time>
      </trkpt>
      <trkpt lat="46.04233" lon="6.49573">
        <ele>1287</ele>
        <time>2015-06-28T12:48:08Z</time>
      </trkpt>
      <trkpt lat="46.04227" lon="6.49575">
        <ele>1287</ele>
        <time>2015-06-28T12:48:14Z</time>
      </trkpt>
      <trkpt lat="46.04222" lon="6.49576">
        <ele>1290</ele>
        <time>2015-06-28T12:48:22Z</time>
      </trkpt>
      <trkpt lat="46.04218" lon="6.49583">
        <ele>1289</ele>
        <time>2015-06-28T12:48:30Z</time>
      </trkpt>
      <trkpt lat="46.04213" lon="6.49583">
        <ele>1293</ele>
        <time>2015-06-28T12:48:36Z</time>
      </trkpt>
      <trkpt lat="46.04208" lon="6.49584">
        <ele>1295</ele>
        <time>2015-06-28T12:48:42Z</time>
      </trkpt>
      <trkpt lat="46.04203" lon="6.49586">
        <ele>1296</ele>
        <time>2015-06-28T12:48:50Z</time>
      </trkpt>
      <trkpt lat="46.04199" lon="6.49591">
        <ele>1298</ele>
        <time>2015-06-28T12:48:58Z</time>
      </trkpt>
      <trkpt lat="46.04195" lon="6.49594">
        <ele>1297</ele>
        <time>2015-06-28T12:49:03Z</time>
      </trkpt>
      <trkpt lat="46.04191" lon="6.49599">
        <ele>1294</ele>
        <time>2015-06-28T12:49:10Z</time>
      </trkpt>
      <trkpt lat="46.04186" lon="6.49603">
        <ele>1292</ele>
        <time>2015-06-28T12:49:18Z</time>
      </trkpt>
      <trkpt lat="46.04181" lon="6.49607">
        <ele>1294</ele>
        <time>2015-06-28T12:49:25Z</time>
      </trkpt>
      <trkpt lat="46.04177" lon="6.49611">
        <ele>1298</ele>
        <time>2015-06-28T12:49:32Z</time>
      </trkpt>
      <trkpt lat="46.04172" lon="6.49611">
        <ele>1298</ele>
        <time>2015-06-28T12:49:35Z</time>
      </trkpt>
      <trkpt lat="46.04171" lon="6.49613">
        <ele>1304</ele>
        <time>2015-06-28T12:49:50Z</time>
      </trkpt>
      <trkpt lat="46.04168" lon="6.49614">
        <ele>1305</ele>
        <time>2015-06-28T12:49:57Z</time>
      </trkpt>
      <trkpt lat="46.04167" lon="6.49617">
        <ele>1311</ele>
        <time>2015-06-28T12:50:09Z</time>
      </trkpt>
      <trkpt lat="46.04163" lon="6.49615">
        <ele>1308</ele>
        <time>2015-06-28T12:50:10Z</time>
      </trkpt>
      <trkpt lat="46.04158" lon="6.49618">
        <ele>1307</ele>
        <time>2015-06-28T12:50:15Z</time>
      </trkpt>
      <trkpt lat="46.04153" lon="6.49618">
        <ele>1307</ele>
        <time>2015-06-28T12:50:20Z</time>
      </trkpt>
      <trkpt lat="46.04147" lon="6.49619">
        <ele>1309</ele>
        <time>2015-06-28T12:50:28Z</time>
      </trkpt>
      <trkpt lat="46.04142" lon="6.49621">
        <ele>1313</ele>
        <time>2015-06-28T12:50:34Z</time>
      </trkpt>
      <trkpt lat="46.04138" lon="6.49625">
        <ele>1313</ele>
        <time>2015-06-28T12:50:40Z</time>
      </trkpt>
      <trkpt lat="46.04133" lon="6.49625">
        <ele>1312</ele>
        <time>2015-06-28T12:50:50Z</time>
      </trkpt>
      <trkpt lat="46.04128" lon="6.49626">
        <ele>1306</ele>
        <time>2015-06-28T12:50:56Z</time>
      </trkpt>
      <trkpt lat="46.04123" lon="6.49627">
        <ele>1307</ele>
        <time>2015-06-28T12:51:16Z</time>
      </trkpt>
      <trkpt lat="46.04118" lon="6.49627">
        <ele>1305</ele>
        <time>2015-06-28T12:51:21Z</time>
      </trkpt>
      <trkpt lat="46.04113" lon="6.49627">
        <ele>1304</ele>
        <time>2015-06-28T12:51:28Z</time>
      </trkpt>
      <trkpt lat="46.04108" lon="6.49629">
        <ele>1308</ele>
        <time>2015-06-28T12:51:37Z</time>
      </trkpt>
      <trkpt lat="46.04104" lon="6.49628">
        <ele>1307</ele>
        <time>2015-06-28T12:51:44Z</time>
      </trkpt>
      <trkpt lat="46.04097" lon="6.49629">
        <ele>1304</ele>
        <time>2015-06-28T12:51:55Z</time>
      </trkpt>
      <trkpt lat="46.04093" lon="6.49631">
        <ele>1305</ele>
        <time>2015-06-28T12:51:57Z</time>
      </trkpt>
      <trkpt lat="46.04089" lon="6.49635">
        <ele>1308</ele>
        <time>2015-06-28T12:52:01Z</time>
      </trkpt>
      <trkpt lat="46.04085" lon="6.49639">
        <ele>1308</ele>
        <time>2015-06-28T12:52:08Z</time>
      </trkpt>
      <trkpt lat="46.04081" lon="6.49642">
        <ele>1306</ele>
        <time>2015-06-28T12:52:15Z</time>
      </trkpt>
      <trkpt lat="46.04077" lon="6.49646">
        <ele>1305</ele>
        <time>2015-06-28T12:52:20Z</time>
      </trkpt>
      <trkpt lat="46.04073" lon="6.49649">
        <ele>1309</ele>
        <time>2015-06-28T12:52:27Z</time>
      </trkpt>
      <trkpt lat="46.04068" lon="6.49648">
        <ele>1311</ele>
        <time>2015-06-28T12:52:33Z</time>
      </trkpt>
      <trkpt lat="46.04064" lon="6.4965">
        <ele>1312</ele>
        <time>2015-06-28T12:52:43Z</time>
      </trkpt>
      <trkpt lat="46.04059" lon="6.49651">
        <ele>1312</ele>
        <time>2015-06-28T12:52:51Z</time>
      </trkpt>
      <trkpt lat="46.04054" lon="6.4965">
        <ele>1327</ele>
        <time>2015-06-28T12:52:58Z</time>
      </trkpt>
      <trkpt lat="46.0406" lon="6.49656">
        <ele>1312</ele>
        <time>2015-06-28T12:53:03Z</time>
      </trkpt>
      <trkpt lat="46.04055" lon="6.49655">
        <ele>1314</ele>
        <time>2015-06-28T12:53:14Z</time>
      </trkpt>
      <trkpt lat="46.04051" lon="6.49651">
        <ele>1318</ele>
        <time>2015-06-28T12:53:19Z</time>
      </trkpt>
      <trkpt lat="46.04047" lon="6.49648">
        <ele>1320</ele>
        <time>2015-06-28T12:53:25Z</time>
      </trkpt>
      <trkpt lat="46.04042" lon="6.49648">
        <ele>1321</ele>
        <time>2015-06-28T12:53:31Z</time>
      </trkpt>
      <trkpt lat="46.04037" lon="6.49646">
        <ele>1323</ele>
        <time>2015-06-28T12:53:38Z</time>
      </trkpt>
      <trkpt lat="46.04032" lon="6.49644">
        <ele>1323</ele>
        <time>2015-06-28T12:53:44Z</time>
      </trkpt>
      <trkpt lat="46.04027" lon="6.49644">
        <ele>1323</ele>
        <time>2015-06-28T12:53:55Z</time>
      </trkpt>
      <trkpt lat="46.04022" lon="6.49643">
        <ele>1321</ele>
        <time>2015-06-28T12:54:03Z</time>
      </trkpt>
      <trkpt lat="46.04017" lon="6.49645">
        <ele>1321</ele>
        <time>2015-06-28T12:54:10Z</time>
      </trkpt>
      <trkpt lat="46.04013" lon="6.49644">
        <ele>1318</ele>
        <time>2015-06-28T12:54:15Z</time>
      </trkpt>
      <trkpt lat="46.04012" lon="6.49641">
        <ele>1326</ele>
        <time>2015-06-28T12:54:28Z</time>
      </trkpt>
      <trkpt lat="46.04008" lon="6.49641">
        <ele>1328</ele>
        <time>2015-06-28T12:54:32Z</time>
      </trkpt>
      <trkpt lat="46.04003" lon="6.4964">
        <ele>1325</ele>
        <time>2015-06-28T12:54:35Z</time>
      </trkpt>
      <trkpt lat="46.03998" lon="6.49639">
        <ele>1326</ele>
        <time>2015-06-28T12:54:38Z</time>
      </trkpt>
      <trkpt lat="46.03993" lon="6.49638">
        <ele>1325</ele>
        <time>2015-06-28T12:54:43Z</time>
      </trkpt>
      <trkpt lat="46.03988" lon="6.49634">
        <ele>1322</ele>
        <time>2015-06-28T12:54:48Z</time>
      </trkpt>
      <trkpt lat="46.03981" lon="6.49629">
        <ele>1322</ele>
        <time>2015-06-28T12:54:52Z</time>
      </trkpt>
      <trkpt lat="46.03977" lon="6.49628">
        <ele>1323</ele>
        <time>2015-06-28T12:54:59Z</time>
      </trkpt>
      <trkpt lat="46.03973" lon="6.49622">
        <ele>1326</ele>
        <time>2015-06-28T12:55:03Z</time>
      </trkpt>
      <trkpt lat="46.03968" lon="6.4962">
        <ele>1327</ele>
        <time>2015-06-28T12:55:14Z</time>
      </trkpt>
      <trkpt lat="46.03964" lon="6.49617">
        <ele>1336</ele>
        <time>2015-06-28T12:55:18Z</time>
      </trkpt>
      <trkpt lat="46.03962" lon="6.49623">
        <ele>1339</ele>
        <time>2015-06-28T12:55:22Z</time>
      </trkpt>
      <trkpt lat="46.03965" lon="6.49629">
        <ele>1343</ele>
        <time>2015-06-28T12:55:26Z</time>
      </trkpt>
      <trkpt lat="46.03968" lon="6.49632">
        <ele>1341</ele>
        <time>2015-06-28T12:55:34Z</time>
      </trkpt>
      <trkpt lat="46.03971" lon="6.49637">
        <ele>1342</ele>
        <time>2015-06-28T12:55:40Z</time>
      </trkpt>
      <trkpt lat="46.03973" lon="6.49645">
        <ele>1338</ele>
        <time>2015-06-28T12:55:46Z</time>
      </trkpt>
      <trkpt lat="46.03977" lon="6.49649">
        <ele>1336</ele>
        <time>2015-06-28T12:55:50Z</time>
      </trkpt>
      <trkpt lat="46.03978" lon="6.49655">
        <ele>1332</ele>
        <time>2015-06-28T12:55:56Z</time>
      </trkpt>
      <trkpt lat="46.03977" lon="6.49662">
        <ele>1334</ele>
        <time>2015-06-28T12:56:00Z</time>
      </trkpt>
      <trkpt lat="46.03978" lon="6.49668">
        <ele>1337</ele>
        <time>2015-06-28T12:56:03Z</time>
      </trkpt>
      <trkpt lat="46.03975" lon="6.49674">
        <ele>1336</ele>
        <time>2015-06-28T12:56:10Z</time>
      </trkpt>
      <trkpt lat="46.03972" lon="6.4967">
        <ele>1328</ele>
        <time>2015-06-28T12:56:14Z</time>
      </trkpt>
      <trkpt lat="46.03971" lon="6.49678">
        <ele>1332</ele>
        <time>2015-06-28T12:56:20Z</time>
      </trkpt>
      <trkpt lat="46.03971" lon="6.49685">
        <ele>1336</ele>
        <time>2015-06-28T12:56:25Z</time>
      </trkpt>
      <trkpt lat="46.03967" lon="6.49689">
        <ele>1335</ele>
        <time>2015-06-28T12:56:33Z</time>
      </trkpt>
      <trkpt lat="46.03967" lon="6.49696">
        <ele>1336</ele>
        <time>2015-06-28T12:56:39Z</time>
      </trkpt>
      <trkpt lat="46.03968" lon="6.49704">
        <ele>1339</ele>
        <time>2015-06-28T12:56:47Z</time>
      </trkpt>
      <trkpt lat="46.0397" lon="6.4971">
        <ele>1338</ele>
        <time>2015-06-28T12:57:10Z</time>
      </trkpt>
      <trkpt lat="46.03973" lon="6.4972">
        <ele>1347</ele>
        <time>2015-06-28T12:57:30Z</time>
      </trkpt>
      <trkpt lat="46.03967" lon="6.49724">
        <ele>1346</ele>
        <time>2015-06-28T12:57:38Z</time>
      </trkpt>
      <trkpt lat="46.03962" lon="6.49725">
        <ele>1344</ele>
        <time>2015-06-28T12:57:42Z</time>
      </trkpt>
      <trkpt lat="46.03962" lon="6.49733">
        <ele>1349</ele>
        <time>2015-06-28T12:57:50Z</time>
      </trkpt>
      <trkpt lat="46.03958" lon="6.49738">
        <ele>1352</ele>
        <time>2015-06-28T12:57:59Z</time>
      </trkpt>
      <trkpt lat="46.03958" lon="6.49746">
        <ele>1355</ele>
        <time>2015-06-28T12:58:07Z</time>
      </trkpt>
      <trkpt lat="46.03954" lon="6.49749">
        <ele>1354</ele>
        <time>2015-06-28T12:58:13Z</time>
      </trkpt>
      <trkpt lat="46.03949" lon="6.49752">
        <ele>1353</ele>
        <time>2015-06-28T12:58:18Z</time>
      </trkpt>
      <trkpt lat="46.03944" lon="6.49756">
        <ele>1354</ele>
        <time>2015-06-28T12:58:23Z</time>
      </trkpt>
      <trkpt lat="46.03943" lon="6.49763">
        <ele>1356</ele>
        <time>2015-06-28T12:58:30Z</time>
      </trkpt>
      <trkpt lat="46.03938" lon="6.49767">
        <ele>1356</ele>
        <time>2015-06-28T12:58:35Z</time>
      </trkpt>
      <trkpt lat="46.03936" lon="6.49775">
        <ele>1358</ele>
        <time>2015-06-28T12:58:42Z</time>
      </trkpt>
      <trkpt lat="46.03935" lon="6.49782">
        <ele>1360</ele>
        <time>2015-06-28T12:58:50Z</time>
      </trkpt>
      <trkpt lat="46.03935" lon="6.49789">
        <ele>1361</ele>
        <time>2015-06-28T12:58:56Z</time>
      </trkpt>
      <trkpt lat="46.03935" lon="6.49796">
        <ele>1362</ele>
        <time>2015-06-28T12:59:02Z</time>
      </trkpt>
      <trkpt lat="46.03933" lon="6.49803">
        <ele>1363</ele>
        <time>2015-06-28T12:59:10Z</time>
      </trkpt>
      <trkpt lat="46.0393" lon="6.49809">
        <ele>1365</ele>
        <time>2015-06-28T12:59:18Z</time>
      </trkpt>
      <trkpt lat="46.03932" lon="6.49816">
        <ele>1367</ele>
        <time>2015-06-28T12:59:26Z</time>
      </trkpt>
      <trkpt lat="46.03928" lon="6.4982">
        <ele>1367</ele>
        <time>2015-06-28T12:59:31Z</time>
      </trkpt>
      <trkpt lat="46.03928" lon="6.49827">
        <ele>1370</ele>
        <time>2015-06-28T12:59:38Z</time>
      </trkpt>
      <trkpt lat="46.03927" lon="6.49833">
        <ele>1373</ele>
        <time>2015-06-28T12:59:45Z</time>
      </trkpt>
      <trkpt lat="46.03923" lon="6.49839">
        <ele>1371</ele>
        <time>2015-06-28T12:59:51Z</time>
      </trkpt>
      <trkpt lat="46.03919" lon="6.49844">
        <ele>1373</ele>
        <time>2015-06-28T12:59:58Z</time>
      </trkpt>
      <trkpt lat="46.03915" lon="6.49849">
        <ele>1377</ele>
        <time>2015-06-28T13:00:05Z</time>
      </trkpt>
      <trkpt lat="46.03915" lon="6.49856">
        <ele>1377</ele>
        <time>2015-06-28T13:00:11Z</time>
      </trkpt>
      <trkpt lat="46.03912" lon="6.49861">
        <ele>1378</ele>
        <time>2015-06-28T13:00:18Z</time>
      </trkpt>
      <trkpt lat="46.03907" lon="6.49865">
        <ele>1376</ele>
        <time>2015-06-28T13:00:23Z</time>
      </trkpt>
      <trkpt lat="46.03904" lon="6.4987">
        <ele>1376</ele>
        <time>2015-06-28T13:00:30Z</time>
      </trkpt>
      <trkpt lat="46.03902" lon="6.49876">
        <ele>1376</ele>
        <time>2015-06-28T13:00:37Z</time>
      </trkpt>
      <trkpt lat="46.03899" lon="6.49882">
        <ele>1377</ele>
        <time>2015-06-28T13:00:45Z</time>
      </trkpt>
      <trkpt lat="46.03897" lon="6.49888">
        <ele>1382</ele>
        <time>2015-06-28T13:00:54Z</time>
      </trkpt>
      <trkpt lat="46.039" lon="6.49893">
        <ele>1383</ele>
        <time>2015-06-28T13:00:58Z</time>
      </trkpt>
      <trkpt lat="46.03898" lon="6.49899">
        <ele>1384</ele>
        <time>2015-06-28T13:01:04Z</time>
      </trkpt>
      <trkpt lat="46.03899" lon="6.49905">
        <ele>1383</ele>
        <time>2015-06-28T13:01:17Z</time>
      </trkpt>
      <trkpt lat="46.039" lon="6.49905">
        <ele>1385</ele>
        <time>2015-06-28T13:01:24Z</time>
      </trkpt>
      <trkpt lat="46.039" lon="6.49905">
        <ele>1385</ele>
        <time>2015-06-28T13:01:34Z</time>
      </trkpt>
      <trkpt lat="46.03898" lon="6.49911">
        <ele>1385</ele>
        <time>2015-06-28T13:01:44Z</time>
      </trkpt>
      <trkpt lat="46.03895" lon="6.49918">
        <ele>1387</ele>
        <time>2015-06-28T13:01:52Z</time>
      </trkpt>
      <trkpt lat="46.03891" lon="6.49924">
        <ele>1388</ele>
        <time>2015-06-28T13:02:00Z</time>
      </trkpt>
      <trkpt lat="46.03886" lon="6.49929">
        <ele>1389</ele>
        <time>2015-06-28T13:02:08Z</time>
      </trkpt>
      <trkpt lat="46.03884" lon="6.49936">
        <ele>1388</ele>
        <time>2015-06-28T13:02:16Z</time>
      </trkpt>
      <trkpt lat="46.03881" lon="6.49941">
        <ele>1391</ele>
        <time>2015-06-28T13:02:24Z</time>
      </trkpt>
      <trkpt lat="46.0388" lon="6.49947">
        <ele>1396</ele>
        <time>2015-06-28T13:02:36Z</time>
      </trkpt>
      <trkpt lat="46.03875" lon="6.49951">
        <ele>1398</ele>
        <time>2015-06-28T13:02:44Z</time>
      </trkpt>
      <trkpt lat="46.03871" lon="6.49956">
        <ele>1398</ele>
        <time>2015-06-28T13:02:52Z</time>
      </trkpt>
      <trkpt lat="46.03863" lon="6.49957">
        <ele>1400</ele>
        <time>2015-06-28T13:03:00Z</time>
      </trkpt>
      <trkpt lat="46.03859" lon="6.49964">
        <ele>1401</ele>
        <time>2015-06-28T13:03:08Z</time>
      </trkpt>
      <trkpt lat="46.03857" lon="6.4997">
        <ele>1402</ele>
        <time>2015-06-28T13:03:17Z</time>
      </trkpt>
      <trkpt lat="46.03857" lon="6.49973">
        <ele>1403</ele>
        <time>2015-06-28T13:03:46Z</time>
      </trkpt>
      <trkpt lat="46.03853" lon="6.49975">
        <ele>1403</ele>
        <time>2015-06-28T13:03:50Z</time>
      </trkpt>
      <trkpt lat="46.03848" lon="6.4998">
        <ele>1403</ele>
        <time>2015-06-28T13:03:56Z</time>
      </trkpt>
      <trkpt lat="46.03847" lon="6.49987">
        <ele>1404</ele>
        <time>2015-06-28T13:04:03Z</time>
      </trkpt>
      <trkpt lat="46.03843" lon="6.49993">
        <ele>1404</ele>
        <time>2015-06-28T13:04:12Z</time>
      </trkpt>
      <trkpt lat="46.03841" lon="6.49999">
        <ele>1404</ele>
        <time>2015-06-28T13:04:21Z</time>
      </trkpt>
      <trkpt lat="46.03834" lon="6.5">
        <ele>1404</ele>
        <time>2015-06-28T13:04:28Z</time>
      </trkpt>
      <trkpt lat="46.03829" lon="6.49999">
        <ele>1404</ele>
        <time>2015-06-28T13:04:30Z</time>
      </trkpt>
      <trkpt lat="46.03824" lon="6.5">
        <ele>1404</ele>
        <time>2015-06-28T13:04:35Z</time>
      </trkpt>
      <trkpt lat="46.03819" lon="6.5">
        <ele>1405</ele>
        <time>2015-06-28T13:04:41Z</time>
      </trkpt>
      <trkpt lat="46.03814" lon="6.50002">
        <ele>1407</ele>
        <time>2015-06-28T13:04:49Z</time>
      </trkpt>
      <trkpt lat="46.03812" lon="6.5001">
        <ele>1408</ele>
        <time>2015-06-28T13:05:07Z</time>
      </trkpt>
      <trkpt lat="46.03807" lon="6.50012">
        <ele>1411</ele>
        <time>2015-06-28T13:05:13Z</time>
      </trkpt>
      <trkpt lat="46.03803" lon="6.50016">
        <ele>1415</ele>
        <time>2015-06-28T13:05:20Z</time>
      </trkpt>
      <trkpt lat="46.038" lon="6.50021">
        <ele>1412</ele>
        <time>2015-06-28T13:05:28Z</time>
      </trkpt>
      <trkpt lat="46.03795" lon="6.50019">
        <ele>1415</ele>
        <time>2015-06-28T13:05:34Z</time>
      </trkpt>
      <trkpt lat="46.0379" lon="6.50021">
        <ele>1417</ele>
        <time>2015-06-28T13:05:43Z</time>
      </trkpt>
      <trkpt lat="46.03787" lon="6.50026">
        <ele>1416</ele>
        <time>2015-06-28T13:05:49Z</time>
      </trkpt>
      <trkpt lat="46.03782" lon="6.50028">
        <ele>1415</ele>
        <time>2015-06-28T13:05:56Z</time>
      </trkpt>
      <trkpt lat="46.03779" lon="6.50033">
        <ele>1417</ele>
        <time>2015-06-28T13:06:03Z</time>
      </trkpt>
      <trkpt lat="46.03774" lon="6.50035">
        <ele>1419</ele>
        <time>2015-06-28T13:06:08Z</time>
      </trkpt>
      <trkpt lat="46.03771" lon="6.50039">
        <ele>1420</ele>
        <time>2015-06-28T13:06:16Z</time>
      </trkpt>
      <trkpt lat="46.03767" lon="6.50044">
        <ele>1420</ele>
        <time>2015-06-28T13:06:27Z</time>
      </trkpt>
      <trkpt lat="46.03761" lon="6.50044">
        <ele>1425</ele>
        <time>2015-06-28T13:06:35Z</time>
      </trkpt>
      <trkpt lat="46.03756" lon="6.50046">
        <ele>1426</ele>
        <time>2015-06-28T13:06:43Z</time>
      </trkpt>
      <trkpt lat="46.03751" lon="6.50048">
        <ele>1426</ele>
        <time>2015-06-28T13:06:49Z</time>
      </trkpt>
      <trkpt lat="46.03748" lon="6.50053">
        <ele>1426</ele>
        <time>2015-06-28T13:06:55Z</time>
      </trkpt>
      <trkpt lat="46.03743" lon="6.5005">
        <ele>1432</ele>
        <time>2015-06-28T13:07:00Z</time>
      </trkpt>
      <trkpt lat="46.03738" lon="6.50052">
        <ele>1429</ele>
        <time>2015-06-28T13:07:11Z</time>
      </trkpt>
      <trkpt lat="46.03733" lon="6.50053">
        <ele>1431</ele>
        <time>2015-06-28T13:07:17Z</time>
      </trkpt>
      <trkpt lat="46.03729" lon="6.50055">
        <ele>1433</ele>
        <time>2015-06-28T13:07:24Z</time>
      </trkpt>
      <trkpt lat="46.03724" lon="6.5006">
        <ele>1433</ele>
        <time>2015-06-28T13:07:32Z</time>
      </trkpt>
      <trkpt lat="46.03719" lon="6.50063">
        <ele>1436</ele>
        <time>2015-06-28T13:07:39Z</time>
      </trkpt>
      <trkpt lat="46.03716" lon="6.50067">
        <ele>1437</ele>
        <time>2015-06-28T13:07:45Z</time>
      </trkpt>
      <trkpt lat="46.03711" lon="6.50068">
        <ele>1438</ele>
        <time>2015-06-28T13:07:49Z</time>
      </trkpt>
      <trkpt lat="46.03706" lon="6.50072">
        <ele>1437</ele>
        <time>2015-06-28T13:07:55Z</time>
      </trkpt>
      <trkpt lat="46.03701" lon="6.50075">
        <ele>1438</ele>
        <time>2015-06-28T13:08:00Z</time>
      </trkpt>
      <trkpt lat="46.03698" lon="6.50081">
        <ele>1436</ele>
        <time>2015-06-28T13:08:11Z</time>
      </trkpt>
      <trkpt lat="46.03694" lon="6.50086">
        <ele>1435</ele>
        <time>2015-06-28T13:08:19Z</time>
      </trkpt>
      <trkpt lat="46.03689" lon="6.50087">
        <ele>1437</ele>
        <time>2015-06-28T13:08:24Z</time>
      </trkpt>
      <trkpt lat="46.03684" lon="6.5009">
        <ele>1438</ele>
        <time>2015-06-28T13:08:32Z</time>
      </trkpt>
      <trkpt lat="46.0368" lon="6.50087">
        <ele>1439</ele>
        <time>2015-06-28T13:08:43Z</time>
      </trkpt>
      <trkpt lat="46.03675" lon="6.50087">
        <ele>1439</ele>
        <time>2015-06-28T13:08:48Z</time>
      </trkpt>
      <trkpt lat="46.0367" lon="6.50084">
        <ele>1444</ele>
        <time>2015-06-28T13:08:55Z</time>
      </trkpt>
      <trkpt lat="46.03664" lon="6.50084">
        <ele>1443</ele>
        <time>2015-06-28T13:09:03Z</time>
      </trkpt>
      <trkpt lat="46.03661" lon="6.50088">
        <ele>1443</ele>
        <time>2015-06-28T13:09:08Z</time>
      </trkpt>
      <trkpt lat="46.03656" lon="6.50088">
        <ele>1443</ele>
        <time>2015-06-28T13:09:17Z</time>
      </trkpt>
      <trkpt lat="46.03649" lon="6.50086">
        <ele>1442</ele>
        <time>2015-06-28T13:09:27Z</time>
      </trkpt>
      <trkpt lat="46.03643" lon="6.50084">
        <ele>1444</ele>
        <time>2015-06-28T13:09:40Z</time>
      </trkpt>
      <trkpt lat="46.03638" lon="6.50086">
        <ele>1447</ele>
        <time>2015-06-28T13:09:48Z</time>
      </trkpt>
      <trkpt lat="46.03632" lon="6.50084">
        <ele>1448</ele>
        <time>2015-06-28T13:09:53Z</time>
      </trkpt>
      <trkpt lat="46.03627" lon="6.50083">
        <ele>1448</ele>
        <time>2015-06-28T13:10:00Z</time>
      </trkpt>
      <trkpt lat="46.03622" lon="6.50082">
        <ele>1445</ele>
        <time>2015-06-28T13:10:05Z</time>
      </trkpt>
      <trkpt lat="46.03618" lon="6.50085">
        <ele>1446</ele>
        <time>2015-06-28T13:10:10Z</time>
      </trkpt>
      <trkpt lat="46.03614" lon="6.5009">
        <ele>1448</ele>
        <time>2015-06-28T13:10:21Z</time>
      </trkpt>
      <trkpt lat="46.03609" lon="6.50091">
        <ele>1450</ele>
        <time>2015-06-28T13:10:25Z</time>
      </trkpt>
      <trkpt lat="46.03604" lon="6.50092">
        <ele>1451</ele>
        <time>2015-06-28T13:10:31Z</time>
      </trkpt>
      <trkpt lat="46.03599" lon="6.50094">
        <ele>1451</ele>
        <time>2015-06-28T13:10:37Z</time>
      </trkpt>
      <trkpt lat="46.03593" lon="6.50094">
        <ele>1452</ele>
        <time>2015-06-28T13:10:43Z</time>
      </trkpt>
      <trkpt lat="46.03588" lon="6.50097">
        <ele>1452</ele>
        <time>2015-06-28T13:10:51Z</time>
      </trkpt>
      <trkpt lat="46.03583" lon="6.50098">
        <ele>1453</ele>
        <time>2015-06-28T13:10:57Z</time>
      </trkpt>
      <trkpt lat="46.03578" lon="6.50101">
        <ele>1457</ele>
        <time>2015-06-28T13:11:03Z</time>
      </trkpt>
      <trkpt lat="46.03574" lon="6.50104">
        <ele>1456</ele>
        <time>2015-06-28T13:11:11Z</time>
      </trkpt>
      <trkpt lat="46.03569" lon="6.50104">
        <ele>1456</ele>
        <time>2015-06-28T13:11:16Z</time>
      </trkpt>
      <trkpt lat="46.03564" lon="6.50105">
        <ele>1455</ele>
        <time>2015-06-28T13:11:21Z</time>
      </trkpt>
      <trkpt lat="46.03559" lon="6.50102">
        <ele>1457</ele>
        <time>2015-06-28T13:11:26Z</time>
      </trkpt>
      <trkpt lat="46.03553" lon="6.50103">
        <ele>1453</ele>
        <time>2015-06-28T13:11:35Z</time>
      </trkpt>
      <trkpt lat="46.03548" lon="6.50101">
        <ele>1453</ele>
        <time>2015-06-28T13:11:40Z</time>
      </trkpt>
      <trkpt lat="46.03544" lon="6.50104">
        <ele>1457</ele>
        <time>2015-06-28T13:11:48Z</time>
      </trkpt>
      <trkpt lat="46.03539" lon="6.50102">
        <ele>1458</ele>
        <time>2015-06-28T13:11:52Z</time>
      </trkpt>
      <trkpt lat="46.03535" lon="6.501">
        <ele>1459</ele>
        <time>2015-06-28T13:11:56Z</time>
      </trkpt>
      <trkpt lat="46.0353" lon="6.50104">
        <ele>1462</ele>
        <time>2015-06-28T13:12:01Z</time>
      </trkpt>
      <trkpt lat="46.03526" lon="6.50108">
        <ele>1461</ele>
        <time>2015-06-28T13:12:07Z</time>
      </trkpt>
      <trkpt lat="46.0352" lon="6.5011">
        <ele>1464</ele>
        <time>2015-06-28T13:12:13Z</time>
      </trkpt>
      <trkpt lat="46.03515" lon="6.50113">
        <ele>1463</ele>
        <time>2015-06-28T13:12:23Z</time>
      </trkpt>
      <trkpt lat="46.03509" lon="6.50115">
        <ele>1462</ele>
        <time>2015-06-28T13:12:31Z</time>
      </trkpt>
      <trkpt lat="46.03504" lon="6.50113">
        <ele>1462</ele>
        <time>2015-06-28T13:12:37Z</time>
      </trkpt>
      <trkpt lat="46.03499" lon="6.50114">
        <ele>1466</ele>
        <time>2015-06-28T13:12:45Z</time>
      </trkpt>
      <trkpt lat="46.03494" lon="6.50114">
        <ele>1466</ele>
        <time>2015-06-28T13:12:49Z</time>
      </trkpt>
      <trkpt lat="46.03487" lon="6.50111">
        <ele>1466</ele>
        <time>2015-06-28T13:12:59Z</time>
      </trkpt>
      <trkpt lat="46.03481" lon="6.50115">
        <ele>1467</ele>
        <time>2015-06-28T13:13:04Z</time>
      </trkpt>
      <trkpt lat="46.03476" lon="6.50115">
        <ele>1469</ele>
        <time>2015-06-28T13:13:10Z</time>
      </trkpt>
      <trkpt lat="46.03472" lon="6.50117">
        <ele>1468</ele>
        <time>2015-06-28T13:13:20Z</time>
      </trkpt>
      <trkpt lat="46.03466" lon="6.50118">
        <ele>1468</ele>
        <time>2015-06-28T13:13:28Z</time>
      </trkpt>
      <trkpt lat="46.03459" lon="6.50115">
        <ele>1473</ele>
        <time>2015-06-28T13:13:31Z</time>
      </trkpt>
      <trkpt lat="46.03455" lon="6.5012">
        <ele>1472</ele>
        <time>2015-06-28T13:13:40Z</time>
      </trkpt>
      <trkpt lat="46.0345" lon="6.50118">
        <ele>1472</ele>
        <time>2015-06-28T13:13:52Z</time>
      </trkpt>
      <trkpt lat="46.03444" lon="6.5012">
        <ele>1472</ele>
        <time>2015-06-28T13:13:59Z</time>
      </trkpt>
      <trkpt lat="46.03439" lon="6.50123">
        <ele>1474</ele>
        <time>2015-06-28T13:14:07Z</time>
      </trkpt>
      <trkpt lat="46.03434" lon="6.50123">
        <ele>1477</ele>
        <time>2015-06-28T13:14:13Z</time>
      </trkpt>
      <trkpt lat="46.03429" lon="6.50121">
        <ele>1479</ele>
        <time>2015-06-28T13:14:17Z</time>
      </trkpt>
      <trkpt lat="46.03427" lon="6.5013">
        <ele>1475</ele>
        <time>2015-06-28T13:14:27Z</time>
      </trkpt>
      <trkpt lat="46.03423" lon="6.50128">
        <ele>1474</ele>
        <time>2015-06-28T13:14:31Z</time>
      </trkpt>
      <trkpt lat="46.03418" lon="6.5013">
        <ele>1474</ele>
        <time>2015-06-28T13:14:37Z</time>
      </trkpt>
      <trkpt lat="46.03414" lon="6.50135">
        <ele>1474</ele>
        <time>2015-06-28T13:14:45Z</time>
      </trkpt>
      <trkpt lat="46.03409" lon="6.50139">
        <ele>1474</ele>
        <time>2015-06-28T13:14:51Z</time>
      </trkpt>
      <trkpt lat="46.03405" lon="6.50143">
        <ele>1474</ele>
        <time>2015-06-28T13:14:55Z</time>
      </trkpt>
      <trkpt lat="46.03402" lon="6.50148">
        <ele>1474</ele>
        <time>2015-06-28T13:15:00Z</time>
      </trkpt>
      <trkpt lat="46.03399" lon="6.50153">
        <ele>1476</ele>
        <time>2015-06-28T13:15:09Z</time>
      </trkpt>
      <trkpt lat="46.034" lon="6.5016">
        <ele>1474</ele>
        <time>2015-06-28T13:15:16Z</time>
      </trkpt>
      <trkpt lat="46.03399" lon="6.50167">
        <ele>1479</ele>
        <time>2015-06-28T13:15:24Z</time>
      </trkpt>
      <trkpt lat="46.03395" lon="6.50171">
        <ele>1481</ele>
        <time>2015-06-28T13:15:28Z</time>
      </trkpt>
      <trkpt lat="46.03392" lon="6.50176">
        <ele>1479</ele>
        <time>2015-06-28T13:15:35Z</time>
      </trkpt>
      <trkpt lat="46.03389" lon="6.5018">
        <ele>1477</ele>
        <time>2015-06-28T13:15:40Z</time>
      </trkpt>
      <trkpt lat="46.03386" lon="6.50186">
        <ele>1480</ele>
        <time>2015-06-28T13:15:48Z</time>
      </trkpt>
      <trkpt lat="46.03382" lon="6.5019">
        <ele>1482</ele>
        <time>2015-06-28T13:15:57Z</time>
      </trkpt>
      <trkpt lat="46.03378" lon="6.50195">
        <ele>1482</ele>
        <time>2015-06-28T13:16:03Z</time>
      </trkpt>
      <trkpt lat="46.03374" lon="6.50197">
        <ele>1483</ele>
        <time>2015-06-28T13:16:07Z</time>
      </trkpt>
      <trkpt lat="46.03369" lon="6.50199">
        <ele>1484</ele>
        <time>2015-06-28T13:16:13Z</time>
      </trkpt>
      <trkpt lat="46.03369" lon="6.50206">
        <ele>1486</ele>
        <time>2015-06-28T13:16:23Z</time>
      </trkpt>
      <trkpt lat="46.0336" lon="6.50208">
        <ele>1486</ele>
        <time>2015-06-28T13:16:27Z</time>
      </trkpt>
      <trkpt lat="46.03359" lon="6.50215">
        <ele>1486</ele>
        <time>2015-06-28T13:16:39Z</time>
      </trkpt>
      <trkpt lat="46.03355" lon="6.50218">
        <ele>1490</ele>
        <time>2015-06-28T13:16:45Z</time>
      </trkpt>
      <trkpt lat="46.03351" lon="6.50223">
        <ele>1493</ele>
        <time>2015-06-28T13:16:51Z</time>
      </trkpt>
      <trkpt lat="46.03347" lon="6.50225">
        <ele>1496</ele>
        <time>2015-06-28T13:16:57Z</time>
      </trkpt>
      <trkpt lat="46.03343" lon="6.50229">
        <ele>1497</ele>
        <time>2015-06-28T13:17:04Z</time>
      </trkpt>
      <trkpt lat="46.03339" lon="6.50233">
        <ele>1500</ele>
        <time>2015-06-28T13:17:11Z</time>
      </trkpt>
      <trkpt lat="46.03336" lon="6.50239">
        <ele>1498</ele>
        <time>2015-06-28T13:17:19Z</time>
      </trkpt>
      <trkpt lat="46.03333" lon="6.50243">
        <ele>1499</ele>
        <time>2015-06-28T13:17:24Z</time>
      </trkpt>
      <trkpt lat="46.03329" lon="6.50248">
        <ele>1497</ele>
        <time>2015-06-28T13:17:32Z</time>
      </trkpt>
      <trkpt lat="46.03325" lon="6.50251">
        <ele>1503</ele>
        <time>2015-06-28T13:17:38Z</time>
      </trkpt>
      <trkpt lat="46.0332" lon="6.50255">
        <ele>1503</ele>
        <time>2015-06-28T13:17:47Z</time>
      </trkpt>
      <trkpt lat="46.03316" lon="6.50259">
        <ele>1507</ele>
        <time>2015-06-28T13:17:55Z</time>
      </trkpt>
      <trkpt lat="46.03313" lon="6.50265">
        <ele>1508</ele>
        <time>2015-06-28T13:18:02Z</time>
      </trkpt>
      <trkpt lat="46.0331" lon="6.5027">
        <ele>1508</ele>
        <time>2015-06-28T13:18:08Z</time>
      </trkpt>
      <trkpt lat="46.03306" lon="6.50276">
        <ele>1511</ele>
        <time>2015-06-28T13:18:15Z</time>
      </trkpt>
      <trkpt lat="46.03302" lon="6.50281">
        <ele>1514</ele>
        <time>2015-06-28T13:18:21Z</time>
      </trkpt>
      <trkpt lat="46.03299" lon="6.50285">
        <ele>1517</ele>
        <time>2015-06-28T13:18:26Z</time>
      </trkpt>
      <trkpt lat="46.03296" lon="6.5029">
        <ele>1516</ele>
        <time>2015-06-28T13:18:31Z</time>
      </trkpt>
      <trkpt lat="46.0329" lon="6.50289">
        <ele>1521</ele>
        <time>2015-06-28T13:18:36Z</time>
      </trkpt>
      <trkpt lat="46.03286" lon="6.50293">
        <ele>1525</ele>
        <time>2015-06-28T13:18:41Z</time>
      </trkpt>
      <trkpt lat="46.03284" lon="6.50299">
        <ele>1522</ele>
        <time>2015-06-28T13:18:45Z</time>
      </trkpt>
      <trkpt lat="46.0328" lon="6.50302">
        <ele>1522</ele>
        <time>2015-06-28T13:18:50Z</time>
      </trkpt>
      <trkpt lat="46.03275" lon="6.50305">
        <ele>1522</ele>
        <time>2015-06-28T13:18:55Z</time>
      </trkpt>
      <trkpt lat="46.03274" lon="6.50314">
        <ele>1519</ele>
        <time>2015-06-28T13:19:01Z</time>
      </trkpt>
      <trkpt lat="46.03272" lon="6.50321">
        <ele>1517</ele>
        <time>2015-06-28T13:19:05Z</time>
      </trkpt>
      <trkpt lat="46.03269" lon="6.50327">
        <ele>1517</ele>
        <time>2015-06-28T13:19:09Z</time>
      </trkpt>
      <trkpt lat="46.03266" lon="6.50332">
        <ele>1516</ele>
        <time>2015-06-28T13:19:14Z</time>
      </trkpt>
      <trkpt lat="46.03264" lon="6.50338">
        <ele>1514</ele>
        <time>2015-06-28T13:19:19Z</time>
      </trkpt>
      <trkpt lat="46.03259" lon="6.5034">
        <ele>1514</ele>
        <time>2015-06-28T13:19:24Z</time>
      </trkpt>
      <trkpt lat="46.03254" lon="6.50345">
        <ele>1508</ele>
        <time>2015-06-28T13:19:32Z</time>
      </trkpt>
      <trkpt lat="46.03248" lon="6.50344">
        <ele>1512</ele>
        <time>2015-06-28T13:19:37Z</time>
      </trkpt>
      <trkpt lat="46.03243" lon="6.50342">
        <ele>1514</ele>
        <time>2015-06-28T13:19:41Z</time>
      </trkpt>
      <trkpt lat="46.03238" lon="6.50341">
        <ele>1518</ele>
        <time>2015-06-28T13:19:45Z</time>
      </trkpt>
      <trkpt lat="46.03232" lon="6.50341">
        <ele>1522</ele>
        <time>2015-06-28T13:19:49Z</time>
      </trkpt>
      <trkpt lat="46.03227" lon="6.50339">
        <ele>1524</ele>
        <time>2015-06-28T13:19:53Z</time>
      </trkpt>
      <trkpt lat="46.03222" lon="6.50338">
        <ele>1527</ele>
        <time>2015-06-28T13:19:56Z</time>
      </trkpt>
      <trkpt lat="46.03218" lon="6.50341">
        <ele>1518</ele>
        <time>2015-06-28T13:20:09Z</time>
      </trkpt>
      <trkpt lat="46.03212" lon="6.5034">
        <ele>1516</ele>
        <time>2015-06-28T13:20:16Z</time>
      </trkpt>
      <trkpt lat="46.03207" lon="6.50341">
        <ele>1511</ele>
        <time>2015-06-28T13:20:22Z</time>
      </trkpt>
      <trkpt lat="46.03202" lon="6.50339">
        <ele>1508</ele>
        <time>2015-06-28T13:20:29Z</time>
      </trkpt>
      <trkpt lat="46.03198" lon="6.50338">
        <ele>1506</ele>
        <time>2015-06-28T13:20:35Z</time>
      </trkpt>
      <trkpt lat="46.03193" lon="6.50343">
        <ele>1502</ele>
        <time>2015-06-28T13:20:41Z</time>
      </trkpt>
      <trkpt lat="46.03189" lon="6.50344">
        <ele>1503</ele>
        <time>2015-06-28T13:20:46Z</time>
      </trkpt>
      <trkpt lat="46.03184" lon="6.50345">
        <ele>1503</ele>
        <time>2015-06-28T13:20:49Z</time>
      </trkpt>
      <trkpt lat="46.0318" lon="6.50345">
        <ele>1499</ele>
        <time>2015-06-28T13:20:54Z</time>
      </trkpt>
      <trkpt lat="46.03175" lon="6.50348">
        <ele>1495</ele>
        <time>2015-06-28T13:21:01Z</time>
      </trkpt>
      <trkpt lat="46.0317" lon="6.50346">
        <ele>1493</ele>
        <time>2015-06-28T13:21:05Z</time>
      </trkpt>
      <trkpt lat="46.03165" lon="6.50343">
        <ele>1493</ele>
        <time>2015-06-28T13:21:09Z</time>
      </trkpt>
      <trkpt lat="46.0316" lon="6.50342">
        <ele>1494</ele>
        <time>2015-06-28T13:21:14Z</time>
      </trkpt>
      <trkpt lat="46.03156" lon="6.50341">
        <ele>1496</ele>
        <time>2015-06-28T13:21:19Z</time>
      </trkpt>
      <trkpt lat="46.03151" lon="6.50336">
        <ele>1497</ele>
        <time>2015-06-28T13:21:25Z</time>
      </trkpt>
      <trkpt lat="46.03145" lon="6.50334">
        <ele>1499</ele>
        <time>2015-06-28T13:21:31Z</time>
      </trkpt>
      <trkpt lat="46.0314" lon="6.50331">
        <ele>1499</ele>
        <time>2015-06-28T13:21:36Z</time>
      </trkpt>
      <trkpt lat="46.03134" lon="6.50328">
        <ele>1500</ele>
        <time>2015-06-28T13:21:42Z</time>
      </trkpt>
      <trkpt lat="46.0313" lon="6.50322">
        <ele>1498</ele>
        <time>2015-06-28T13:21:45Z</time>
      </trkpt>
      <trkpt lat="46.03124" lon="6.50318">
        <ele>1504</ele>
        <time>2015-06-28T13:21:52Z</time>
      </trkpt>
      <trkpt lat="46.03119" lon="6.50316">
        <ele>1505</ele>
        <time>2015-06-28T13:21:56Z</time>
      </trkpt>
      <trkpt lat="46.03114" lon="6.50313">
        <ele>1508</ele>
        <time>2015-06-28T13:22:00Z</time>
      </trkpt>
      <trkpt lat="46.0311" lon="6.50308">
        <ele>1511</ele>
        <time>2015-06-28T13:22:03Z</time>
      </trkpt>
      <trkpt lat="46.03105" lon="6.50305">
        <ele>1508</ele>
        <time>2015-06-28T13:22:12Z</time>
      </trkpt>
      <trkpt lat="46.031" lon="6.50305">
        <ele>1509</ele>
        <time>2015-06-28T13:22:16Z</time>
      </trkpt>
      <trkpt lat="46.03095" lon="6.50304">
        <ele>1508</ele>
        <time>2015-06-28T13:22:21Z</time>
      </trkpt>
      <trkpt lat="46.0309" lon="6.50299">
        <ele>1508</ele>
        <time>2015-06-28T13:22:25Z</time>
      </trkpt>
      <trkpt lat="46.03085" lon="6.50299">
        <ele>1506</ele>
        <time>2015-06-28T13:22:32Z</time>
      </trkpt>
      <trkpt lat="46.0308" lon="6.50298">
        <ele>1508</ele>
        <time>2015-06-28T13:22:36Z</time>
      </trkpt>
      <trkpt lat="46.03075" lon="6.503">
        <ele>1500</ele>
        <time>2015-06-28T13:22:46Z</time>
      </trkpt>
      <trkpt lat="46.0307" lon="6.50299">
        <ele>1499</ele>
        <time>2015-06-28T13:22:52Z</time>
      </trkpt>
      <trkpt lat="46.03066" lon="6.503">
        <ele>1496</ele>
        <time>2015-06-28T13:22:58Z</time>
      </trkpt>
      <trkpt lat="46.03061" lon="6.50301">
        <ele>1499</ele>
        <time>2015-06-28T13:23:02Z</time>
      </trkpt>
      <trkpt lat="46.03056" lon="6.50306">
        <ele>1490</ele>
        <time>2015-06-28T13:23:13Z</time>
      </trkpt>
      <trkpt lat="46.03051" lon="6.5031">
        <ele>1490</ele>
        <time>2015-06-28T13:23:17Z</time>
      </trkpt>
      <trkpt lat="46.03045" lon="6.50311">
        <ele>1490</ele>
        <time>2015-06-28T13:23:23Z</time>
      </trkpt>
      <trkpt lat="46.0304" lon="6.50312">
        <ele>1484</ele>
        <time>2015-06-28T13:23:30Z</time>
      </trkpt>
      <trkpt lat="46.03037" lon="6.50318">
        <ele>1482</ele>
        <time>2015-06-28T13:23:37Z</time>
      </trkpt>
      <trkpt lat="46.03032" lon="6.50315">
        <ele>1480</ele>
        <time>2015-06-28T13:23:39Z</time>
      </trkpt>
      <trkpt lat="46.03028" lon="6.50319">
        <ele>1481</ele>
        <time>2015-06-28T13:23:44Z</time>
      </trkpt>
      <trkpt lat="46.03024" lon="6.50323">
        <ele>1484</ele>
        <time>2015-06-28T13:23:49Z</time>
      </trkpt>
      <trkpt lat="46.0302" lon="6.50329">
        <ele>1485</ele>
        <time>2015-06-28T13:23:54Z</time>
      </trkpt>
      <trkpt lat="46.03016" lon="6.5033">
        <ele>1482</ele>
        <time>2015-06-28T13:23:58Z</time>
      </trkpt>
      <trkpt lat="46.03012" lon="6.50335">
        <ele>1482</ele>
        <time>2015-06-28T13:24:03Z</time>
      </trkpt>
      <trkpt lat="46.03008" lon="6.5034">
        <ele>1482</ele>
        <time>2015-06-28T13:24:11Z</time>
      </trkpt>
      <trkpt lat="46.03001" lon="6.50342">
        <ele>1481</ele>
        <time>2015-06-28T13:24:16Z</time>
      </trkpt>
      <trkpt lat="46.02996" lon="6.50345">
        <ele>1479</ele>
        <time>2015-06-28T13:24:21Z</time>
      </trkpt>
      <trkpt lat="46.02992" lon="6.50349">
        <ele>1480</ele>
        <time>2015-06-28T13:24:26Z</time>
      </trkpt>
      <trkpt lat="46.02991" lon="6.50356">
        <ele>1480</ele>
        <time>2015-06-28T13:24:31Z</time>
      </trkpt>
      <trkpt lat="46.02987" lon="6.5036">
        <ele>1480</ele>
        <time>2015-06-28T13:24:36Z</time>
      </trkpt>
      <trkpt lat="46.02981" lon="6.50364">
        <ele>1482</ele>
        <time>2015-06-28T13:24:40Z</time>
      </trkpt>
      <trkpt lat="46.02975" lon="6.50366">
        <ele>1483</ele>
        <time>2015-06-28T13:24:44Z</time>
      </trkpt>
      <trkpt lat="46.02971" lon="6.50368">
        <ele>1485</ele>
        <time>2015-06-28T13:24:49Z</time>
      </trkpt>
      <trkpt lat="46.02965" lon="6.5037">
        <ele>1484</ele>
        <time>2015-06-28T13:24:56Z</time>
      </trkpt>
      <trkpt lat="46.02959" lon="6.50372">
        <ele>1483</ele>
        <time>2015-06-28T13:25:03Z</time>
      </trkpt>
      <trkpt lat="46.02954" lon="6.50369">
        <ele>1487</ele>
        <time>2015-06-28T13:25:08Z</time>
      </trkpt>
      <trkpt lat="46.02949" lon="6.5037">
        <ele>1491</ele>
        <time>2015-06-28T13:25:16Z</time>
      </trkpt>
      <trkpt lat="46.02945" lon="6.50373">
        <ele>1492</ele>
        <time>2015-06-28T13:25:20Z</time>
      </trkpt>
      <trkpt lat="46.02942" lon="6.50381">
        <ele>1491</ele>
        <time>2015-06-28T13:25:28Z</time>
      </trkpt>
      <trkpt lat="46.0294" lon="6.50382">
        <ele>1498</ele>
        <time>2015-06-28T13:25:45Z</time>
      </trkpt>
      <trkpt lat="46.02937" lon="6.50382">
        <ele>1501</ele>
        <time>2015-06-28T13:25:48Z</time>
      </trkpt>
      <trkpt lat="46.02932" lon="6.50383">
        <ele>1503</ele>
        <time>2015-06-28T13:25:55Z</time>
      </trkpt>
      <trkpt lat="46.02933" lon="6.50389">
        <ele>1500</ele>
        <time>2015-06-28T13:26:01Z</time>
      </trkpt>
      <trkpt lat="46.02929" lon="6.50393">
        <ele>1502</ele>
        <time>2015-06-28T13:26:08Z</time>
      </trkpt>
      <trkpt lat="46.02932" lon="6.504">
        <ele>1496</ele>
        <time>2015-06-28T13:26:16Z</time>
      </trkpt>
      <trkpt lat="46.0293" lon="6.50406">
        <ele>1492</ele>
        <time>2015-06-28T13:26:25Z</time>
      </trkpt>
      <trkpt lat="46.02927" lon="6.50412">
        <ele>1496</ele>
        <time>2015-06-28T13:26:39Z</time>
      </trkpt>
      <trkpt lat="46.02927" lon="6.50418">
        <ele>1493</ele>
        <time>2015-06-28T13:26:48Z</time>
      </trkpt>
      <trkpt lat="46.02926" lon="6.50423">
        <ele>1491</ele>
        <time>2015-06-28T13:26:58Z</time>
      </trkpt>
      <trkpt lat="46.02926" lon="6.50426">
        <ele>1490</ele>
        <time>2015-06-28T13:27:00Z</time>
      </trkpt>
      <trkpt lat="46.02925" lon="6.50432">
        <ele>1491</ele>
        <time>2015-06-28T13:27:14Z</time>
      </trkpt>
      <trkpt lat="46.02921" lon="6.50436">
        <ele>1493</ele>
        <time>2015-06-28T13:27:24Z</time>
      </trkpt>
      <trkpt lat="46.02918" lon="6.50441">
        <ele>1493</ele>
        <time>2015-06-28T13:27:32Z</time>
      </trkpt>
      <trkpt lat="46.02912" lon="6.50443">
        <ele>1494</ele>
        <time>2015-06-28T13:27:48Z</time>
      </trkpt>
      <trkpt lat="46.02898" lon="6.50431">
        <ele>1470</ele>
        <time>2015-06-28T13:29:01Z</time>
      </trkpt>
      <trkpt lat="46.02896" lon="6.50438">
        <ele>1470</ele>
        <time>2015-06-28T13:29:08Z</time>
      </trkpt>
      <trkpt lat="46.02891" lon="6.50435">
        <ele>1474</ele>
        <time>2015-06-28T13:29:21Z</time>
      </trkpt>
      <trkpt lat="46.0289" lon="6.50428">
        <ele>1476</ele>
        <time>2015-06-28T13:29:25Z</time>
      </trkpt>
      <trkpt lat="46.02885" lon="6.50425">
        <ele>1477</ele>
        <time>2015-06-28T13:29:29Z</time>
      </trkpt>
      <trkpt lat="46.02882" lon="6.50418">
        <ele>1476</ele>
        <time>2015-06-28T13:29:35Z</time>
      </trkpt>
      <trkpt lat="46.02878" lon="6.50412">
        <ele>1478</ele>
        <time>2015-06-28T13:29:43Z</time>
      </trkpt>
      <trkpt lat="46.02874" lon="6.50411">
        <ele>1476</ele>
        <time>2015-06-28T13:29:51Z</time>
      </trkpt>
      <trkpt lat="46.02872" lon="6.5041">
        <ele>1472</ele>
        <time>2015-06-28T13:30:05Z</time>
      </trkpt>
      <trkpt lat="46.02872" lon="6.5041">
        <ele>1472</ele>
        <time>2015-06-28T13:30:24Z</time>
      </trkpt>
      <trkpt lat="46.02872" lon="6.5041">
        <ele>1472</ele>
        <time>2015-06-28T13:30:43Z</time>
      </trkpt>
      <trkpt lat="46.02872" lon="6.5041">
        <ele>1471</ele>
        <time>2015-06-28T13:31:01Z</time>
      </trkpt>
      <trkpt lat="46.02872" lon="6.5041">
        <ele>1471</ele>
        <time>2015-06-28T13:31:20Z</time>
      </trkpt>
      <trkpt lat="46.0287" lon="6.50414">
        <ele>1468</ele>
        <time>2015-06-28T13:51:40Z</time>
      </trkpt>
      <trkpt lat="46.02872" lon="6.5041">
        <ele>1461</ele>
        <time>2015-06-28T13:51:56Z</time>
      </trkpt>
      <trkpt lat="46.02874" lon="6.5041">
        <ele>1460</ele>
        <time>2015-06-28T13:52:00Z</time>
      </trkpt>
      <trkpt lat="46.02878" lon="6.50406">
        <ele>1460</ele>
        <time>2015-06-28T13:52:08Z</time>
      </trkpt>
      <trkpt lat="46.0288" lon="6.50399">
        <ele>1466</ele>
        <time>2015-06-28T13:52:14Z</time>
      </trkpt>
      <trkpt lat="46.02881" lon="6.50391">
        <ele>1468</ele>
        <time>2015-06-28T13:52:23Z</time>
      </trkpt>
      <trkpt lat="46.0288" lon="6.50384">
        <ele>1471</ele>
        <time>2015-06-28T13:52:30Z</time>
      </trkpt>
      <trkpt lat="46.02875" lon="6.50385">
        <ele>1469</ele>
        <time>2015-06-28T13:52:38Z</time>
      </trkpt>
      <trkpt lat="46.02872" lon="6.50388">
        <ele>1465</ele>
        <time>2015-06-28T13:52:52Z</time>
      </trkpt>
      <trkpt lat="46.0287" lon="6.50387">
        <ele>1465</ele>
        <time>2015-06-28T13:52:57Z</time>
      </trkpt>
      <trkpt lat="46.02866" lon="6.50384">
        <ele>1469</ele>
        <time>2015-06-28T13:53:09Z</time>
      </trkpt>
      <trkpt lat="46.02864" lon="6.50378">
        <ele>1470</ele>
        <time>2015-06-28T13:53:16Z</time>
      </trkpt>
      <trkpt lat="46.02863" lon="6.50375">
        <ele>1470</ele>
        <time>2015-06-28T13:53:29Z</time>
      </trkpt>
      <trkpt lat="46.02861" lon="6.50372">
        <ele>1470</ele>
        <time>2015-06-28T13:53:33Z</time>
      </trkpt>
      <trkpt lat="46.02845" lon="6.50356">
        <ele>1471</ele>
        <time>2015-06-28T13:54:14Z</time>
      </trkpt>
      <trkpt lat="46.02844" lon="6.50355">
        <ele>1465</ele>
        <time>2015-06-28T13:54:42Z</time>
      </trkpt>
      <trkpt lat="46.02841" lon="6.50359">
        <ele>1466</ele>
        <time>2015-06-28T13:54:57Z</time>
      </trkpt>
      <trkpt lat="46.02839" lon="6.50354">
        <ele>1465</ele>
        <time>2015-06-28T13:55:19Z</time>
      </trkpt>
      <trkpt lat="46.0284" lon="6.50354">
        <ele>1467</ele>
        <time>2015-06-28T13:55:38Z</time>
      </trkpt>
      <trkpt lat="46.02842" lon="6.50356">
        <ele>1468</ele>
        <time>2015-06-28T13:55:57Z</time>
      </trkpt>
      <trkpt lat="46.02839" lon="6.50352">
        <ele>1468</ele>
        <time>2015-06-28T13:56:01Z</time>
      </trkpt>
      <trkpt lat="46.02839" lon="6.50349">
        <ele>1468</ele>
        <time>2015-06-28T13:56:15Z</time>
      </trkpt>
      <trkpt lat="46.02837" lon="6.50347">
        <ele>1466</ele>
        <time>2015-06-28T13:56:19Z</time>
      </trkpt>
      <trkpt lat="46.02833" lon="6.50343">
        <ele>1470</ele>
        <time>2015-06-28T13:56:28Z</time>
      </trkpt>
      <trkpt lat="46.02829" lon="6.50338">
        <ele>1475</ele>
        <time>2015-06-28T13:56:37Z</time>
      </trkpt>
      <trkpt lat="46.02799" lon="6.50329">
        <ele>1472</ele>
        <time>2015-06-28T13:57:46Z</time>
      </trkpt>
      <trkpt lat="46.02797" lon="6.5033">
        <ele>1473</ele>
        <time>2015-06-28T13:57:48Z</time>
      </trkpt>
      <trkpt lat="46.02792" lon="6.50329">
        <ele>1472</ele>
        <time>2015-06-28T13:57:54Z</time>
      </trkpt>
      <trkpt lat="46.02787" lon="6.50327">
        <ele>1478</ele>
        <time>2015-06-28T13:58:02Z</time>
      </trkpt>
      <trkpt lat="46.02782" lon="6.50325">
        <ele>1478</ele>
        <time>2015-06-28T13:58:08Z</time>
      </trkpt>
      <trkpt lat="46.02778" lon="6.50324">
        <ele>1483</ele>
        <time>2015-06-28T13:58:25Z</time>
      </trkpt>
      <trkpt lat="46.02777" lon="6.50324">
        <ele>1482</ele>
        <time>2015-06-28T13:58:32Z</time>
      </trkpt>
      <trkpt lat="46.02775" lon="6.50326">
        <ele>1479</ele>
        <time>2015-06-28T13:58:43Z</time>
      </trkpt>
      <trkpt lat="46.02773" lon="6.50322">
        <ele>1478</ele>
        <time>2015-06-28T13:59:02Z</time>
      </trkpt>
      <trkpt lat="46.02773" lon="6.50322">
        <ele>1478</ele>
        <time>2015-06-28T13:59:08Z</time>
      </trkpt>
      <trkpt lat="46.02772" lon="6.50322">
        <ele>1477</ele>
        <time>2015-06-28T13:59:21Z</time>
      </trkpt>
      <trkpt lat="46.02771" lon="6.50316">
        <ele>1475</ele>
        <time>2015-06-28T13:59:39Z</time>
      </trkpt>
      <trkpt lat="46.0277" lon="6.50314">
        <ele>1473</ele>
        <time>2015-06-28T13:59:40Z</time>
      </trkpt>
      <trkpt lat="46.02772" lon="6.50307">
        <ele>1474</ele>
        <time>2015-06-28T13:59:46Z</time>
      </trkpt>
      <trkpt lat="46.0276" lon="6.50282">
        <ele>1477</ele>
        <time>2015-06-28T14:00:40Z</time>
      </trkpt>
      <trkpt lat="46.02763" lon="6.50276">
        <ele>1483</ele>
        <time>2015-06-28T14:00:44Z</time>
      </trkpt>
      <trkpt lat="46.02762" lon="6.50269">
        <ele>1484</ele>
        <time>2015-06-28T14:01:00Z</time>
      </trkpt>
      <trkpt lat="46.02758" lon="6.5027">
        <ele>1481</ele>
        <time>2015-06-28T14:01:12Z</time>
      </trkpt>
      <trkpt lat="46.02757" lon="6.50269">
        <ele>1480</ele>
        <time>2015-06-28T14:01:16Z</time>
      </trkpt>
      <trkpt lat="46.02753" lon="6.50264">
        <ele>1478</ele>
        <time>2015-06-28T14:01:24Z</time>
      </trkpt>
      <trkpt lat="46.02749" lon="6.50261">
        <ele>1476</ele>
        <time>2015-06-28T14:01:30Z</time>
      </trkpt>
      <trkpt lat="46.02744" lon="6.5026">
        <ele>1476</ele>
        <time>2015-06-28T14:01:36Z</time>
      </trkpt>
      <trkpt lat="46.02739" lon="6.50256">
        <ele>1476</ele>
        <time>2015-06-28T14:01:41Z</time>
      </trkpt>
      <trkpt lat="46.02734" lon="6.50254">
        <ele>1474</ele>
        <time>2015-06-28T14:01:48Z</time>
      </trkpt>
      <trkpt lat="46.02733" lon="6.50248">
        <ele>1476</ele>
        <time>2015-06-28T14:01:59Z</time>
      </trkpt>
      <trkpt lat="46.02729" lon="6.50245">
        <ele>1473</ele>
        <time>2015-06-28T14:02:05Z</time>
      </trkpt>
      <trkpt lat="46.02723" lon="6.50246">
        <ele>1470</ele>
        <time>2015-06-28T14:02:09Z</time>
      </trkpt>
      <trkpt lat="46.02718" lon="6.50247">
        <ele>1466</ele>
        <time>2015-06-28T14:02:19Z</time>
      </trkpt>
      <trkpt lat="46.02713" lon="6.50247">
        <ele>1464</ele>
        <time>2015-06-28T14:02:25Z</time>
      </trkpt>
      <trkpt lat="46.02708" lon="6.5025">
        <ele>1464</ele>
        <time>2015-06-28T14:02:32Z</time>
      </trkpt>
      <trkpt lat="46.02706" lon="6.50256">
        <ele>1466</ele>
        <time>2015-06-28T14:02:43Z</time>
      </trkpt>
      <trkpt lat="46.02703" lon="6.50262">
        <ele>1465</ele>
        <time>2015-06-28T14:02:53Z</time>
      </trkpt>
      <trkpt lat="46.027" lon="6.50267">
        <ele>1465</ele>
        <time>2015-06-28T14:02:57Z</time>
      </trkpt>
      <trkpt lat="46.02698" lon="6.50273">
        <ele>1467</ele>
        <time>2015-06-28T14:03:01Z</time>
      </trkpt>
      <trkpt lat="46.02695" lon="6.50278">
        <ele>1469</ele>
        <time>2015-06-28T14:03:06Z</time>
      </trkpt>
      <trkpt lat="46.02691" lon="6.50281">
        <ele>1468</ele>
        <time>2015-06-28T14:03:12Z</time>
      </trkpt>
      <trkpt lat="46.02687" lon="6.50287">
        <ele>1468</ele>
        <time>2015-06-28T14:03:27Z</time>
      </trkpt>
      <trkpt lat="46.02685" lon="6.50292">
        <ele>1464</ele>
        <time>2015-06-28T14:03:43Z</time>
      </trkpt>
      <trkpt lat="46.02683" lon="6.50296">
        <ele>1467</ele>
        <time>2015-06-28T14:03:57Z</time>
      </trkpt>
      <trkpt lat="46.02681" lon="6.50297">
        <ele>1468</ele>
        <time>2015-06-28T14:04:02Z</time>
      </trkpt>
      <trkpt lat="46.02678" lon="6.50301">
        <ele>1468</ele>
        <time>2015-06-28T14:04:08Z</time>
      </trkpt>
      <trkpt lat="46.02675" lon="6.50307">
        <ele>1468</ele>
        <time>2015-06-28T14:04:15Z</time>
      </trkpt>
      <trkpt lat="46.02671" lon="6.5031">
        <ele>1465</ele>
        <time>2015-06-28T14:04:21Z</time>
      </trkpt>
      <trkpt lat="46.0267" lon="6.50317">
        <ele>1462</ele>
        <time>2015-06-28T14:04:28Z</time>
      </trkpt>
      <trkpt lat="46.02669" lon="6.50324">
        <ele>1460</ele>
        <time>2015-06-28T14:04:37Z</time>
      </trkpt>
      <trkpt lat="46.02667" lon="6.50327">
        <ele>1461</ele>
        <time>2015-06-28T14:04:50Z</time>
      </trkpt>
      <trkpt lat="46.02668" lon="6.50327">
        <ele>1459</ele>
        <time>2015-06-28T14:05:09Z</time>
      </trkpt>
      <trkpt lat="46.02663" lon="6.50337">
        <ele>1460</ele>
        <time>2015-06-28T14:05:41Z</time>
      </trkpt>
      <trkpt lat="46.02661" lon="6.50343">
        <ele>1460</ele>
        <time>2015-06-28T14:05:49Z</time>
      </trkpt>
      <trkpt lat="46.0266" lon="6.50351">
        <ele>1458</ele>
        <time>2015-06-28T14:05:55Z</time>
      </trkpt>
      <trkpt lat="46.0266" lon="6.50357">
        <ele>1458</ele>
        <time>2015-06-28T14:06:01Z</time>
      </trkpt>
      <trkpt lat="46.02659" lon="6.50364">
        <ele>1459</ele>
        <time>2015-06-28T14:06:13Z</time>
      </trkpt>
      <trkpt lat="46.0266" lon="6.50371">
        <ele>1458</ele>
        <time>2015-06-28T14:06:21Z</time>
      </trkpt>
      <trkpt lat="46.02661" lon="6.50377">
        <ele>1457</ele>
        <time>2015-06-28T14:06:29Z</time>
      </trkpt>
      <trkpt lat="46.0266" lon="6.50381">
        <ele>1458</ele>
        <time>2015-06-28T14:06:40Z</time>
      </trkpt>
      <trkpt lat="46.02662" lon="6.5038">
        <ele>1457</ele>
        <time>2015-06-28T14:06:59Z</time>
      </trkpt>
      <trkpt lat="46.02662" lon="6.50379">
        <ele>1455</ele>
        <time>2015-06-28T14:07:16Z</time>
      </trkpt>
      <trkpt lat="46.02663" lon="6.50383">
        <ele>1457</ele>
        <time>2015-06-28T14:07:33Z</time>
      </trkpt>
      <trkpt lat="46.02663" lon="6.50384">
        <ele>1457</ele>
        <time>2015-06-28T14:07:35Z</time>
      </trkpt>
      <trkpt lat="46.02665" lon="6.50391">
        <ele>1456</ele>
        <time>2015-06-28T14:07:47Z</time>
      </trkpt>
      <trkpt lat="46.02671" lon="6.50419">
        <ele>1455</ele>
        <time>2015-06-28T14:08:16Z</time>
      </trkpt>
      <trkpt lat="46.02672" lon="6.50426">
        <ele>1455</ele>
        <time>2015-06-28T14:08:21Z</time>
      </trkpt>
      <trkpt lat="46.02674" lon="6.50432">
        <ele>1455</ele>
        <time>2015-06-28T14:08:27Z</time>
      </trkpt>
      <trkpt lat="46.02677" lon="6.50438">
        <ele>1456</ele>
        <time>2015-06-28T14:08:38Z</time>
      </trkpt>
      <trkpt lat="46.02678" lon="6.50443">
        <ele>1459</ele>
        <time>2015-06-28T14:09:05Z</time>
      </trkpt>
      <trkpt lat="46.02679" lon="6.50444">
        <ele>1461</ele>
        <time>2015-06-28T14:09:07Z</time>
      </trkpt>
      <trkpt lat="46.02683" lon="6.5045">
        <ele>1461</ele>
        <time>2015-06-28T14:09:12Z</time>
      </trkpt>
      <trkpt lat="46.02686" lon="6.50455">
        <ele>1462</ele>
        <time>2015-06-28T14:09:18Z</time>
      </trkpt>
      <trkpt lat="46.02685" lon="6.50462">
        <ele>1459</ele>
        <time>2015-06-28T14:09:26Z</time>
      </trkpt>
      <trkpt lat="46.02685" lon="6.50469">
        <ele>1457</ele>
        <time>2015-06-28T14:09:32Z</time>
      </trkpt>
      <trkpt lat="46.02685" lon="6.50476">
        <ele>1457</ele>
        <time>2015-06-28T14:09:41Z</time>
      </trkpt>
      <trkpt lat="46.02689" lon="6.50482">
        <ele>1459</ele>
        <time>2015-06-28T14:09:50Z</time>
      </trkpt>
      <trkpt lat="46.02691" lon="6.50488">
        <ele>1458</ele>
        <time>2015-06-28T14:10:00Z</time>
      </trkpt>
      <trkpt lat="46.02691" lon="6.50489">
        <ele>1463</ele>
        <time>2015-06-28T14:10:18Z</time>
      </trkpt>
      <trkpt lat="46.0269" lon="6.50495">
        <ele>1463</ele>
        <time>2015-06-28T14:10:26Z</time>
      </trkpt>
      <trkpt lat="46.02697" lon="6.50498">
        <ele>1462</ele>
        <time>2015-06-28T14:15:13Z</time>
      </trkpt>
      <trkpt lat="46.02702" lon="6.505">
        <ele>1465</ele>
        <time>2015-06-28T14:15:19Z</time>
      </trkpt>
      <trkpt lat="46.02707" lon="6.50502">
        <ele>1465</ele>
        <time>2015-06-28T14:15:24Z</time>
      </trkpt>
      <trkpt lat="46.0271" lon="6.50506">
        <ele>1465</ele>
        <time>2015-06-28T14:15:29Z</time>
      </trkpt>
      <trkpt lat="46.02715" lon="6.50507">
        <ele>1468</ele>
        <time>2015-06-28T14:15:34Z</time>
      </trkpt>
      <trkpt lat="46.02718" lon="6.50512">
        <ele>1469</ele>
        <time>2015-06-28T14:15:40Z</time>
      </trkpt>
      <trkpt lat="46.02721" lon="6.50518">
        <ele>1467</ele>
        <time>2015-06-28T14:15:46Z</time>
      </trkpt>
      <trkpt lat="46.02719" lon="6.50524">
        <ele>1465</ele>
        <time>2015-06-28T14:16:09Z</time>
      </trkpt>
      <trkpt lat="46.02718" lon="6.50525">
        <ele>1465</ele>
        <time>2015-06-28T14:16:29Z</time>
      </trkpt>
      <trkpt lat="46.02745" lon="6.50576">
        <ele>1462</ele>
        <time>2015-06-28T14:19:26Z</time>
      </trkpt>
      <trkpt lat="46.02749" lon="6.50581">
        <ele>1466</ele>
        <time>2015-06-28T14:19:33Z</time>
      </trkpt>
      <trkpt lat="46.02751" lon="6.50587">
        <ele>1467</ele>
        <time>2015-06-28T14:19:37Z</time>
      </trkpt>
      <trkpt lat="46.02755" lon="6.50592">
        <ele>1468</ele>
        <time>2015-06-28T14:19:43Z</time>
      </trkpt>
      <trkpt lat="46.02755" lon="6.506">
        <ele>1466</ele>
        <time>2015-06-28T14:19:48Z</time>
      </trkpt>
      <trkpt lat="46.02758" lon="6.50606">
        <ele>1465</ele>
        <time>2015-06-28T14:19:57Z</time>
      </trkpt>
      <trkpt lat="46.02763" lon="6.50608">
        <ele>1464</ele>
        <time>2015-06-28T14:20:06Z</time>
      </trkpt>
      <trkpt lat="46.02766" lon="6.50614">
        <ele>1464</ele>
        <time>2015-06-28T14:20:12Z</time>
      </trkpt>
      <trkpt lat="46.0277" lon="6.50618">
        <ele>1462</ele>
        <time>2015-06-28T14:20:19Z</time>
      </trkpt>
      <trkpt lat="46.02772" lon="6.50625">
        <ele>1466</ele>
        <time>2015-06-28T14:20:26Z</time>
      </trkpt>
      <trkpt lat="46.02774" lon="6.50632">
        <ele>1470</ele>
        <time>2015-06-28T14:20:39Z</time>
      </trkpt>
      <trkpt lat="46.02779" lon="6.50636">
        <ele>1476</ele>
        <time>2015-06-28T14:20:44Z</time>
      </trkpt>
      <trkpt lat="46.02782" lon="6.50641">
        <ele>1476</ele>
        <time>2015-06-28T14:20:50Z</time>
      </trkpt>
      <trkpt lat="46.02786" lon="6.50648">
        <ele>1473</ele>
        <time>2015-06-28T14:20:54Z</time>
      </trkpt>
      <trkpt lat="46.02791" lon="6.50652">
        <ele>1474</ele>
        <time>2015-06-28T14:20:59Z</time>
      </trkpt>
      <trkpt lat="46.02794" lon="6.50656">
        <ele>1474</ele>
        <time>2015-06-28T14:21:06Z</time>
      </trkpt>
      <trkpt lat="46.02797" lon="6.50662">
        <ele>1476</ele>
        <time>2015-06-28T14:21:18Z</time>
      </trkpt>
      <trkpt lat="46.02802" lon="6.50664">
        <ele>1477</ele>
        <time>2015-06-28T14:21:30Z</time>
      </trkpt>
      <trkpt lat="46.02807" lon="6.50665">
        <ele>1476</ele>
        <time>2015-06-28T14:21:42Z</time>
      </trkpt>
      <trkpt lat="46.02811" lon="6.5066">
        <ele>1471</ele>
        <time>2015-06-28T14:21:50Z</time>
      </trkpt>
      <trkpt lat="46.02817" lon="6.50655">
        <ele>1466</ele>
        <time>2015-06-28T14:21:58Z</time>
      </trkpt>
      <trkpt lat="46.02821" lon="6.5065">
        <ele>1465</ele>
        <time>2015-06-28T14:22:03Z</time>
      </trkpt>
      <trkpt lat="46.02826" lon="6.50648">
        <ele>1464</ele>
        <time>2015-06-28T14:22:06Z</time>
      </trkpt>
      <trkpt lat="46.0283" lon="6.50643">
        <ele>1466</ele>
        <time>2015-06-28T14:22:10Z</time>
      </trkpt>
      <trkpt lat="46.02832" lon="6.50637">
        <ele>1465</ele>
        <time>2015-06-28T14:22:18Z</time>
      </trkpt>
      <trkpt lat="46.02836" lon="6.50634">
        <ele>1465</ele>
        <time>2015-06-28T14:22:24Z</time>
      </trkpt>
      <trkpt lat="46.02841" lon="6.50632">
        <ele>1465</ele>
        <time>2015-06-28T14:22:34Z</time>
      </trkpt>
      <trkpt lat="46.02846" lon="6.50629">
        <ele>1466</ele>
        <time>2015-06-28T14:22:40Z</time>
      </trkpt>
      <trkpt lat="46.0285" lon="6.50626">
        <ele>1465</ele>
        <time>2015-06-28T14:22:47Z</time>
      </trkpt>
      <trkpt lat="46.02855" lon="6.50622">
        <ele>1466</ele>
        <time>2015-06-28T14:22:51Z</time>
      </trkpt>
      <trkpt lat="46.02858" lon="6.50616">
        <ele>1472</ele>
        <time>2015-06-28T14:22:56Z</time>
      </trkpt>
      <trkpt lat="46.02861" lon="6.5061">
        <ele>1476</ele>
        <time>2015-06-28T14:23:02Z</time>
      </trkpt>
      <trkpt lat="46.02864" lon="6.50604">
        <ele>1476</ele>
        <time>2015-06-28T14:23:10Z</time>
      </trkpt>
      <trkpt lat="46.02865" lon="6.50598">
        <ele>1469</ele>
        <time>2015-06-28T14:23:19Z</time>
      </trkpt>
      <trkpt lat="46.0287" lon="6.50593">
        <ele>1469</ele>
        <time>2015-06-28T14:23:26Z</time>
      </trkpt>
      <trkpt lat="46.02874" lon="6.50589">
        <ele>1470</ele>
        <time>2015-06-28T14:23:32Z</time>
      </trkpt>
      <trkpt lat="46.02875" lon="6.50582">
        <ele>1469</ele>
        <time>2015-06-28T14:23:38Z</time>
      </trkpt>
      <trkpt lat="46.02876" lon="6.50575">
        <ele>1468</ele>
        <time>2015-06-28T14:23:43Z</time>
      </trkpt>
      <trkpt lat="46.02873" lon="6.50579">
        <ele>1476</ele>
        <time>2015-06-28T14:24:07Z</time>
      </trkpt>
      <trkpt lat="46.02873" lon="6.50579">
        <ele>1476</ele>
        <time>2015-06-28T14:24:23Z</time>
      </trkpt>
      <trkpt lat="46.02869" lon="6.50584">
        <ele>1475</ele>
        <time>2015-06-28T14:24:28Z</time>
      </trkpt>
      <trkpt lat="46.02892" lon="6.50616">
        <ele>1470</ele>
        <time>2015-06-28T14:29:27Z</time>
      </trkpt>
      <trkpt lat="46.02897" lon="6.50617">
        <ele>1467</ele>
        <time>2015-06-28T14:29:36Z</time>
      </trkpt>
      <trkpt lat="46.02902" lon="6.50615">
        <ele>1468</ele>
        <time>2015-06-28T14:29:47Z</time>
      </trkpt>
      <trkpt lat="46.02906" lon="6.50613">
        <ele>1471</ele>
        <time>2015-06-28T14:29:52Z</time>
      </trkpt>
      <trkpt lat="46.02913" lon="6.50609">
        <ele>1476</ele>
        <time>2015-06-28T14:29:59Z</time>
      </trkpt>
      <trkpt lat="46.02912" lon="6.50603">
        <ele>1486</ele>
        <time>2015-06-28T14:30:07Z</time>
      </trkpt>
      <trkpt lat="46.0291" lon="6.50597">
        <ele>1490</ele>
        <time>2015-06-28T14:30:13Z</time>
      </trkpt>
      <trkpt lat="46.02908" lon="6.5059">
        <ele>1489</ele>
        <time>2015-06-28T14:30:19Z</time>
      </trkpt>
      <trkpt lat="46.02908" lon="6.50582">
        <ele>1487</ele>
        <time>2015-06-28T14:30:25Z</time>
      </trkpt>
      <trkpt lat="46.02908" lon="6.50575">
        <ele>1491</ele>
        <time>2015-06-28T14:30:31Z</time>
      </trkpt>
      <trkpt lat="46.02907" lon="6.50568">
        <ele>1497</ele>
        <time>2015-06-28T14:30:37Z</time>
      </trkpt>
      <trkpt lat="46.02908" lon="6.5056">
        <ele>1496</ele>
        <time>2015-06-28T14:30:42Z</time>
      </trkpt>
      <trkpt lat="46.02909" lon="6.50553">
        <ele>1497</ele>
        <time>2015-06-28T14:30:48Z</time>
      </trkpt>
      <trkpt lat="46.02911" lon="6.50547">
        <ele>1502</ele>
        <time>2015-06-28T14:30:53Z</time>
      </trkpt>
      <trkpt lat="46.02913" lon="6.50541">
        <ele>1500</ele>
        <time>2015-06-28T14:30:57Z</time>
      </trkpt>
      <trkpt lat="46.02913" lon="6.50534">
        <ele>1499</ele>
        <time>2015-06-28T14:31:03Z</time>
      </trkpt>
      <trkpt lat="46.02915" lon="6.50528">
        <ele>1496</ele>
        <time>2015-06-28T14:31:07Z</time>
      </trkpt>
      <trkpt lat="46.02916" lon="6.50521">
        <ele>1499</ele>
        <time>2015-06-28T14:31:14Z</time>
      </trkpt>
      <trkpt lat="46.02919" lon="6.50515">
        <ele>1497</ele>
        <time>2015-06-28T14:31:19Z</time>
      </trkpt>
      <trkpt lat="46.02921" lon="6.50509">
        <ele>1498</ele>
        <time>2015-06-28T14:31:25Z</time>
      </trkpt>
      <trkpt lat="46.02925" lon="6.50502">
        <ele>1498</ele>
        <time>2015-06-28T14:31:31Z</time>
      </trkpt>
      <trkpt lat="46.02927" lon="6.50497">
        <ele>1496</ele>
        <time>2015-06-28T14:31:36Z</time>
      </trkpt>
      <trkpt lat="46.02931" lon="6.5049">
        <ele>1495</ele>
        <time>2015-06-28T14:31:42Z</time>
      </trkpt>
      <trkpt lat="46.02935" lon="6.50485">
        <ele>1495</ele>
        <time>2015-06-28T14:31:47Z</time>
      </trkpt>
      <trkpt lat="46.02939" lon="6.5048">
        <ele>1495</ele>
        <time>2015-06-28T14:31:52Z</time>
      </trkpt>
      <trkpt lat="46.02943" lon="6.50476">
        <ele>1497</ele>
        <time>2015-06-28T14:31:55Z</time>
      </trkpt>
      <trkpt lat="46.02948" lon="6.50474">
        <ele>1497</ele>
        <time>2015-06-28T14:31:58Z</time>
      </trkpt>
      <trkpt lat="46.02947" lon="6.50467">
        <ele>1496</ele>
        <time>2015-06-28T14:32:06Z</time>
      </trkpt>
      <trkpt lat="46.02951" lon="6.50463">
        <ele>1497</ele>
        <time>2015-06-28T14:32:11Z</time>
      </trkpt>
      <trkpt lat="46.02956" lon="6.50458">
        <ele>1500</ele>
        <time>2015-06-28T14:32:18Z</time>
      </trkpt>
      <trkpt lat="46.02958" lon="6.50451">
        <ele>1499</ele>
        <time>2015-06-28T14:32:24Z</time>
      </trkpt>
      <trkpt lat="46.02955" lon="6.50446">
        <ele>1497</ele>
        <time>2015-06-28T14:32:28Z</time>
      </trkpt>
      <trkpt lat="46.02952" lon="6.50438">
        <ele>1496</ele>
        <time>2015-06-28T14:32:34Z</time>
      </trkpt>
      <trkpt lat="46.02953" lon="6.50431">
        <ele>1496</ele>
        <time>2015-06-28T14:32:39Z</time>
      </trkpt>
      <trkpt lat="46.02953" lon="6.50422">
        <ele>1495</ele>
        <time>2015-06-28T14:32:46Z</time>
      </trkpt>
      <trkpt lat="46.02951" lon="6.50416">
        <ele>1496</ele>
        <time>2015-06-28T14:32:52Z</time>
      </trkpt>
      <trkpt lat="46.02951" lon="6.50409">
        <ele>1496</ele>
        <time>2015-06-28T14:32:58Z</time>
      </trkpt>
      <trkpt lat="46.02951" lon="6.50402">
        <ele>1496</ele>
        <time>2015-06-28T14:33:03Z</time>
      </trkpt>
      <trkpt lat="46.02948" lon="6.50397">
        <ele>1496</ele>
        <time>2015-06-28T14:33:10Z</time>
      </trkpt>
      <trkpt lat="46.02946" lon="6.50391">
        <ele>1499</ele>
        <time>2015-06-28T14:33:19Z</time>
      </trkpt>
      <trkpt lat="46.02945" lon="6.5039">
        <ele>1495</ele>
        <time>2015-06-28T14:33:40Z</time>
      </trkpt>
      <trkpt lat="46.02946" lon="6.50392">
        <ele>1501</ele>
        <time>2015-06-28T14:33:59Z</time>
      </trkpt>
      <trkpt lat="46.02948" lon="6.50391">
        <ele>1502</ele>
        <time>2015-06-28T14:34:16Z</time>
      </trkpt>
      <trkpt lat="46.02951" lon="6.50389">
        <ele>1508</ele>
        <time>2015-06-28T14:34:36Z</time>
      </trkpt>
      <trkpt lat="46.02956" lon="6.50378">
        <ele>1500</ele>
        <time>2015-06-28T14:37:00Z</time>
      </trkpt>
      <trkpt lat="46.02955" lon="6.50377">
        <ele>1499</ele>
        <time>2015-06-28T14:37:18Z</time>
      </trkpt>
      <trkpt lat="46.02956" lon="6.50377">
        <ele>1500</ele>
        <time>2015-06-28T14:37:35Z</time>
      </trkpt>
      <trkpt lat="46.02961" lon="6.50377">
        <ele>1498</ele>
        <time>2015-06-28T14:37:49Z</time>
      </trkpt>
      <trkpt lat="46.02965" lon="6.50379">
        <ele>1497</ele>
        <time>2015-06-28T14:37:54Z</time>
      </trkpt>
      <trkpt lat="46.02971" lon="6.50377">
        <ele>1495</ele>
        <time>2015-06-28T14:38:01Z</time>
      </trkpt>
      <trkpt lat="46.02976" lon="6.50373">
        <ele>1493</ele>
        <time>2015-06-28T14:38:06Z</time>
      </trkpt>
      <trkpt lat="46.02981" lon="6.50371">
        <ele>1491</ele>
        <time>2015-06-28T14:38:10Z</time>
      </trkpt>
      <trkpt lat="46.02985" lon="6.50367">
        <ele>1491</ele>
        <time>2015-06-28T14:38:14Z</time>
      </trkpt>
      <trkpt lat="46.0299" lon="6.50364">
        <ele>1491</ele>
        <time>2015-06-28T14:38:19Z</time>
      </trkpt>
      <trkpt lat="46.02995" lon="6.50359">
        <ele>1491</ele>
        <time>2015-06-28T14:38:25Z</time>
      </trkpt>
      <trkpt lat="46.02999" lon="6.50354">
        <ele>1490</ele>
        <time>2015-06-28T14:38:31Z</time>
      </trkpt>
      <trkpt lat="46.03003" lon="6.50349">
        <ele>1489</ele>
        <time>2015-06-28T14:38:37Z</time>
      </trkpt>
      <trkpt lat="46.03007" lon="6.50346">
        <ele>1490</ele>
        <time>2015-06-28T14:38:42Z</time>
      </trkpt>
      <trkpt lat="46.03011" lon="6.50343">
        <ele>1491</ele>
        <time>2015-06-28T14:38:48Z</time>
      </trkpt>
      <trkpt lat="46.03016" lon="6.50338">
        <ele>1492</ele>
        <time>2015-06-28T14:38:54Z</time>
      </trkpt>
      <trkpt lat="46.03022" lon="6.50335">
        <ele>1494</ele>
        <time>2015-06-28T14:39:02Z</time>
      </trkpt>
      <trkpt lat="46.03027" lon="6.50332">
        <ele>1496</ele>
        <time>2015-06-28T14:39:10Z</time>
      </trkpt>
      <trkpt lat="46.03032" lon="6.5033">
        <ele>1495</ele>
        <time>2015-06-28T14:39:17Z</time>
      </trkpt>
      <trkpt lat="46.03036" lon="6.50326">
        <ele>1495</ele>
        <time>2015-06-28T14:39:35Z</time>
      </trkpt>
      <trkpt lat="46.03041" lon="6.50326">
        <ele>1500</ele>
        <time>2015-06-28T14:39:41Z</time>
      </trkpt>
      <trkpt lat="46.03046" lon="6.50323">
        <ele>1498</ele>
        <time>2015-06-28T14:39:45Z</time>
      </trkpt>
      <trkpt lat="46.0305" lon="6.5032">
        <ele>1495</ele>
        <time>2015-06-28T14:39:50Z</time>
      </trkpt>
      <trkpt lat="46.03053" lon="6.50314">
        <ele>1490</ele>
        <time>2015-06-28T14:39:55Z</time>
      </trkpt>
      <trkpt lat="46.03058" lon="6.50311">
        <ele>1495</ele>
        <time>2015-06-28T14:40:00Z</time>
      </trkpt>
      <trkpt lat="46.03063" lon="6.50306">
        <ele>1493</ele>
        <time>2015-06-28T14:40:06Z</time>
      </trkpt>
      <trkpt lat="46.03067" lon="6.50306">
        <ele>1494</ele>
        <time>2015-06-28T14:40:10Z</time>
      </trkpt>
      <trkpt lat="46.03073" lon="6.50305">
        <ele>1494</ele>
        <time>2015-06-28T14:40:14Z</time>
      </trkpt>
      <trkpt lat="46.03077" lon="6.50306">
        <ele>1493</ele>
        <time>2015-06-28T14:40:19Z</time>
      </trkpt>
      <trkpt lat="46.03082" lon="6.50308">
        <ele>1493</ele>
        <time>2015-06-28T14:40:24Z</time>
      </trkpt>
      <trkpt lat="46.03088" lon="6.50309">
        <ele>1494</ele>
        <time>2015-06-28T14:40:30Z</time>
      </trkpt>
      <trkpt lat="46.03093" lon="6.50312">
        <ele>1495</ele>
        <time>2015-06-28T14:40:34Z</time>
      </trkpt>
      <trkpt lat="46.031" lon="6.50312">
        <ele>1496</ele>
        <time>2015-06-28T14:40:39Z</time>
      </trkpt>
      <trkpt lat="46.03105" lon="6.50313">
        <ele>1495</ele>
        <time>2015-06-28T14:40:43Z</time>
      </trkpt>
      <trkpt lat="46.0311" lon="6.50312">
        <ele>1495</ele>
        <time>2015-06-28T14:40:47Z</time>
      </trkpt>
      <trkpt lat="46.03114" lon="6.50314">
        <ele>1493</ele>
        <time>2015-06-28T14:40:51Z</time>
      </trkpt>
      <trkpt lat="46.0312" lon="6.50316">
        <ele>1493</ele>
        <time>2015-06-28T14:40:58Z</time>
      </trkpt>
      <trkpt lat="46.03125" lon="6.50317">
        <ele>1493</ele>
        <time>2015-06-28T14:41:03Z</time>
      </trkpt>
      <trkpt lat="46.03129" lon="6.50321">
        <ele>1494</ele>
        <time>2015-06-28T14:41:08Z</time>
      </trkpt>
      <trkpt lat="46.03135" lon="6.50326">
        <ele>1495</ele>
        <time>2015-06-28T14:41:14Z</time>
      </trkpt>
      <trkpt lat="46.03141" lon="6.50327">
        <ele>1495</ele>
        <time>2015-06-28T14:41:20Z</time>
      </trkpt>
      <trkpt lat="46.03145" lon="6.50328">
        <ele>1493</ele>
        <time>2015-06-28T14:41:25Z</time>
      </trkpt>
      <trkpt lat="46.03148" lon="6.50334">
        <ele>1495</ele>
        <time>2015-06-28T14:41:28Z</time>
      </trkpt>
      <trkpt lat="46.03154" lon="6.50337">
        <ele>1498</ele>
        <time>2015-06-28T14:41:32Z</time>
      </trkpt>
      <trkpt lat="46.03158" lon="6.50337">
        <ele>1498</ele>
        <time>2015-06-28T14:41:37Z</time>
      </trkpt>
      <trkpt lat="46.03163" lon="6.5034">
        <ele>1497</ele>
        <time>2015-06-28T14:41:42Z</time>
      </trkpt>
      <trkpt lat="46.03168" lon="6.50342">
        <ele>1497</ele>
        <time>2015-06-28T14:41:48Z</time>
      </trkpt>
      <trkpt lat="46.03173" lon="6.50341">
        <ele>1493</ele>
        <time>2015-06-28T14:41:54Z</time>
      </trkpt>
      <trkpt lat="46.03178" lon="6.50343">
        <ele>1495</ele>
        <time>2015-06-28T14:42:00Z</time>
      </trkpt>
      <trkpt lat="46.03183" lon="6.50344">
        <ele>1496</ele>
        <time>2015-06-28T14:42:04Z</time>
      </trkpt>
      <trkpt lat="46.03188" lon="6.50346">
        <ele>1498</ele>
        <time>2015-06-28T14:42:07Z</time>
      </trkpt>
      <trkpt lat="46.03194" lon="6.50344">
        <ele>1496</ele>
        <time>2015-06-28T14:42:14Z</time>
      </trkpt>
      <trkpt lat="46.03199" lon="6.50343">
        <ele>1497</ele>
        <time>2015-06-28T14:42:19Z</time>
      </trkpt>
      <trkpt lat="46.03204" lon="6.50343">
        <ele>1496</ele>
        <time>2015-06-28T14:42:25Z</time>
      </trkpt>
      <trkpt lat="46.0321" lon="6.50344">
        <ele>1495</ele>
        <time>2015-06-28T14:42:31Z</time>
      </trkpt>
      <trkpt lat="46.03215" lon="6.50344">
        <ele>1495</ele>
        <time>2015-06-28T14:42:37Z</time>
      </trkpt>
      <trkpt lat="46.0322" lon="6.50345">
        <ele>1497</ele>
        <time>2015-06-28T14:42:41Z</time>
      </trkpt>
      <trkpt lat="46.03225" lon="6.50344">
        <ele>1497</ele>
        <time>2015-06-28T14:42:46Z</time>
      </trkpt>
      <trkpt lat="46.0323" lon="6.50344">
        <ele>1500</ele>
        <time>2015-06-28T14:42:53Z</time>
      </trkpt>
      <trkpt lat="46.03235" lon="6.50344">
        <ele>1497</ele>
        <time>2015-06-28T14:43:00Z</time>
      </trkpt>
      <trkpt lat="46.03242" lon="6.50346">
        <ele>1496</ele>
        <time>2015-06-28T14:43:10Z</time>
      </trkpt>
      <trkpt lat="46.03248" lon="6.50347">
        <ele>1500</ele>
        <time>2015-06-28T14:43:14Z</time>
      </trkpt>
      <trkpt lat="46.03253" lon="6.50347">
        <ele>1496</ele>
        <time>2015-06-28T14:43:17Z</time>
      </trkpt>
      <trkpt lat="46.03258" lon="6.50345">
        <ele>1499</ele>
        <time>2015-06-28T14:43:23Z</time>
      </trkpt>
      <trkpt lat="46.03262" lon="6.5034">
        <ele>1499</ele>
        <time>2015-06-28T14:43:32Z</time>
      </trkpt>
      <trkpt lat="46.03267" lon="6.50336">
        <ele>1499</ele>
        <time>2015-06-28T14:43:38Z</time>
      </trkpt>
      <trkpt lat="46.03269" lon="6.5033">
        <ele>1499</ele>
        <time>2015-06-28T14:43:42Z</time>
      </trkpt>
      <trkpt lat="46.03273" lon="6.50324">
        <ele>1503</ele>
        <time>2015-06-28T14:43:47Z</time>
      </trkpt>
      <trkpt lat="46.03277" lon="6.5032">
        <ele>1502</ele>
        <time>2015-06-28T14:43:51Z</time>
      </trkpt>
      <trkpt lat="46.03282" lon="6.50315">
        <ele>1502</ele>
        <time>2015-06-28T14:43:58Z</time>
      </trkpt>
      <trkpt lat="46.03286" lon="6.50312">
        <ele>1500</ele>
        <time>2015-06-28T14:44:02Z</time>
      </trkpt>
      <trkpt lat="46.03291" lon="6.5031">
        <ele>1500</ele>
        <time>2015-06-28T14:44:05Z</time>
      </trkpt>
      <trkpt lat="46.03295" lon="6.50307">
        <ele>1501</ele>
        <time>2015-06-28T14:44:08Z</time>
      </trkpt>
      <trkpt lat="46.03301" lon="6.50302">
        <ele>1502</ele>
        <time>2015-06-28T14:44:14Z</time>
      </trkpt>
      <trkpt lat="46.03306" lon="6.50298">
        <ele>1504</ele>
        <time>2015-06-28T14:44:18Z</time>
      </trkpt>
      <trkpt lat="46.0331" lon="6.50295">
        <ele>1502</ele>
        <time>2015-06-28T14:44:24Z</time>
      </trkpt>
      <trkpt lat="46.03315" lon="6.5029">
        <ele>1505</ele>
        <time>2015-06-28T14:44:27Z</time>
      </trkpt>
      <trkpt lat="46.03322" lon="6.50285">
        <ele>1506</ele>
        <time>2015-06-28T14:44:31Z</time>
      </trkpt>
      <trkpt lat="46.03325" lon="6.5028">
        <ele>1504</ele>
        <time>2015-06-28T14:44:37Z</time>
      </trkpt>
      <trkpt lat="46.03327" lon="6.50273">
        <ele>1504</ele>
        <time>2015-06-28T14:44:45Z</time>
      </trkpt>
      <trkpt lat="46.03331" lon="6.50269">
        <ele>1506</ele>
        <time>2015-06-28T14:44:49Z</time>
      </trkpt>
      <trkpt lat="46.03335" lon="6.50264">
        <ele>1506</ele>
        <time>2015-06-28T14:44:55Z</time>
      </trkpt>
      <trkpt lat="46.03338" lon="6.5026">
        <ele>1508</ele>
        <time>2015-06-28T14:45:00Z</time>
      </trkpt>
      <trkpt lat="46.03338" lon="6.50254">
        <ele>1506</ele>
        <time>2015-06-28T14:45:05Z</time>
      </trkpt>
      <trkpt lat="46.03342" lon="6.50248">
        <ele>1504</ele>
        <time>2015-06-28T14:45:11Z</time>
      </trkpt>
      <trkpt lat="46.03344" lon="6.50241">
        <ele>1502</ele>
        <time>2015-06-28T14:45:19Z</time>
      </trkpt>
      <trkpt lat="46.03349" lon="6.50237">
        <ele>1502</ele>
        <time>2015-06-28T14:45:27Z</time>
      </trkpt>
      <trkpt lat="46.03352" lon="6.50231">
        <ele>1501</ele>
        <time>2015-06-28T14:45:33Z</time>
      </trkpt>
      <trkpt lat="46.03355" lon="6.50225">
        <ele>1499</ele>
        <time>2015-06-28T14:45:40Z</time>
      </trkpt>
      <trkpt lat="46.03358" lon="6.5022">
        <ele>1497</ele>
        <time>2015-06-28T14:45:47Z</time>
      </trkpt>
      <trkpt lat="46.03363" lon="6.50216">
        <ele>1495</ele>
        <time>2015-06-28T14:45:53Z</time>
      </trkpt>
      <trkpt lat="46.03367" lon="6.50212">
        <ele>1493</ele>
        <time>2015-06-28T14:45:59Z</time>
      </trkpt>
      <trkpt lat="46.03371" lon="6.50206">
        <ele>1493</ele>
        <time>2015-06-28T14:46:05Z</time>
      </trkpt>
      <trkpt lat="46.03373" lon="6.502">
        <ele>1491</ele>
        <time>2015-06-28T14:46:10Z</time>
      </trkpt>
      <trkpt lat="46.03378" lon="6.50197">
        <ele>1489</ele>
        <time>2015-06-28T14:46:14Z</time>
      </trkpt>
      <trkpt lat="46.0338" lon="6.5019">
        <ele>1489</ele>
        <time>2015-06-28T14:46:20Z</time>
      </trkpt>
      <trkpt lat="46.03383" lon="6.50183">
        <ele>1485</ele>
        <time>2015-06-28T14:46:29Z</time>
      </trkpt>
      <trkpt lat="46.03385" lon="6.50177">
        <ele>1484</ele>
        <time>2015-06-28T14:46:35Z</time>
      </trkpt>
      <trkpt lat="46.03388" lon="6.50172">
        <ele>1485</ele>
        <time>2015-06-28T14:46:42Z</time>
      </trkpt>
      <trkpt lat="46.03392" lon="6.50167">
        <ele>1483</ele>
        <time>2015-06-28T14:46:49Z</time>
      </trkpt>
      <trkpt lat="46.03396" lon="6.50159">
        <ele>1482</ele>
        <time>2015-06-28T14:46:54Z</time>
      </trkpt>
      <trkpt lat="46.03399" lon="6.50154">
        <ele>1481</ele>
        <time>2015-06-28T14:47:00Z</time>
      </trkpt>
      <trkpt lat="46.03401" lon="6.50148">
        <ele>1478</ele>
        <time>2015-06-28T14:47:05Z</time>
      </trkpt>
      <trkpt lat="46.03405" lon="6.50142">
        <ele>1477</ele>
        <time>2015-06-28T14:47:10Z</time>
      </trkpt>
      <trkpt lat="46.03409" lon="6.50138">
        <ele>1477</ele>
        <time>2015-06-28T14:47:16Z</time>
      </trkpt>
      <trkpt lat="46.03415" lon="6.50134">
        <ele>1477</ele>
        <time>2015-06-28T14:47:21Z</time>
      </trkpt>
      <trkpt lat="46.03421" lon="6.50133">
        <ele>1475</ele>
        <time>2015-06-28T14:47:27Z</time>
      </trkpt>
      <trkpt lat="46.03425" lon="6.50131">
        <ele>1473</ele>
        <time>2015-06-28T14:47:31Z</time>
      </trkpt>
      <trkpt lat="46.03431" lon="6.50129">
        <ele>1471</ele>
        <time>2015-06-28T14:47:37Z</time>
      </trkpt>
      <trkpt lat="46.03436" lon="6.50128">
        <ele>1470</ele>
        <time>2015-06-28T14:47:42Z</time>
      </trkpt>
      <trkpt lat="46.03441" lon="6.5013">
        <ele>1470</ele>
        <time>2015-06-28T14:47:50Z</time>
      </trkpt>
      <trkpt lat="46.03445" lon="6.50129">
        <ele>1469</ele>
        <time>2015-06-28T14:47:54Z</time>
      </trkpt>
      <trkpt lat="46.0345" lon="6.50127">
        <ele>1468</ele>
        <time>2015-06-28T14:47:59Z</time>
      </trkpt>
      <trkpt lat="46.03455" lon="6.50125">
        <ele>1466</ele>
        <time>2015-06-28T14:48:03Z</time>
      </trkpt>
      <trkpt lat="46.0346" lon="6.50125">
        <ele>1467</ele>
        <time>2015-06-28T14:48:06Z</time>
      </trkpt>
      <trkpt lat="46.03465" lon="6.50122">
        <ele>1466</ele>
        <time>2015-06-28T14:48:13Z</time>
      </trkpt>
      <trkpt lat="46.0347" lon="6.5012">
        <ele>1466</ele>
        <time>2015-06-28T14:48:20Z</time>
      </trkpt>
      <trkpt lat="46.03475" lon="6.5012">
        <ele>1465</ele>
        <time>2015-06-28T14:48:25Z</time>
      </trkpt>
      <trkpt lat="46.0348" lon="6.5012">
        <ele>1464</ele>
        <time>2015-06-28T14:48:30Z</time>
      </trkpt>
      <trkpt lat="46.03484" lon="6.5012">
        <ele>1465</ele>
        <time>2015-06-28T14:48:35Z</time>
      </trkpt>
      <trkpt lat="46.03489" lon="6.50119">
        <ele>1463</ele>
        <time>2015-06-28T14:48:41Z</time>
      </trkpt>
      <trkpt lat="46.03495" lon="6.50117">
        <ele>1463</ele>
        <time>2015-06-28T14:48:45Z</time>
      </trkpt>
      <trkpt lat="46.035" lon="6.50116">
        <ele>1461</ele>
        <time>2015-06-28T14:48:49Z</time>
      </trkpt>
      <trkpt lat="46.03504" lon="6.50113">
        <ele>1461</ele>
        <time>2015-06-28T14:48:55Z</time>
      </trkpt>
      <trkpt lat="46.0351" lon="6.50112">
        <ele>1461</ele>
        <time>2015-06-28T14:49:01Z</time>
      </trkpt>
      <trkpt lat="46.03515" lon="6.5011">
        <ele>1460</ele>
        <time>2015-06-28T14:49:06Z</time>
      </trkpt>
      <trkpt lat="46.03519" lon="6.50106">
        <ele>1459</ele>
        <time>2015-06-28T14:49:13Z</time>
      </trkpt>
      <trkpt lat="46.03524" lon="6.50105">
        <ele>1459</ele>
        <time>2015-06-28T14:49:16Z</time>
      </trkpt>
      <trkpt lat="46.03529" lon="6.50105">
        <ele>1457</ele>
        <time>2015-06-28T14:49:21Z</time>
      </trkpt>
      <trkpt lat="46.03534" lon="6.50104">
        <ele>1457</ele>
        <time>2015-06-28T14:49:25Z</time>
      </trkpt>
      <trkpt lat="46.03539" lon="6.50106">
        <ele>1457</ele>
        <time>2015-06-28T14:49:31Z</time>
      </trkpt>
      <trkpt lat="46.03544" lon="6.50105">
        <ele>1456</ele>
        <time>2015-06-28T14:49:37Z</time>
      </trkpt>
      <trkpt lat="46.03549" lon="6.50106">
        <ele>1457</ele>
        <time>2015-06-28T14:49:41Z</time>
      </trkpt>
      <trkpt lat="46.03554" lon="6.50106">
        <ele>1457</ele>
        <time>2015-06-28T14:49:46Z</time>
      </trkpt>
      <trkpt lat="46.0356" lon="6.50104">
        <ele>1455</ele>
        <time>2015-06-28T14:49:53Z</time>
      </trkpt>
      <trkpt lat="46.03565" lon="6.50102">
        <ele>1454</ele>
        <time>2015-06-28T14:49:57Z</time>
      </trkpt>
      <trkpt lat="46.0357" lon="6.50102">
        <ele>1451</ele>
        <time>2015-06-28T14:50:02Z</time>
      </trkpt>
      <trkpt lat="46.03575" lon="6.50101">
        <ele>1453</ele>
        <time>2015-06-28T14:50:08Z</time>
      </trkpt>
      <trkpt lat="46.03579" lon="6.501">
        <ele>1452</ele>
        <time>2015-06-28T14:50:12Z</time>
      </trkpt>
      <trkpt lat="46.03584" lon="6.50097">
        <ele>1450</ele>
        <time>2015-06-28T14:50:17Z</time>
      </trkpt>
      <trkpt lat="46.03589" lon="6.50093">
        <ele>1447</ele>
        <time>2015-06-28T14:50:21Z</time>
      </trkpt>
      <trkpt lat="46.03593" lon="6.50091">
        <ele>1447</ele>
        <time>2015-06-28T14:50:27Z</time>
      </trkpt>
      <trkpt lat="46.03598" lon="6.50092">
        <ele>1449</ele>
        <time>2015-06-28T14:50:31Z</time>
      </trkpt>
      <trkpt lat="46.03603" lon="6.50092">
        <ele>1450</ele>
        <time>2015-06-28T14:50:35Z</time>
      </trkpt>
      <trkpt lat="46.03608" lon="6.5009">
        <ele>1452</ele>
        <time>2015-06-28T14:50:40Z</time>
      </trkpt>
      <trkpt lat="46.03614" lon="6.50086">
        <ele>1450</ele>
        <time>2015-06-28T14:50:47Z</time>
      </trkpt>
      <trkpt lat="46.03619" lon="6.50085">
        <ele>1450</ele>
        <time>2015-06-28T14:50:52Z</time>
      </trkpt>
      <trkpt lat="46.03623" lon="6.50081">
        <ele>1449</ele>
        <time>2015-06-28T14:50:57Z</time>
      </trkpt>
      <trkpt lat="46.0363" lon="6.50081">
        <ele>1448</ele>
        <time>2015-06-28T14:51:03Z</time>
      </trkpt>
      <trkpt lat="46.03635" lon="6.50083">
        <ele>1448</ele>
        <time>2015-06-28T14:51:08Z</time>
      </trkpt>
      <trkpt lat="46.03639" lon="6.50084">
        <ele>1447</ele>
        <time>2015-06-28T14:51:13Z</time>
      </trkpt>
      <trkpt lat="46.03645" lon="6.50086">
        <ele>1445</ele>
        <time>2015-06-28T14:51:19Z</time>
      </trkpt>
      <trkpt lat="46.0365" lon="6.50087">
        <ele>1444</ele>
        <time>2015-06-28T14:51:25Z</time>
      </trkpt>
      <trkpt lat="46.03655" lon="6.50087">
        <ele>1442</ele>
        <time>2015-06-28T14:51:32Z</time>
      </trkpt>
      <trkpt lat="46.03661" lon="6.50086">
        <ele>1442</ele>
        <time>2015-06-28T14:51:39Z</time>
      </trkpt>
      <trkpt lat="46.03666" lon="6.50084">
        <ele>1441</ele>
        <time>2015-06-28T14:51:45Z</time>
      </trkpt>
      <trkpt lat="46.0367" lon="6.50085">
        <ele>1440</ele>
        <time>2015-06-28T14:51:49Z</time>
      </trkpt>
      <trkpt lat="46.03675" lon="6.50084">
        <ele>1437</ele>
        <time>2015-06-28T14:51:57Z</time>
      </trkpt>
      <trkpt lat="46.0368" lon="6.50083">
        <ele>1435</ele>
        <time>2015-06-28T14:52:03Z</time>
      </trkpt>
      <trkpt lat="46.03685" lon="6.50084">
        <ele>1435</ele>
        <time>2015-06-28T14:52:09Z</time>
      </trkpt>
      <trkpt lat="46.03689" lon="6.50084">
        <ele>1435</ele>
        <time>2015-06-28T14:52:12Z</time>
      </trkpt>
      <trkpt lat="46.03695" lon="6.50084">
        <ele>1435</ele>
        <time>2015-06-28T14:52:17Z</time>
      </trkpt>
      <trkpt lat="46.037" lon="6.50083">
        <ele>1434</ele>
        <time>2015-06-28T14:52:22Z</time>
      </trkpt>
      <trkpt lat="46.03705" lon="6.5008">
        <ele>1434</ele>
        <time>2015-06-28T14:52:28Z</time>
      </trkpt>
      <trkpt lat="46.03709" lon="6.50076">
        <ele>1434</ele>
        <time>2015-06-28T14:52:36Z</time>
      </trkpt>
      <trkpt lat="46.03714" lon="6.50073">
        <ele>1433</ele>
        <time>2015-06-28T14:52:42Z</time>
      </trkpt>
      <trkpt lat="46.03717" lon="6.50069">
        <ele>1432</ele>
        <time>2015-06-28T14:52:47Z</time>
      </trkpt>
      <trkpt lat="46.03722" lon="6.50064">
        <ele>1432</ele>
        <time>2015-06-28T14:52:53Z</time>
      </trkpt>
      <trkpt lat="46.03726" lon="6.50059">
        <ele>1428</ele>
        <time>2015-06-28T14:53:00Z</time>
      </trkpt>
      <trkpt lat="46.03731" lon="6.50058">
        <ele>1426</ele>
        <time>2015-06-28T14:53:06Z</time>
      </trkpt>
      <trkpt lat="46.03735" lon="6.50055">
        <ele>1429</ele>
        <time>2015-06-28T14:53:13Z</time>
      </trkpt>
      <trkpt lat="46.0374" lon="6.50051">
        <ele>1430</ele>
        <time>2015-06-28T14:53:19Z</time>
      </trkpt>
      <trkpt lat="46.03745" lon="6.50049">
        <ele>1430</ele>
        <time>2015-06-28T14:53:24Z</time>
      </trkpt>
      <trkpt lat="46.03749" lon="6.50046">
        <ele>1430</ele>
        <time>2015-06-28T14:53:35Z</time>
      </trkpt>
      <trkpt lat="46.03754" lon="6.50045">
        <ele>1431</ele>
        <time>2015-06-28T14:53:48Z</time>
      </trkpt>
      <trkpt lat="46.03757" lon="6.5004">
        <ele>1431</ele>
        <time>2015-06-28T14:53:53Z</time>
      </trkpt>
      <trkpt lat="46.03761" lon="6.50037">
        <ele>1430</ele>
        <time>2015-06-28T14:53:58Z</time>
      </trkpt>
      <trkpt lat="46.03766" lon="6.50035">
        <ele>1428</ele>
        <time>2015-06-28T14:54:03Z</time>
      </trkpt>
      <trkpt lat="46.0377" lon="6.50032">
        <ele>1425</ele>
        <time>2015-06-28T14:54:10Z</time>
      </trkpt>
      <trkpt lat="46.03775" lon="6.50028">
        <ele>1422</ele>
        <time>2015-06-28T14:54:18Z</time>
      </trkpt>
      <trkpt lat="46.0378" lon="6.50027">
        <ele>1421</ele>
        <time>2015-06-28T14:54:24Z</time>
      </trkpt>
      <trkpt lat="46.03785" lon="6.50026">
        <ele>1418</ele>
        <time>2015-06-28T14:54:31Z</time>
      </trkpt>
      <trkpt lat="46.0379" lon="6.50023">
        <ele>1415</ele>
        <time>2015-06-28T14:54:37Z</time>
      </trkpt>
      <trkpt lat="46.03795" lon="6.50023">
        <ele>1415</ele>
        <time>2015-06-28T14:54:42Z</time>
      </trkpt>
      <trkpt lat="46.03799" lon="6.50021">
        <ele>1414</ele>
        <time>2015-06-28T14:54:48Z</time>
      </trkpt>
      <trkpt lat="46.03804" lon="6.50022">
        <ele>1415</ele>
        <time>2015-06-28T14:54:53Z</time>
      </trkpt>
      <trkpt lat="46.03809" lon="6.5002">
        <ele>1414</ele>
        <time>2015-06-28T14:54:57Z</time>
      </trkpt>
      <trkpt lat="46.03813" lon="6.50017">
        <ele>1415</ele>
        <time>2015-06-28T14:55:04Z</time>
      </trkpt>
      <trkpt lat="46.03818" lon="6.50012">
        <ele>1411</ele>
        <time>2015-06-28T14:55:11Z</time>
      </trkpt>
      <trkpt lat="46.03822" lon="6.50007">
        <ele>1409</ele>
        <time>2015-06-28T14:55:17Z</time>
      </trkpt>
      <trkpt lat="46.03825" lon="6.50002">
        <ele>1410</ele>
        <time>2015-06-28T14:55:26Z</time>
      </trkpt>
      <trkpt lat="46.03828" lon="6.49998">
        <ele>1408</ele>
        <time>2015-06-28T14:55:34Z</time>
      </trkpt>
      <trkpt lat="46.03835" lon="6.49997">
        <ele>1407</ele>
        <time>2015-06-28T14:56:03Z</time>
      </trkpt>
      <trkpt lat="46.0384" lon="6.49995">
        <ele>1409</ele>
        <time>2015-06-28T14:56:08Z</time>
      </trkpt>
      <trkpt lat="46.03842" lon="6.4999">
        <ele>1407</ele>
        <time>2015-06-28T14:56:14Z</time>
      </trkpt>
      <trkpt lat="46.03845" lon="6.49985">
        <ele>1404</ele>
        <time>2015-06-28T14:56:20Z</time>
      </trkpt>
      <trkpt lat="46.03849" lon="6.49981">
        <ele>1405</ele>
        <time>2015-06-28T14:56:24Z</time>
      </trkpt>
      <trkpt lat="46.03854" lon="6.49979">
        <ele>1405</ele>
        <time>2015-06-28T14:56:33Z</time>
      </trkpt>
      <trkpt lat="46.03857" lon="6.49974">
        <ele>1403</ele>
        <time>2015-06-28T14:56:39Z</time>
      </trkpt>
      <trkpt lat="46.03861" lon="6.49969">
        <ele>1403</ele>
        <time>2015-06-28T14:56:43Z</time>
      </trkpt>
      <trkpt lat="46.03864" lon="6.49962">
        <ele>1400</ele>
        <time>2015-06-28T14:56:50Z</time>
      </trkpt>
      <trkpt lat="46.03867" lon="6.49958">
        <ele>1400</ele>
        <time>2015-06-28T14:56:54Z</time>
      </trkpt>
      <trkpt lat="46.0387" lon="6.49952">
        <ele>1397</ele>
        <time>2015-06-28T14:56:59Z</time>
      </trkpt>
      <trkpt lat="46.03873" lon="6.49946">
        <ele>1396</ele>
        <time>2015-06-28T14:57:05Z</time>
      </trkpt>
      <trkpt lat="46.03875" lon="6.49939">
        <ele>1395</ele>
        <time>2015-06-28T14:57:11Z</time>
      </trkpt>
      <trkpt lat="46.03878" lon="6.49935">
        <ele>1393</ele>
        <time>2015-06-28T14:57:16Z</time>
      </trkpt>
      <trkpt lat="46.03884" lon="6.49933">
        <ele>1391</ele>
        <time>2015-06-28T14:57:20Z</time>
      </trkpt>
      <trkpt lat="46.03886" lon="6.49928">
        <ele>1391</ele>
        <time>2015-06-28T14:57:24Z</time>
      </trkpt>
      <trkpt lat="46.03891" lon="6.49922">
        <ele>1391</ele>
        <time>2015-06-28T14:57:29Z</time>
      </trkpt>
      <trkpt lat="46.03894" lon="6.49918">
        <ele>1389</ele>
        <time>2015-06-28T14:57:34Z</time>
      </trkpt>
      <trkpt lat="46.03897" lon="6.49913">
        <ele>1389</ele>
        <time>2015-06-28T14:57:39Z</time>
      </trkpt>
      <trkpt lat="46.03899" lon="6.49905">
        <ele>1388</ele>
        <time>2015-06-28T14:57:47Z</time>
      </trkpt>
      <trkpt lat="46.03902" lon="6.49899">
        <ele>1385</ele>
        <time>2015-06-28T14:57:53Z</time>
      </trkpt>
      <trkpt lat="46.03904" lon="6.49893">
        <ele>1383</ele>
        <time>2015-06-28T14:58:00Z</time>
      </trkpt>
      <trkpt lat="46.03908" lon="6.49889">
        <ele>1382</ele>
        <time>2015-06-28T14:58:04Z</time>
      </trkpt>
      <trkpt lat="46.03912" lon="6.49886">
        <ele>1385</ele>
        <time>2015-06-28T14:58:07Z</time>
      </trkpt>
      <trkpt lat="46.03915" lon="6.49878">
        <ele>1383</ele>
        <time>2015-06-28T14:58:14Z</time>
      </trkpt>
      <trkpt lat="46.03916" lon="6.49872">
        <ele>1381</ele>
        <time>2015-06-28T14:58:20Z</time>
      </trkpt>
      <trkpt lat="46.0392" lon="6.49866">
        <ele>1380</ele>
        <time>2015-06-28T14:58:26Z</time>
      </trkpt>
      <trkpt lat="46.03922" lon="6.49861">
        <ele>1379</ele>
        <time>2015-06-28T14:58:31Z</time>
      </trkpt>
      <trkpt lat="46.03924" lon="6.49854">
        <ele>1377</ele>
        <time>2015-06-28T14:58:36Z</time>
      </trkpt>
      <trkpt lat="46.03929" lon="6.49847">
        <ele>1374</ele>
        <time>2015-06-28T14:58:42Z</time>
      </trkpt>
      <trkpt lat="46.03932" lon="6.49842">
        <ele>1374</ele>
        <time>2015-06-28T14:58:48Z</time>
      </trkpt>
      <trkpt lat="46.03935" lon="6.49836">
        <ele>1374</ele>
        <time>2015-06-28T14:58:54Z</time>
      </trkpt>
      <trkpt lat="46.03939" lon="6.49832">
        <ele>1373</ele>
        <time>2015-06-28T14:58:59Z</time>
      </trkpt>
      <trkpt lat="46.03942" lon="6.49826">
        <ele>1371</ele>
        <time>2015-06-28T14:59:07Z</time>
      </trkpt>
      <trkpt lat="46.03944" lon="6.49821">
        <ele>1369</ele>
        <time>2015-06-28T14:59:16Z</time>
      </trkpt>
      <trkpt lat="46.03947" lon="6.49814">
        <ele>1367</ele>
        <time>2015-06-28T14:59:26Z</time>
      </trkpt>
      <trkpt lat="46.03949" lon="6.49807">
        <ele>1367</ele>
        <time>2015-06-28T14:59:35Z</time>
      </trkpt>
      <trkpt lat="46.03951" lon="6.498">
        <ele>1367</ele>
        <time>2015-06-28T14:59:41Z</time>
      </trkpt>
      <trkpt lat="46.03952" lon="6.49793">
        <ele>1367</ele>
        <time>2015-06-28T14:59:48Z</time>
      </trkpt>
      <trkpt lat="46.03957" lon="6.49787">
        <ele>1364</ele>
        <time>2015-06-28T14:59:54Z</time>
      </trkpt>
      <trkpt lat="46.03956" lon="6.49781">
        <ele>1364</ele>
        <time>2015-06-28T15:00:00Z</time>
      </trkpt>
      <trkpt lat="46.03957" lon="6.49774">
        <ele>1362</ele>
        <time>2015-06-28T15:00:06Z</time>
      </trkpt>
      <trkpt lat="46.03957" lon="6.49767">
        <ele>1361</ele>
        <time>2015-06-28T15:00:13Z</time>
      </trkpt>
      <trkpt lat="46.03959" lon="6.49761">
        <ele>1361</ele>
        <time>2015-06-28T15:00:23Z</time>
      </trkpt>
      <trkpt lat="46.03962" lon="6.49755">
        <ele>1360</ele>
        <time>2015-06-28T15:00:30Z</time>
      </trkpt>
      <trkpt lat="46.03964" lon="6.49749">
        <ele>1360</ele>
        <time>2015-06-28T15:00:36Z</time>
      </trkpt>
      <trkpt lat="46.03967" lon="6.49744">
        <ele>1359</ele>
        <time>2015-06-28T15:00:43Z</time>
      </trkpt>
      <trkpt lat="46.03969" lon="6.49738">
        <ele>1359</ele>
        <time>2015-06-28T15:00:51Z</time>
      </trkpt>
      <trkpt lat="46.03974" lon="6.49734">
        <ele>1361</ele>
        <time>2015-06-28T15:00:57Z</time>
      </trkpt>
      <trkpt lat="46.03976" lon="6.49728">
        <ele>1359</ele>
        <time>2015-06-28T15:01:04Z</time>
      </trkpt>
      <trkpt lat="46.03978" lon="6.49721">
        <ele>1358</ele>
        <time>2015-06-28T15:01:10Z</time>
      </trkpt>
      <trkpt lat="46.03976" lon="6.49715">
        <ele>1353</ele>
        <time>2015-06-28T15:01:17Z</time>
      </trkpt>
      <trkpt lat="46.03975" lon="6.49708">
        <ele>1351</ele>
        <time>2015-06-28T15:01:23Z</time>
      </trkpt>
      <trkpt lat="46.03976" lon="6.49701">
        <ele>1351</ele>
        <time>2015-06-28T15:01:32Z</time>
      </trkpt>
      <trkpt lat="46.03976" lon="6.49693">
        <ele>1348</ele>
        <time>2015-06-28T15:01:41Z</time>
      </trkpt>
      <trkpt lat="46.03977" lon="6.49687">
        <ele>1347</ele>
        <time>2015-06-28T15:01:46Z</time>
      </trkpt>
      <trkpt lat="46.03975" lon="6.49679">
        <ele>1347</ele>
        <time>2015-06-28T15:01:54Z</time>
      </trkpt>
      <trkpt lat="46.03975" lon="6.49672">
        <ele>1346</ele>
        <time>2015-06-28T15:02:01Z</time>
      </trkpt>
      <trkpt lat="46.03977" lon="6.49666">
        <ele>1347</ele>
        <time>2015-06-28T15:02:07Z</time>
      </trkpt>
      <trkpt lat="46.03978" lon="6.4966">
        <ele>1348</ele>
        <time>2015-06-28T15:02:14Z</time>
      </trkpt>
      <trkpt lat="46.03977" lon="6.49652">
        <ele>1348</ele>
        <time>2015-06-28T15:02:21Z</time>
      </trkpt>
      <trkpt lat="46.03975" lon="6.49647">
        <ele>1346</ele>
        <time>2015-06-28T15:02:25Z</time>
      </trkpt>
      <trkpt lat="46.03971" lon="6.49643">
        <ele>1348</ele>
        <time>2015-06-28T15:02:31Z</time>
      </trkpt>
      <trkpt lat="46.03968" lon="6.49637">
        <ele>1346</ele>
        <time>2015-06-28T15:02:42Z</time>
      </trkpt>
      <trkpt lat="46.03972" lon="6.49632">
        <ele>1347</ele>
        <time>2015-06-28T15:02:46Z</time>
      </trkpt>
      <trkpt lat="46.03977" lon="6.49631">
        <ele>1350</ele>
        <time>2015-06-28T15:02:50Z</time>
      </trkpt>
      <trkpt lat="46.03983" lon="6.49632">
        <ele>1354</ele>
        <time>2015-06-28T15:02:57Z</time>
      </trkpt>
      <trkpt lat="46.03987" lon="6.49636">
        <ele>1354</ele>
        <time>2015-06-28T15:03:07Z</time>
      </trkpt>
      <trkpt lat="46.03992" lon="6.49637">
        <ele>1354</ele>
        <time>2015-06-28T15:03:17Z</time>
      </trkpt>
      <trkpt lat="46.03995" lon="6.49643">
        <ele>1352</ele>
        <time>2015-06-28T15:03:23Z</time>
      </trkpt>
      <trkpt lat="46.03999" lon="6.49645">
        <ele>1351</ele>
        <time>2015-06-28T15:03:29Z</time>
      </trkpt>
      <trkpt lat="46.04008" lon="6.49652">
        <ele>1337</ele>
        <time>2015-06-28T15:03:42Z</time>
      </trkpt>
      <trkpt lat="46.04012" lon="6.49655">
        <ele>1337</ele>
        <time>2015-06-28T15:03:46Z</time>
      </trkpt>
      <trkpt lat="46.04018" lon="6.49656">
        <ele>1338</ele>
        <time>2015-06-28T15:03:51Z</time>
      </trkpt>
      <trkpt lat="46.04023" lon="6.49657">
        <ele>1337</ele>
        <time>2015-06-28T15:04:02Z</time>
      </trkpt>
      <trkpt lat="46.04028" lon="6.49658">
        <ele>1333</ele>
        <time>2015-06-28T15:04:10Z</time>
      </trkpt>
      <trkpt lat="46.04033" lon="6.49656">
        <ele>1334</ele>
        <time>2015-06-28T15:04:14Z</time>
      </trkpt>
      <trkpt lat="46.04038" lon="6.49657">
        <ele>1330</ele>
        <time>2015-06-28T15:04:21Z</time>
      </trkpt>
      <trkpt lat="46.04043" lon="6.49657">
        <ele>1330</ele>
        <time>2015-06-28T15:04:26Z</time>
      </trkpt>
      <trkpt lat="46.04048" lon="6.49659">
        <ele>1332</ele>
        <time>2015-06-28T15:04:33Z</time>
      </trkpt>
      <trkpt lat="46.04052" lon="6.49658">
        <ele>1332</ele>
        <time>2015-06-28T15:04:42Z</time>
      </trkpt>
      <trkpt lat="46.04057" lon="6.49656">
        <ele>1332</ele>
        <time>2015-06-28T15:04:49Z</time>
      </trkpt>
      <trkpt lat="46.04059" lon="6.4965">
        <ele>1330</ele>
        <time>2015-06-28T15:04:55Z</time>
      </trkpt>
      <trkpt lat="46.04059" lon="6.49643">
        <ele>1327</ele>
        <time>2015-06-28T15:05:01Z</time>
      </trkpt>
      <trkpt lat="46.04059" lon="6.49637">
        <ele>1326</ele>
        <time>2015-06-28T15:05:05Z</time>
      </trkpt>
      <trkpt lat="46.04059" lon="6.4963">
        <ele>1324</ele>
        <time>2015-06-28T15:05:10Z</time>
      </trkpt>
      <trkpt lat="46.0406" lon="6.49621">
        <ele>1322</ele>
        <time>2015-06-28T15:05:17Z</time>
      </trkpt>
      <trkpt lat="46.0406" lon="6.49614">
        <ele>1320</ele>
        <time>2015-06-28T15:05:23Z</time>
      </trkpt>
      <trkpt lat="46.0406" lon="6.49607">
        <ele>1320</ele>
        <time>2015-06-28T15:05:29Z</time>
      </trkpt>
      <trkpt lat="46.04062" lon="6.496">
        <ele>1320</ele>
        <time>2015-06-28T15:05:37Z</time>
      </trkpt>
      <trkpt lat="46.04059" lon="6.49592">
        <ele>1321</ele>
        <time>2015-06-28T15:05:45Z</time>
      </trkpt>
      <trkpt lat="46.04057" lon="6.49585">
        <ele>1320</ele>
        <time>2015-06-28T15:05:50Z</time>
      </trkpt>
      <trkpt lat="46.04059" lon="6.49578">
        <ele>1321</ele>
        <time>2015-06-28T15:05:58Z</time>
      </trkpt>
      <trkpt lat="46.04054" lon="6.49573">
        <ele>1320</ele>
        <time>2015-06-28T15:06:02Z</time>
      </trkpt>
      <trkpt lat="46.04051" lon="6.49569">
        <ele>1317</ele>
        <time>2015-06-28T15:06:06Z</time>
      </trkpt>
      <trkpt lat="46.04048" lon="6.49562">
        <ele>1316</ele>
        <time>2015-06-28T15:06:12Z</time>
      </trkpt>
      <trkpt lat="46.04044" lon="6.49558">
        <ele>1313</ele>
        <time>2015-06-28T15:06:27Z</time>
      </trkpt>
      <trkpt lat="46.04042" lon="6.49552">
        <ele>1308</ele>
        <time>2015-06-28T15:06:34Z</time>
      </trkpt>
      <trkpt lat="46.04039" lon="6.49547">
        <ele>1311</ele>
        <time>2015-06-28T15:06:47Z</time>
      </trkpt>
      <trkpt lat="46.04044" lon="6.49548">
        <ele>1312</ele>
        <time>2015-06-28T15:06:50Z</time>
      </trkpt>
      <trkpt lat="46.04049" lon="6.49541">
        <ele>1317</ele>
        <time>2015-06-28T15:06:54Z</time>
      </trkpt>
      <trkpt lat="46.04053" lon="6.49537">
        <ele>1317</ele>
        <time>2015-06-28T15:06:58Z</time>
      </trkpt>
      <trkpt lat="46.04057" lon="6.49534">
        <ele>1321</ele>
        <time>2015-06-28T15:07:08Z</time>
      </trkpt>
      <trkpt lat="46.04057" lon="6.49535">
        <ele>1320</ele>
        <time>2015-06-28T15:07:10Z</time>
      </trkpt>
      <trkpt lat="46.04062" lon="6.49536">
        <ele>1321</ele>
        <time>2015-06-28T15:07:20Z</time>
      </trkpt>
      <trkpt lat="46.04068" lon="6.49535">
        <ele>1319</ele>
        <time>2015-06-28T15:07:26Z</time>
      </trkpt>
      <trkpt lat="46.04072" lon="6.49531">
        <ele>1320</ele>
        <time>2015-06-28T15:07:34Z</time>
      </trkpt>
      <trkpt lat="46.04076" lon="6.49528">
        <ele>1321</ele>
        <time>2015-06-28T15:07:38Z</time>
      </trkpt>
      <trkpt lat="46.04081" lon="6.49524">
        <ele>1320</ele>
        <time>2015-06-28T15:07:48Z</time>
      </trkpt>
      <trkpt lat="46.04083" lon="6.4952">
        <ele>1319</ele>
        <time>2015-06-28T15:08:04Z</time>
      </trkpt>
      <trkpt lat="46.04086" lon="6.49519">
        <ele>1318</ele>
        <time>2015-06-28T15:08:06Z</time>
      </trkpt>
      <trkpt lat="46.04092" lon="6.49517">
        <ele>1321</ele>
        <time>2015-06-28T15:08:10Z</time>
      </trkpt>
      <trkpt lat="46.04098" lon="6.49514">
        <ele>1325</ele>
        <time>2015-06-28T15:08:12Z</time>
      </trkpt>
      <trkpt lat="46.04102" lon="6.4951">
        <ele>1326</ele>
        <time>2015-06-28T15:08:16Z</time>
      </trkpt>
      <trkpt lat="46.04107" lon="6.49505">
        <ele>1326</ele>
        <time>2015-06-28T15:08:22Z</time>
      </trkpt>
      <trkpt lat="46.04109" lon="6.49499">
        <ele>1323</ele>
        <time>2015-06-28T15:08:43Z</time>
      </trkpt>
      <trkpt lat="46.04109" lon="6.49499">
        <ele>1323</ele>
        <time>2015-06-28T15:08:51Z</time>
      </trkpt>
      <trkpt lat="46.04111" lon="6.49492">
        <ele>1322</ele>
        <time>2015-06-28T15:09:06Z</time>
      </trkpt>
      <trkpt lat="46.04101" lon="6.49489">
        <ele>1306</ele>
        <time>2015-06-28T15:09:12Z</time>
      </trkpt>
      <trkpt lat="46.04099" lon="6.49483">
        <ele>1291</ele>
        <time>2015-06-28T15:09:27Z</time>
      </trkpt>
      <trkpt lat="46.04102" lon="6.49478">
        <ele>1292</ele>
        <time>2015-06-28T15:09:34Z</time>
      </trkpt>
      <trkpt lat="46.04099" lon="6.49474">
        <ele>1285</ele>
        <time>2015-06-28T15:09:47Z</time>
      </trkpt>
      <trkpt lat="46.04096" lon="6.49459">
        <ele>1274</ele>
        <time>2015-06-28T15:10:03Z</time>
      </trkpt>
      <trkpt lat="46.04099" lon="6.49454">
        <ele>1274</ele>
        <time>2015-06-28T15:10:08Z</time>
      </trkpt>
      <trkpt lat="46.04103" lon="6.49449">
        <ele>1277</ele>
        <time>2015-06-28T15:10:14Z</time>
      </trkpt>
      <trkpt lat="46.04103" lon="6.49442">
        <ele>1277</ele>
        <time>2015-06-28T15:10:20Z</time>
      </trkpt>
      <trkpt lat="46.04105" lon="6.49435">
        <ele>1276</ele>
        <time>2015-06-28T15:10:26Z</time>
      </trkpt>
      <trkpt lat="46.04103" lon="6.4943">
        <ele>1273</ele>
        <time>2015-06-28T15:10:35Z</time>
      </trkpt>
      <trkpt lat="46.04104" lon="6.49423">
        <ele>1276</ele>
        <time>2015-06-28T15:10:42Z</time>
      </trkpt>
      <trkpt lat="46.04108" lon="6.49417">
        <ele>1277</ele>
        <time>2015-06-28T15:10:47Z</time>
      </trkpt>
      <trkpt lat="46.04111" lon="6.49411">
        <ele>1279</ele>
        <time>2015-06-28T15:10:52Z</time>
      </trkpt>
      <trkpt lat="46.04115" lon="6.49406">
        <ele>1282</ele>
        <time>2015-06-28T15:10:56Z</time>
      </trkpt>
      <trkpt lat="46.04118" lon="6.49401">
        <ele>1284</ele>
        <time>2015-06-28T15:11:00Z</time>
      </trkpt>
      <trkpt lat="46.04116" lon="6.49397">
        <ele>1285</ele>
        <time>2015-06-28T15:11:12Z</time>
      </trkpt>
      <trkpt lat="46.04117" lon="6.49395">
        <ele>1286</ele>
        <time>2015-06-28T15:11:14Z</time>
      </trkpt>
      <trkpt lat="46.04121" lon="6.4939">
        <ele>1290</ele>
        <time>2015-06-28T15:11:20Z</time>
      </trkpt>
      <trkpt lat="46.04117" lon="6.49384">
        <ele>1287</ele>
        <time>2015-06-28T15:11:24Z</time>
      </trkpt>
      <trkpt lat="46.04119" lon="6.49377">
        <ele>1285</ele>
        <time>2015-06-28T15:11:47Z</time>
      </trkpt>
      <trkpt lat="46.04125" lon="6.49373">
        <ele>1289</ele>
        <time>2015-06-28T15:11:54Z</time>
      </trkpt>
      <trkpt lat="46.04128" lon="6.49369">
        <ele>1292</ele>
        <time>2015-06-28T15:12:00Z</time>
      </trkpt>
      <trkpt lat="46.04133" lon="6.49366">
        <ele>1294</ele>
        <time>2015-06-28T15:12:04Z</time>
      </trkpt>
      <trkpt lat="46.0413" lon="6.49361">
        <ele>1289</ele>
        <time>2015-06-28T15:12:08Z</time>
      </trkpt>
      <trkpt lat="46.04121" lon="6.49356">
        <ele>1280</ele>
        <time>2015-06-28T15:12:10Z</time>
      </trkpt>
      <trkpt lat="46.04118" lon="6.4935">
        <ele>1274</ele>
        <time>2015-06-28T15:12:14Z</time>
      </trkpt>
      <trkpt lat="46.04117" lon="6.49343">
        <ele>1272</ele>
        <time>2015-06-28T15:12:20Z</time>
      </trkpt>
      <trkpt lat="46.04117" lon="6.49336">
        <ele>1270</ele>
        <time>2015-06-28T15:12:24Z</time>
      </trkpt>
      <trkpt lat="46.04118" lon="6.49328">
        <ele>1267</ele>
        <time>2015-06-28T15:12:29Z</time>
      </trkpt>
      <trkpt lat="46.0412" lon="6.49322">
        <ele>1267</ele>
        <time>2015-06-28T15:12:34Z</time>
      </trkpt>
      <trkpt lat="46.04122" lon="6.49313">
        <ele>1264</ele>
        <time>2015-06-28T15:12:42Z</time>
      </trkpt>
      <trkpt lat="46.04123" lon="6.49307">
        <ele>1262</ele>
        <time>2015-06-28T15:12:48Z</time>
      </trkpt>
      <trkpt lat="46.04125" lon="6.493">
        <ele>1263</ele>
        <time>2015-06-28T15:12:53Z</time>
      </trkpt>
      <trkpt lat="46.04125" lon="6.49293">
        <ele>1261</ele>
        <time>2015-06-28T15:13:01Z</time>
      </trkpt>
      <trkpt lat="46.0413" lon="6.4929">
        <ele>1264</ele>
        <time>2015-06-28T15:13:06Z</time>
      </trkpt>
      <trkpt lat="46.04135" lon="6.49285">
        <ele>1264</ele>
        <time>2015-06-28T15:13:18Z</time>
      </trkpt>
      <trkpt lat="46.04142" lon="6.49283">
        <ele>1266</ele>
        <time>2015-06-28T15:13:22Z</time>
      </trkpt>
      <trkpt lat="46.04148" lon="6.49282">
        <ele>1269</ele>
        <time>2015-06-28T15:13:26Z</time>
      </trkpt>
      <trkpt lat="46.04149" lon="6.49276">
        <ele>1263</ele>
        <time>2015-06-28T15:13:35Z</time>
      </trkpt>
      <trkpt lat="46.04152" lon="6.4927">
        <ele>1263</ele>
        <time>2015-06-28T15:13:42Z</time>
      </trkpt>
      <trkpt lat="46.04153" lon="6.49263">
        <ele>1263</ele>
        <time>2015-06-28T15:13:52Z</time>
      </trkpt>
      <trkpt lat="46.0415" lon="6.49256">
        <ele>1258</ele>
        <time>2015-06-28T15:13:58Z</time>
      </trkpt>
      <trkpt lat="46.04155" lon="6.4925">
        <ele>1258</ele>
        <time>2015-06-28T15:14:06Z</time>
      </trkpt>
      <trkpt lat="46.04157" lon="6.49247">
        <ele>1259</ele>
        <time>2015-06-28T15:14:18Z</time>
      </trkpt>
      <trkpt lat="46.04158" lon="6.49245">
        <ele>1259</ele>
        <time>2015-06-28T15:14:25Z</time>
      </trkpt>
      <trkpt lat="46.04162" lon="6.49245">
        <ele>1261</ele>
        <time>2015-06-28T15:14:40Z</time>
      </trkpt>
      <trkpt lat="46.04167" lon="6.49242">
        <ele>1262</ele>
        <time>2015-06-28T15:14:45Z</time>
      </trkpt>
      <trkpt lat="46.04167" lon="6.49234">
        <ele>1260</ele>
        <time>2015-06-28T15:14:51Z</time>
      </trkpt>
      <trkpt lat="46.04163" lon="6.49229">
        <ele>1256</ele>
        <time>2015-06-28T15:14:56Z</time>
      </trkpt>
      <trkpt lat="46.04164" lon="6.49222">
        <ele>1253</ele>
        <time>2015-06-28T15:15:03Z</time>
      </trkpt>
      <trkpt lat="46.04167" lon="6.49217">
        <ele>1252</ele>
        <time>2015-06-28T15:15:09Z</time>
      </trkpt>
      <trkpt lat="46.04171" lon="6.4921">
        <ele>1249</ele>
        <time>2015-06-28T15:15:16Z</time>
      </trkpt>
      <trkpt lat="46.04176" lon="6.49205">
        <ele>1250</ele>
        <time>2015-06-28T15:15:23Z</time>
      </trkpt>
      <trkpt lat="46.04179" lon="6.49199">
        <ele>1248</ele>
        <time>2015-06-28T15:15:28Z</time>
      </trkpt>
      <trkpt lat="46.04183" lon="6.49196">
        <ele>1247</ele>
        <time>2015-06-28T15:15:32Z</time>
      </trkpt>
      <trkpt lat="46.04182" lon="6.49189">
        <ele>1253</ele>
        <time>2015-06-28T15:15:43Z</time>
      </trkpt>
      <trkpt lat="46.04184" lon="6.49182">
        <ele>1251</ele>
        <time>2015-06-28T15:15:49Z</time>
      </trkpt>
      <trkpt lat="46.04185" lon="6.49176">
        <ele>1252</ele>
        <time>2015-06-28T15:15:56Z</time>
      </trkpt>
      <trkpt lat="46.04186" lon="6.49167">
        <ele>1251</ele>
        <time>2015-06-28T15:16:03Z</time>
      </trkpt>
      <trkpt lat="46.04188" lon="6.49161">
        <ele>1251</ele>
        <time>2015-06-28T15:16:08Z</time>
      </trkpt>
      <trkpt lat="46.04189" lon="6.49155">
        <ele>1248</ele>
        <time>2015-06-28T15:16:16Z</time>
      </trkpt>
      <trkpt lat="46.04194" lon="6.49151">
        <ele>1246</ele>
        <time>2015-06-28T15:16:22Z</time>
      </trkpt>
      <trkpt lat="46.04199" lon="6.49151">
        <ele>1243</ele>
        <time>2015-06-28T15:16:27Z</time>
      </trkpt>
      <trkpt lat="46.042" lon="6.49142">
        <ele>1247</ele>
        <time>2015-06-28T15:16:31Z</time>
      </trkpt>
      <trkpt lat="46.04201" lon="6.49133">
        <ele>1247</ele>
        <time>2015-06-28T15:16:35Z</time>
      </trkpt>
      <trkpt lat="46.04203" lon="6.49126">
        <ele>1251</ele>
        <time>2015-06-28T15:16:39Z</time>
      </trkpt>
      <trkpt lat="46.04206" lon="6.4912">
        <ele>1253</ele>
        <time>2015-06-28T15:16:42Z</time>
      </trkpt>
      <trkpt lat="46.04208" lon="6.49112">
        <ele>1254</ele>
        <time>2015-06-28T15:16:47Z</time>
      </trkpt>
      <trkpt lat="46.04213" lon="6.49113">
        <ele>1255</ele>
        <time>2015-06-28T15:16:54Z</time>
      </trkpt>
      <trkpt lat="46.04218" lon="6.49115">
        <ele>1255</ele>
        <time>2015-06-28T15:16:58Z</time>
      </trkpt>
      <trkpt lat="46.04214" lon="6.49114">
        <ele>1249</ele>
        <time>2015-06-28T15:17:01Z</time>
      </trkpt>
      <trkpt lat="46.04211" lon="6.49107">
        <ele>1238</ele>
        <time>2015-06-28T15:17:09Z</time>
      </trkpt>
      <trkpt lat="46.04207" lon="6.49097">
        <ele>1236</ele>
        <time>2015-06-28T15:17:22Z</time>
      </trkpt>
      <trkpt lat="46.04203" lon="6.49093">
        <ele>1228</ele>
        <time>2015-06-28T15:17:30Z</time>
      </trkpt>
      <trkpt lat="46.04199" lon="6.4909">
        <ele>1222</ele>
        <time>2015-06-28T15:17:38Z</time>
      </trkpt>
      <trkpt lat="46.04195" lon="6.49084">
        <ele>1223</ele>
        <time>2015-06-28T15:17:43Z</time>
      </trkpt>
      <trkpt lat="46.04189" lon="6.49077">
        <ele>1225</ele>
        <time>2015-06-28T15:17:50Z</time>
      </trkpt>
      <trkpt lat="46.04184" lon="6.49072">
        <ele>1220</ele>
        <time>2015-06-28T15:18:03Z</time>
      </trkpt>
      <trkpt lat="46.04185" lon="6.49063">
        <ele>1223</ele>
        <time>2015-06-28T15:18:10Z</time>
      </trkpt>
      <trkpt lat="46.04186" lon="6.49057">
        <ele>1223</ele>
        <time>2015-06-28T15:18:15Z</time>
      </trkpt>
      <trkpt lat="46.04189" lon="6.4905">
        <ele>1223</ele>
        <time>2015-06-28T15:18:22Z</time>
      </trkpt>
      <trkpt lat="46.04192" lon="6.49045">
        <ele>1225</ele>
        <time>2015-06-28T15:18:27Z</time>
      </trkpt>
      <trkpt lat="46.04198" lon="6.49045">
        <ele>1228</ele>
        <time>2015-06-28T15:18:30Z</time>
      </trkpt>
      <trkpt lat="46.04202" lon="6.49047">
        <ele>1226</ele>
        <time>2015-06-28T15:18:34Z</time>
      </trkpt>
      <trkpt lat="46.04208" lon="6.49045">
        <ele>1226</ele>
        <time>2015-06-28T15:18:44Z</time>
      </trkpt>
      <trkpt lat="46.04212" lon="6.49041">
        <ele>1228</ele>
        <time>2015-06-28T15:18:50Z</time>
      </trkpt>
      <trkpt lat="46.04217" lon="6.49039">
        <ele>1223</ele>
        <time>2015-06-28T15:19:08Z</time>
      </trkpt>
      <trkpt lat="46.04223" lon="6.49037">
        <ele>1220</ele>
        <time>2015-06-28T15:19:14Z</time>
      </trkpt>
      <trkpt lat="46.0422" lon="6.4903">
        <ele>1208</ele>
        <time>2015-06-28T15:19:22Z</time>
      </trkpt>
      <trkpt lat="46.0422" lon="6.49023">
        <ele>1205</ele>
        <time>2015-06-28T15:19:33Z</time>
      </trkpt>
      <trkpt lat="46.04219" lon="6.49016">
        <ele>1204</ele>
        <time>2015-06-28T15:19:38Z</time>
      </trkpt>
      <trkpt lat="46.04219" lon="6.49008">
        <ele>1202</ele>
        <time>2015-06-28T15:19:47Z</time>
      </trkpt>
      <trkpt lat="46.04221" lon="6.49002">
        <ele>1204</ele>
        <time>2015-06-28T15:19:55Z</time>
      </trkpt>
      <trkpt lat="46.04221" lon="6.48996">
        <ele>1205</ele>
        <time>2015-06-28T15:20:07Z</time>
      </trkpt>
      <trkpt lat="46.04219" lon="6.48989">
        <ele>1204</ele>
        <time>2015-06-28T15:20:14Z</time>
      </trkpt>
      <trkpt lat="46.04216" lon="6.48985">
        <ele>1203</ele>
        <time>2015-06-28T15:20:19Z</time>
      </trkpt>
      <trkpt lat="46.04213" lon="6.48977">
        <ele>1202</ele>
        <time>2015-06-28T15:20:24Z</time>
      </trkpt>
      <trkpt lat="46.04212" lon="6.4897">
        <ele>1201</ele>
        <time>2015-06-28T15:20:30Z</time>
      </trkpt>
      <trkpt lat="46.04208" lon="6.48968">
        <ele>1195</ele>
        <time>2015-06-28T15:20:38Z</time>
      </trkpt>
      <trkpt lat="46.04203" lon="6.48969">
        <ele>1193</ele>
        <time>2015-06-28T15:20:44Z</time>
      </trkpt>
      <trkpt lat="46.042" lon="6.48963">
        <ele>1193</ele>
        <time>2015-06-28T15:20:48Z</time>
      </trkpt>
      <trkpt lat="46.04195" lon="6.48961">
        <ele>1192</ele>
        <time>2015-06-28T15:20:55Z</time>
      </trkpt>
      <trkpt lat="46.04191" lon="6.48957">
        <ele>1196</ele>
        <time>2015-06-28T15:21:00Z</time>
      </trkpt>
      <trkpt lat="46.04188" lon="6.48942">
        <ele>1200</ele>
        <time>2015-06-28T15:21:02Z</time>
      </trkpt>
      <trkpt lat="46.04184" lon="6.48936">
        <ele>1201</ele>
        <time>2015-06-28T15:21:08Z</time>
      </trkpt>
      <trkpt lat="46.04181" lon="6.4893">
        <ele>1201</ele>
        <time>2015-06-28T15:21:14Z</time>
      </trkpt>
      <trkpt lat="46.04175" lon="6.4893">
        <ele>1186</ele>
        <time>2015-06-28T15:21:34Z</time>
      </trkpt>
      <trkpt lat="46.0417" lon="6.48931">
        <ele>1185</ele>
        <time>2015-06-28T15:21:39Z</time>
      </trkpt>
      <trkpt lat="46.04167" lon="6.48925">
        <ele>1183</ele>
        <time>2015-06-28T15:21:47Z</time>
      </trkpt>
      <trkpt lat="46.04165" lon="6.4892">
        <ele>1181</ele>
        <time>2015-06-28T15:21:58Z</time>
      </trkpt>
      <trkpt lat="46.04164" lon="6.48913">
        <ele>1181</ele>
        <time>2015-06-28T15:22:02Z</time>
      </trkpt>
      <trkpt lat="46.04162" lon="6.48906">
        <ele>1182</ele>
        <time>2015-06-28T15:22:11Z</time>
      </trkpt>
      <trkpt lat="46.04162" lon="6.48899">
        <ele>1182</ele>
        <time>2015-06-28T15:22:27Z</time>
      </trkpt>
      <trkpt lat="46.04161" lon="6.48893">
        <ele>1182</ele>
        <time>2015-06-28T15:22:40Z</time>
      </trkpt>
      <trkpt lat="46.0416" lon="6.48886">
        <ele>1181</ele>
        <time>2015-06-28T15:22:50Z</time>
      </trkpt>
      <trkpt lat="46.04159" lon="6.48878">
        <ele>1180</ele>
        <time>2015-06-28T15:23:02Z</time>
      </trkpt>
      <trkpt lat="46.04158" lon="6.48871">
        <ele>1178</ele>
        <time>2015-06-28T15:23:11Z</time>
      </trkpt>
      <trkpt lat="46.04155" lon="6.48866">
        <ele>1176</ele>
        <time>2015-06-28T15:23:19Z</time>
      </trkpt>
      <trkpt lat="46.04152" lon="6.48858">
        <ele>1178</ele>
        <time>2015-06-28T15:23:25Z</time>
      </trkpt>
      <trkpt lat="46.04154" lon="6.48851">
        <ele>1179</ele>
        <time>2015-06-28T15:23:31Z</time>
      </trkpt>
      <trkpt lat="46.04156" lon="6.48845">
        <ele>1178</ele>
        <time>2015-06-28T15:23:37Z</time>
      </trkpt>
      <trkpt lat="46.04159" lon="6.4884">
        <ele>1179</ele>
        <time>2015-06-28T15:23:41Z</time>
      </trkpt>
      <trkpt lat="46.04163" lon="6.48837">
        <ele>1178</ele>
        <time>2015-06-28T15:23:49Z</time>
      </trkpt>
      <trkpt lat="46.04166" lon="6.48844">
        <ele>1172</ele>
        <time>2015-06-28T15:23:51Z</time>
      </trkpt>
      <trkpt lat="46.04172" lon="6.48841">
        <ele>1167</ele>
        <time>2015-06-28T15:24:01Z</time>
      </trkpt>
      <trkpt lat="46.04174" lon="6.48833">
        <ele>1165</ele>
        <time>2015-06-28T15:24:09Z</time>
      </trkpt>
      <trkpt lat="46.0417" lon="6.4883">
        <ele>1162</ele>
        <time>2015-06-28T15:24:21Z</time>
      </trkpt>
      <trkpt lat="46.04166" lon="6.48826">
        <ele>1161</ele>
        <time>2015-06-28T15:24:27Z</time>
      </trkpt>
      <trkpt lat="46.04161" lon="6.48825">
        <ele>1161</ele>
        <time>2015-06-28T15:24:34Z</time>
      </trkpt>
      <trkpt lat="46.04155" lon="6.48823">
        <ele>1160</ele>
        <time>2015-06-28T15:24:41Z</time>
      </trkpt>
      <trkpt lat="46.0415" lon="6.48821">
        <ele>1156</ele>
        <time>2015-06-28T15:24:49Z</time>
      </trkpt>
      <trkpt lat="46.04146" lon="6.48817">
        <ele>1156</ele>
        <time>2015-06-28T15:24:56Z</time>
      </trkpt>
      <trkpt lat="46.04144" lon="6.48811">
        <ele>1156</ele>
        <time>2015-06-28T15:25:02Z</time>
      </trkpt>
      <trkpt lat="46.04143" lon="6.48805">
        <ele>1156</ele>
        <time>2015-06-28T15:25:10Z</time>
      </trkpt>
      <trkpt lat="46.04144" lon="6.48798">
        <ele>1156</ele>
        <time>2015-06-28T15:25:17Z</time>
      </trkpt>
      <trkpt lat="46.04143" lon="6.4879">
        <ele>1156</ele>
        <time>2015-06-28T15:25:24Z</time>
      </trkpt>
      <trkpt lat="46.04142" lon="6.48782">
        <ele>1155</ele>
        <time>2015-06-28T15:25:32Z</time>
      </trkpt>
      <trkpt lat="46.04141" lon="6.48776">
        <ele>1156</ele>
        <time>2015-06-28T15:25:38Z</time>
      </trkpt>
      <trkpt lat="46.04138" lon="6.48771">
        <ele>1155</ele>
        <time>2015-06-28T15:25:46Z</time>
      </trkpt>
      <trkpt lat="46.04133" lon="6.48771">
        <ele>1155</ele>
        <time>2015-06-28T15:25:50Z</time>
      </trkpt>
      <trkpt lat="46.04128" lon="6.4877">
        <ele>1153</ele>
        <time>2015-06-28T15:25:56Z</time>
      </trkpt>
      <trkpt lat="46.04121" lon="6.4877">
        <ele>1155</ele>
        <time>2015-06-28T15:26:00Z</time>
      </trkpt>
      <trkpt lat="46.04121" lon="6.48767">
        <ele>1157</ele>
        <time>2015-06-28T15:26:14Z</time>
      </trkpt>
      <trkpt lat="46.04116" lon="6.48773">
        <ele>1158</ele>
        <time>2015-06-28T15:26:20Z</time>
      </trkpt>
      <trkpt lat="46.04113" lon="6.48779">
        <ele>1156</ele>
        <time>2015-06-28T15:26:26Z</time>
      </trkpt>
      <trkpt lat="46.04109" lon="6.48783">
        <ele>1154</ele>
        <time>2015-06-28T15:26:31Z</time>
      </trkpt>
      <trkpt lat="46.04104" lon="6.48784">
        <ele>1160</ele>
        <time>2015-06-28T15:26:36Z</time>
      </trkpt>
      <trkpt lat="46.041" lon="6.48787">
        <ele>1164</ele>
        <time>2015-06-28T15:26:42Z</time>
      </trkpt>
      <trkpt lat="46.04094" lon="6.48789">
        <ele>1165</ele>
        <time>2015-06-28T15:26:47Z</time>
      </trkpt>
      <trkpt lat="46.04089" lon="6.48791">
        <ele>1166</ele>
        <time>2015-06-28T15:26:50Z</time>
      </trkpt>
      <trkpt lat="46.04084" lon="6.48792">
        <ele>1165</ele>
        <time>2015-06-28T15:26:54Z</time>
      </trkpt>
      <trkpt lat="46.04079" lon="6.48791">
        <ele>1166</ele>
        <time>2015-06-28T15:26:57Z</time>
      </trkpt>
      <trkpt lat="46.04073" lon="6.48794">
        <ele>1166</ele>
        <time>2015-06-28T15:27:00Z</time>
      </trkpt>
      <trkpt lat="46.04072" lon="6.48804">
        <ele>1159</ele>
        <time>2015-06-28T15:27:05Z</time>
      </trkpt>
      <trkpt lat="46.04068" lon="6.48808">
        <ele>1159</ele>
        <time>2015-06-28T15:27:09Z</time>
      </trkpt>
      <trkpt lat="46.04063" lon="6.48809">
        <ele>1159</ele>
        <time>2015-06-28T15:27:12Z</time>
      </trkpt>
      <trkpt lat="46.04057" lon="6.48809">
        <ele>1160</ele>
        <time>2015-06-28T15:27:17Z</time>
      </trkpt>
      <trkpt lat="46.04052" lon="6.48811">
        <ele>1159</ele>
        <time>2015-06-28T15:27:21Z</time>
      </trkpt>
      <trkpt lat="46.04047" lon="6.48813">
        <ele>1158</ele>
        <time>2015-06-28T15:27:26Z</time>
      </trkpt>
      <trkpt lat="46.04042" lon="6.48816">
        <ele>1158</ele>
        <time>2015-06-28T15:27:30Z</time>
      </trkpt>
      <trkpt lat="46.04038" lon="6.48813">
        <ele>1159</ele>
        <time>2015-06-28T15:27:35Z</time>
      </trkpt>
      <trkpt lat="46.04039" lon="6.48806">
        <ele>1159</ele>
        <time>2015-06-28T15:27:41Z</time>
      </trkpt>
      <trkpt lat="46.04042" lon="6.48801">
        <ele>1158</ele>
        <time>2015-06-28T15:27:48Z</time>
      </trkpt>
      <trkpt lat="46.04047" lon="6.48801">
        <ele>1160</ele>
        <time>2015-06-28T15:27:51Z</time>
      </trkpt>
      <trkpt lat="46.04052" lon="6.48796">
        <ele>1159</ele>
        <time>2015-06-28T15:27:57Z</time>
      </trkpt>
      <trkpt lat="46.04057" lon="6.48794">
        <ele>1158</ele>
        <time>2015-06-28T15:28:01Z</time>
      </trkpt>
      <trkpt lat="46.04062" lon="6.48793">
        <ele>1158</ele>
        <time>2015-06-28T15:28:05Z</time>
      </trkpt>
      <trkpt lat="46.04067" lon="6.48789">
        <ele>1158</ele>
        <time>2015-06-28T15:28:09Z</time>
      </trkpt>
      <trkpt lat="46.04071" lon="6.4879">
        <ele>1158</ele>
        <time>2015-06-28T15:28:11Z</time>
      </trkpt>
      <trkpt lat="46.04076" lon="6.48788">
        <ele>1158</ele>
        <time>2015-06-28T15:28:15Z</time>
      </trkpt>
      <trkpt lat="46.04081" lon="6.48787">
        <ele>1155</ele>
        <time>2015-06-28T15:28:21Z</time>
      </trkpt>
      <trkpt lat="46.04086" lon="6.48786">
        <ele>1150</ele>
        <time>2015-06-28T15:28:27Z</time>
      </trkpt>
      <trkpt lat="46.04089" lon="6.4878">
        <ele>1143</ele>
        <time>2015-06-28T15:28:35Z</time>
      </trkpt>
      <trkpt lat="46.04092" lon="6.48774">
        <ele>1144</ele>
        <time>2015-06-28T15:28:41Z</time>
      </trkpt>
      <trkpt lat="46.04095" lon="6.48767">
        <ele>1146</ele>
        <time>2015-06-28T15:28:45Z</time>
      </trkpt>
      <trkpt lat="46.04096" lon="6.4876">
        <ele>1140</ele>
        <time>2015-06-28T15:28:53Z</time>
      </trkpt>
      <trkpt lat="46.041" lon="6.48756">
        <ele>1139</ele>
        <time>2015-06-28T15:28:58Z</time>
      </trkpt>
      <trkpt lat="46.04105" lon="6.48752">
        <ele>1137</ele>
        <time>2015-06-28T15:29:03Z</time>
      </trkpt>
      <trkpt lat="46.0411" lon="6.48745">
        <ele>1135</ele>
        <time>2015-06-28T15:29:09Z</time>
      </trkpt>
      <trkpt lat="46.04115" lon="6.48739">
        <ele>1137</ele>
        <time>2015-06-28T15:29:13Z</time>
      </trkpt>
      <trkpt lat="46.04119" lon="6.48734">
        <ele>1140</ele>
        <time>2015-06-28T15:29:17Z</time>
      </trkpt>
      <trkpt lat="46.04124" lon="6.48728">
        <ele>1141</ele>
        <time>2015-06-28T15:29:22Z</time>
      </trkpt>
      <trkpt lat="46.04128" lon="6.48723">
        <ele>1142</ele>
        <time>2015-06-28T15:29:27Z</time>
      </trkpt>
      <trkpt lat="46.04132" lon="6.4872">
        <ele>1143</ele>
        <time>2015-06-28T15:29:30Z</time>
      </trkpt>
      <trkpt lat="46.04136" lon="6.48716">
        <ele>1143</ele>
        <time>2015-06-28T15:29:33Z</time>
      </trkpt>
      <trkpt lat="46.04141" lon="6.48713">
        <ele>1145</ele>
        <time>2015-06-28T15:29:41Z</time>
      </trkpt>
      <trkpt lat="46.04144" lon="6.48705">
        <ele>1145</ele>
        <time>2015-06-28T15:29:53Z</time>
      </trkpt>
      <trkpt lat="46.04149" lon="6.48701">
        <ele>1142</ele>
        <time>2015-06-28T15:29:58Z</time>
      </trkpt>
      <trkpt lat="46.04151" lon="6.48694">
        <ele>1135</ele>
        <time>2015-06-28T15:30:02Z</time>
      </trkpt>
      <trkpt lat="46.04155" lon="6.48689">
        <ele>1135</ele>
        <time>2015-06-28T15:30:06Z</time>
      </trkpt>
      <trkpt lat="46.04158" lon="6.48684">
        <ele>1136</ele>
        <time>2015-06-28T15:30:09Z</time>
      </trkpt>
      <trkpt lat="46.04161" lon="6.48678">
        <ele>1143</ele>
        <time>2015-06-28T15:30:15Z</time>
      </trkpt>
      <trkpt lat="46.04164" lon="6.48672">
        <ele>1143</ele>
        <time>2015-06-28T15:30:19Z</time>
      </trkpt>
      <trkpt lat="46.04168" lon="6.4867">
        <ele>1142</ele>
        <time>2015-06-28T15:30:23Z</time>
      </trkpt>
      <trkpt lat="46.04175" lon="6.4867">
        <ele>1142</ele>
        <time>2015-06-28T15:30:28Z</time>
      </trkpt>
      <trkpt lat="46.04177" lon="6.48664">
        <ele>1144</ele>
        <time>2015-06-28T15:30:38Z</time>
      </trkpt>
      <trkpt lat="46.04182" lon="6.48661">
        <ele>1142</ele>
        <time>2015-06-28T15:30:42Z</time>
      </trkpt>
      <trkpt lat="46.04186" lon="6.48656">
        <ele>1144</ele>
        <time>2015-06-28T15:30:49Z</time>
      </trkpt>
      <trkpt lat="46.04192" lon="6.48654">
        <ele>1143</ele>
        <time>2015-06-28T15:30:53Z</time>
      </trkpt>
      <trkpt lat="46.04197" lon="6.48649">
        <ele>1142</ele>
        <time>2015-06-28T15:31:01Z</time>
      </trkpt>
      <trkpt lat="46.04201" lon="6.48644">
        <ele>1142</ele>
        <time>2015-06-28T15:31:05Z</time>
      </trkpt>
      <trkpt lat="46.04209" lon="6.48642">
        <ele>1140</ele>
        <time>2015-06-28T15:31:13Z</time>
      </trkpt>
      <trkpt lat="46.04213" lon="6.48638">
        <ele>1140</ele>
        <time>2015-06-28T15:31:18Z</time>
      </trkpt>
      <trkpt lat="46.04219" lon="6.48637">
        <ele>1141</ele>
        <time>2015-06-28T15:31:25Z</time>
      </trkpt>
      <trkpt lat="46.04225" lon="6.48637">
        <ele>1141</ele>
        <time>2015-06-28T15:31:29Z</time>
      </trkpt>
      <trkpt lat="46.04229" lon="6.48635">
        <ele>1140</ele>
        <time>2015-06-28T15:31:34Z</time>
      </trkpt>
      <trkpt lat="46.04234" lon="6.48633">
        <ele>1143</ele>
        <time>2015-06-28T15:31:39Z</time>
      </trkpt>
      <trkpt lat="46.04239" lon="6.48636">
        <ele>1142</ele>
        <time>2015-06-28T15:31:43Z</time>
      </trkpt>
      <trkpt lat="46.04244" lon="6.48634">
        <ele>1141</ele>
        <time>2015-06-28T15:31:48Z</time>
      </trkpt>
      <trkpt lat="46.04248" lon="6.48631">
        <ele>1142</ele>
        <time>2015-06-28T15:31:54Z</time>
      </trkpt>
      <trkpt lat="46.04253" lon="6.48631">
        <ele>1140</ele>
        <time>2015-06-28T15:31:59Z</time>
      </trkpt>
      <trkpt lat="46.04259" lon="6.48631">
        <ele>1138</ele>
        <time>2015-06-28T15:32:03Z</time>
      </trkpt>
      <trkpt lat="46.04264" lon="6.48634">
        <ele>1137</ele>
        <time>2015-06-28T15:32:10Z</time>
      </trkpt>
      <trkpt lat="46.04268" lon="6.48636">
        <ele>1135</ele>
        <time>2015-06-28T15:32:13Z</time>
      </trkpt>
      <trkpt lat="46.04274" lon="6.48638">
        <ele>1134</ele>
        <time>2015-06-28T15:32:18Z</time>
      </trkpt>
      <trkpt lat="46.04279" lon="6.48639">
        <ele>1131</ele>
        <time>2015-06-28T15:32:21Z</time>
      </trkpt>
      <trkpt lat="46.04283" lon="6.48638">
        <ele>1130</ele>
        <time>2015-06-28T15:32:25Z</time>
      </trkpt>
      <trkpt lat="46.04287" lon="6.48642">
        <ele>1128</ele>
        <time>2015-06-28T15:32:30Z</time>
      </trkpt>
      <trkpt lat="46.04293" lon="6.48644">
        <ele>1127</ele>
        <time>2015-06-28T15:32:37Z</time>
      </trkpt>
      <trkpt lat="46.04299" lon="6.48643">
        <ele>1127</ele>
        <time>2015-06-28T15:32:41Z</time>
      </trkpt>
      <trkpt lat="46.04306" lon="6.48643">
        <ele>1126</ele>
        <time>2015-06-28T15:32:45Z</time>
      </trkpt>
      <trkpt lat="46.04311" lon="6.48641">
        <ele>1125</ele>
        <time>2015-06-28T15:32:51Z</time>
      </trkpt>
      <trkpt lat="46.04317" lon="6.48638">
        <ele>1123</ele>
        <time>2015-06-28T15:32:56Z</time>
      </trkpt>
      <trkpt lat="46.04321" lon="6.48639">
        <ele>1122</ele>
        <time>2015-06-28T15:33:02Z</time>
      </trkpt>
      <trkpt lat="46.04326" lon="6.48642">
        <ele>1123</ele>
        <time>2015-06-28T15:33:14Z</time>
      </trkpt>
      <trkpt lat="46.04331" lon="6.48643">
        <ele>1120</ele>
        <time>2015-06-28T15:33:19Z</time>
      </trkpt>
      <trkpt lat="46.04338" lon="6.48644">
        <ele>1118</ele>
        <time>2015-06-28T15:33:22Z</time>
      </trkpt>
      <trkpt lat="46.04342" lon="6.48643">
        <ele>1119</ele>
        <time>2015-06-28T15:33:25Z</time>
      </trkpt>
      <trkpt lat="46.0435" lon="6.48642">
        <ele>1120</ele>
        <time>2015-06-28T15:33:29Z</time>
      </trkpt>
      <trkpt lat="46.04355" lon="6.4864">
        <ele>1122</ele>
        <time>2015-06-28T15:33:35Z</time>
      </trkpt>
      <trkpt lat="46.04359" lon="6.48639">
        <ele>1125</ele>
        <time>2015-06-28T15:33:43Z</time>
      </trkpt>
      <trkpt lat="46.04366" lon="6.4864">
        <ele>1120</ele>
        <time>2015-06-28T15:33:47Z</time>
      </trkpt>
      <trkpt lat="46.04371" lon="6.48642">
        <ele>1116</ele>
        <time>2015-06-28T15:33:53Z</time>
      </trkpt>
      <trkpt lat="46.04377" lon="6.48641">
        <ele>1116</ele>
        <time>2015-06-28T15:33:58Z</time>
      </trkpt>
      <trkpt lat="46.04381" lon="6.48644">
        <ele>1113</ele>
        <time>2015-06-28T15:34:02Z</time>
      </trkpt>
      <trkpt lat="46.04385" lon="6.48645">
        <ele>1109</ele>
        <time>2015-06-28T15:34:06Z</time>
      </trkpt>
      <trkpt lat="46.04392" lon="6.48645">
        <ele>1105</ele>
        <time>2015-06-28T15:34:11Z</time>
      </trkpt>
      <trkpt lat="46.04397" lon="6.48646">
        <ele>1104</ele>
        <time>2015-06-28T15:34:18Z</time>
      </trkpt>
      <trkpt lat="46.04402" lon="6.48646">
        <ele>1102</ele>
        <time>2015-06-28T15:34:22Z</time>
      </trkpt>
      <trkpt lat="46.04408" lon="6.48647">
        <ele>1099</ele>
        <time>2015-06-28T15:34:30Z</time>
      </trkpt>
      <trkpt lat="46.04412" lon="6.48649">
        <ele>1098</ele>
        <time>2015-06-28T15:34:34Z</time>
      </trkpt>
      <trkpt lat="46.04417" lon="6.48651">
        <ele>1099</ele>
        <time>2015-06-28T15:34:41Z</time>
      </trkpt>
      <trkpt lat="46.04423" lon="6.48651">
        <ele>1103</ele>
        <time>2015-06-28T15:34:46Z</time>
      </trkpt>
      <trkpt lat="46.04429" lon="6.48653">
        <ele>1097</ele>
        <time>2015-06-28T15:34:50Z</time>
      </trkpt>
      <trkpt lat="46.04433" lon="6.48653">
        <ele>1101</ele>
        <time>2015-06-28T15:34:55Z</time>
      </trkpt>
      <trkpt lat="46.04438" lon="6.48655">
        <ele>1103</ele>
        <time>2015-06-28T15:34:59Z</time>
      </trkpt>
      <trkpt lat="46.04443" lon="6.48655">
        <ele>1101</ele>
        <time>2015-06-28T15:35:03Z</time>
      </trkpt>
      <trkpt lat="46.04447" lon="6.48657">
        <ele>1098</ele>
        <time>2015-06-28T15:35:08Z</time>
      </trkpt>
      <trkpt lat="46.04452" lon="6.48659">
        <ele>1097</ele>
        <time>2015-06-28T15:35:13Z</time>
      </trkpt>
      <trkpt lat="46.04458" lon="6.48659">
        <ele>1095</ele>
        <time>2015-06-28T15:35:18Z</time>
      </trkpt>
      <trkpt lat="46.04464" lon="6.48659">
        <ele>1096</ele>
        <time>2015-06-28T15:35:25Z</time>
      </trkpt>
      <trkpt lat="46.0447" lon="6.48661">
        <ele>1097</ele>
        <time>2015-06-28T15:35:28Z</time>
      </trkpt>
      <trkpt lat="46.04476" lon="6.48662">
        <ele>1094</ele>
        <time>2015-06-28T15:35:34Z</time>
      </trkpt>
      <trkpt lat="46.04481" lon="6.48664">
        <ele>1092</ele>
        <time>2015-06-28T15:35:41Z</time>
      </trkpt>
      <trkpt lat="46.04485" lon="6.48667">
        <ele>1092</ele>
        <time>2015-06-28T15:35:53Z</time>
      </trkpt>
      <trkpt lat="46.04491" lon="6.4867">
        <ele>1086</ele>
        <time>2015-06-28T15:35:58Z</time>
      </trkpt>
      <trkpt lat="46.04496" lon="6.48673">
        <ele>1084</ele>
        <time>2015-06-28T15:36:02Z</time>
      </trkpt>
      <trkpt lat="46.04501" lon="6.48676">
        <ele>1084</ele>
        <time>2015-06-28T15:36:05Z</time>
      </trkpt>
      <trkpt lat="46.04505" lon="6.48678">
        <ele>1086</ele>
        <time>2015-06-28T15:36:11Z</time>
      </trkpt>
      <trkpt lat="46.0451" lon="6.48681">
        <ele>1084</ele>
        <time>2015-06-28T15:36:14Z</time>
      </trkpt>
      <trkpt lat="46.04515" lon="6.48685">
        <ele>1081</ele>
        <time>2015-06-28T15:36:19Z</time>
      </trkpt>
      <trkpt lat="46.0452" lon="6.48689">
        <ele>1080</ele>
        <time>2015-06-28T15:36:22Z</time>
      </trkpt>
      <trkpt lat="46.04525" lon="6.48691">
        <ele>1081</ele>
        <time>2015-06-28T15:36:26Z</time>
      </trkpt>
      <trkpt lat="46.0453" lon="6.48692">
        <ele>1081</ele>
        <time>2015-06-28T15:36:29Z</time>
      </trkpt>
      <trkpt lat="46.04535" lon="6.48694">
        <ele>1080</ele>
        <time>2015-06-28T15:36:36Z</time>
      </trkpt>
      <trkpt lat="46.0454" lon="6.48696">
        <ele>1078</ele>
        <time>2015-06-28T15:36:41Z</time>
      </trkpt>
      <trkpt lat="46.04546" lon="6.48698">
        <ele>1074</ele>
        <time>2015-06-28T15:36:47Z</time>
      </trkpt>
      <trkpt lat="46.0455" lon="6.48699">
        <ele>1075</ele>
        <time>2015-06-28T15:36:54Z</time>
      </trkpt>
      <trkpt lat="46.04556" lon="6.487">
        <ele>1075</ele>
        <time>2015-06-28T15:36:59Z</time>
      </trkpt>
      <trkpt lat="46.04561" lon="6.48702">
        <ele>1075</ele>
        <time>2015-06-28T15:37:02Z</time>
      </trkpt>
      <trkpt lat="46.04565" lon="6.48702">
        <ele>1077</ele>
        <time>2015-06-28T15:37:05Z</time>
      </trkpt>
      <trkpt lat="46.0457" lon="6.48703">
        <ele>1077</ele>
        <time>2015-06-28T15:37:10Z</time>
      </trkpt>
      <trkpt lat="46.04575" lon="6.48702">
        <ele>1080</ele>
        <time>2015-06-28T15:37:15Z</time>
      </trkpt>
      <trkpt lat="46.0458" lon="6.48703">
        <ele>1078</ele>
        <time>2015-06-28T15:37:18Z</time>
      </trkpt>
      <trkpt lat="46.04586" lon="6.48705">
        <ele>1076</ele>
        <time>2015-06-28T15:37:23Z</time>
      </trkpt>
      <trkpt lat="46.04591" lon="6.48706">
        <ele>1076</ele>
        <time>2015-06-28T15:37:27Z</time>
      </trkpt>
      <trkpt lat="46.04596" lon="6.48708">
        <ele>1073</ele>
        <time>2015-06-28T15:37:30Z</time>
      </trkpt>
      <trkpt lat="46.04601" lon="6.48708">
        <ele>1078</ele>
        <time>2015-06-28T15:37:36Z</time>
      </trkpt>
      <trkpt lat="46.04606" lon="6.48712">
        <ele>1082</ele>
        <time>2015-06-28T15:37:41Z</time>
      </trkpt>
      <trkpt lat="46.04609" lon="6.48716">
        <ele>1083</ele>
        <time>2015-06-28T15:37:46Z</time>
      </trkpt>
      <trkpt lat="46.04614" lon="6.48717">
        <ele>1082</ele>
        <time>2015-06-28T15:37:51Z</time>
      </trkpt>
      <trkpt lat="46.04618" lon="6.4872">
        <ele>1083</ele>
        <time>2015-06-28T15:37:56Z</time>
      </trkpt>
      <trkpt lat="46.04623" lon="6.48723">
        <ele>1085</ele>
        <time>2015-06-28T15:38:00Z</time>
      </trkpt>
      <trkpt lat="46.04627" lon="6.48728">
        <ele>1083</ele>
        <time>2015-06-28T15:38:04Z</time>
      </trkpt>
      <trkpt lat="46.04632" lon="6.48731">
        <ele>1085</ele>
        <time>2015-06-28T15:38:09Z</time>
      </trkpt>
      <trkpt lat="46.04636" lon="6.48734">
        <ele>1085</ele>
        <time>2015-06-28T15:38:12Z</time>
      </trkpt>
      <trkpt lat="46.0464" lon="6.48738">
        <ele>1087</ele>
        <time>2015-06-28T15:38:18Z</time>
      </trkpt>
      <trkpt lat="46.04645" lon="6.4874">
        <ele>1087</ele>
        <time>2015-06-28T15:38:22Z</time>
      </trkpt>
      <trkpt lat="46.04649" lon="6.48743">
        <ele>1085</ele>
        <time>2015-06-28T15:38:28Z</time>
      </trkpt>
      <trkpt lat="46.04652" lon="6.48747">
        <ele>1084</ele>
        <time>2015-06-28T15:38:31Z</time>
      </trkpt>
      <trkpt lat="46.04657" lon="6.4875">
        <ele>1082</ele>
        <time>2015-06-28T15:38:37Z</time>
      </trkpt>
      <trkpt lat="46.04662" lon="6.48755">
        <ele>1080</ele>
        <time>2015-06-28T15:38:41Z</time>
      </trkpt>
      <trkpt lat="46.04667" lon="6.48757">
        <ele>1080</ele>
        <time>2015-06-28T15:38:46Z</time>
      </trkpt>
      <trkpt lat="46.04671" lon="6.48761">
        <ele>1078</ele>
        <time>2015-06-28T15:38:49Z</time>
      </trkpt>
      <trkpt lat="46.04675" lon="6.48767">
        <ele>1074</ele>
        <time>2015-06-28T15:38:53Z</time>
      </trkpt>
      <trkpt lat="46.0468" lon="6.48769">
        <ele>1076</ele>
        <time>2015-06-28T15:38:58Z</time>
      </trkpt>
      <trkpt lat="46.04684" lon="6.48774">
        <ele>1076</ele>
        <time>2015-06-28T15:39:02Z</time>
      </trkpt>
      <trkpt lat="46.04688" lon="6.48778">
        <ele>1077</ele>
        <time>2015-06-28T15:39:06Z</time>
      </trkpt>
      <trkpt lat="46.04693" lon="6.48782">
        <ele>1075</ele>
        <time>2015-06-28T15:39:11Z</time>
      </trkpt>
      <trkpt lat="46.04697" lon="6.48784">
        <ele>1076</ele>
        <time>2015-06-28T15:39:15Z</time>
      </trkpt>
      <trkpt lat="46.04701" lon="6.48787">
        <ele>1074</ele>
        <time>2015-06-28T15:39:19Z</time>
      </trkpt>
      <trkpt lat="46.04704" lon="6.48792">
        <ele>1077</ele>
        <time>2015-06-28T15:39:25Z</time>
      </trkpt>
      <trkpt lat="46.04707" lon="6.48799">
        <ele>1078</ele>
        <time>2015-06-28T15:39:30Z</time>
      </trkpt>
      <trkpt lat="46.04712" lon="6.48803">
        <ele>1077</ele>
        <time>2015-06-28T15:39:35Z</time>
      </trkpt>
      <trkpt lat="46.04716" lon="6.48805">
        <ele>1077</ele>
        <time>2015-06-28T15:39:39Z</time>
      </trkpt>
      <trkpt lat="46.04719" lon="6.4881">
        <ele>1075</ele>
        <time>2015-06-28T15:39:47Z</time>
      </trkpt>
      <trkpt lat="46.04722" lon="6.48815">
        <ele>1075</ele>
        <time>2015-06-28T15:39:50Z</time>
      </trkpt>
      <trkpt lat="46.04727" lon="6.4882">
        <ele>1075</ele>
        <time>2015-06-28T15:39:54Z</time>
      </trkpt>
      <trkpt lat="46.04731" lon="6.48825">
        <ele>1075</ele>
        <time>2015-06-28T15:39:57Z</time>
      </trkpt>
      <trkpt lat="46.04734" lon="6.4883">
        <ele>1075</ele>
        <time>2015-06-28T15:40:00Z</time>
      </trkpt>
      <trkpt lat="46.04739" lon="6.48834">
        <ele>1078</ele>
        <time>2015-06-28T15:40:04Z</time>
      </trkpt>
      <trkpt lat="46.04746" lon="6.48836">
        <ele>1082</ele>
        <time>2015-06-28T15:40:07Z</time>
      </trkpt>
      <trkpt lat="46.04752" lon="6.48839">
        <ele>1085</ele>
        <time>2015-06-28T15:40:10Z</time>
      </trkpt>
      <trkpt lat="46.04756" lon="6.48845">
        <ele>1088</ele>
        <time>2015-06-28T15:40:15Z</time>
      </trkpt>
      <trkpt lat="46.04761" lon="6.4885">
        <ele>1094</ele>
        <time>2015-06-28T15:40:19Z</time>
      </trkpt>
      <trkpt lat="46.04765" lon="6.48857">
        <ele>1092</ele>
        <time>2015-06-28T15:40:25Z</time>
      </trkpt>
      <trkpt lat="46.04768" lon="6.48862">
        <ele>1093</ele>
        <time>2015-06-28T15:40:29Z</time>
      </trkpt>
      <trkpt lat="46.04772" lon="6.48867">
        <ele>1095</ele>
        <time>2015-06-28T15:40:33Z</time>
      </trkpt>
      <trkpt lat="46.04775" lon="6.48872">
        <ele>1096</ele>
        <time>2015-06-28T15:40:39Z</time>
      </trkpt>
      <trkpt lat="46.04781" lon="6.48876">
        <ele>1096</ele>
        <time>2015-06-28T15:40:42Z</time>
      </trkpt>
      <trkpt lat="46.04783" lon="6.48882">
        <ele>1096</ele>
        <time>2015-06-28T15:40:46Z</time>
      </trkpt>
      <trkpt lat="46.04787" lon="6.48887">
        <ele>1098</ele>
        <time>2015-06-28T15:40:49Z</time>
      </trkpt>
      <trkpt lat="46.0479" lon="6.48893">
        <ele>1098</ele>
        <time>2015-06-28T15:40:55Z</time>
      </trkpt>
      <trkpt lat="46.04794" lon="6.489">
        <ele>1098</ele>
        <time>2015-06-28T15:41:01Z</time>
      </trkpt>
      <trkpt lat="46.04798" lon="6.48904">
        <ele>1095</ele>
        <time>2015-06-28T15:41:05Z</time>
      </trkpt>
      <trkpt lat="46.04802" lon="6.48908">
        <ele>1094</ele>
        <time>2015-06-28T15:41:09Z</time>
      </trkpt>
      <trkpt lat="46.04807" lon="6.48911">
        <ele>1094</ele>
        <time>2015-06-28T15:41:14Z</time>
      </trkpt>
      <trkpt lat="46.04805" lon="6.48917">
        <ele>1095</ele>
        <time>2015-06-28T15:41:21Z</time>
      </trkpt>
      <trkpt lat="46.04806" lon="6.48928">
        <ele>1092</ele>
        <time>2015-06-28T15:41:29Z</time>
      </trkpt>
      <trkpt lat="46.04806" lon="6.48936">
        <ele>1094</ele>
        <time>2015-06-28T15:41:31Z</time>
      </trkpt>
      <trkpt lat="46.04807" lon="6.48943">
        <ele>1092</ele>
        <time>2015-06-28T15:41:36Z</time>
      </trkpt>
      <trkpt lat="46.04809" lon="6.48949">
        <ele>1090</ele>
        <time>2015-06-28T15:41:40Z</time>
      </trkpt>
      <trkpt lat="46.04812" lon="6.48954">
        <ele>1089</ele>
        <time>2015-06-28T15:41:43Z</time>
      </trkpt>
      <trkpt lat="46.04816" lon="6.48958">
        <ele>1088</ele>
        <time>2015-06-28T15:41:46Z</time>
      </trkpt>
      <trkpt lat="46.0482" lon="6.48963">
        <ele>1087</ele>
        <time>2015-06-28T15:41:51Z</time>
      </trkpt>
      <trkpt lat="46.0482" lon="6.4897">
        <ele>1081</ele>
        <time>2015-06-28T15:42:02Z</time>
      </trkpt>
      <trkpt lat="46.04822" lon="6.48976">
        <ele>1078</ele>
        <time>2015-06-28T15:42:09Z</time>
      </trkpt>
      <trkpt lat="46.04827" lon="6.48978">
        <ele>1079</ele>
        <time>2015-06-28T15:42:11Z</time>
      </trkpt>
      <trkpt lat="46.04832" lon="6.48979">
        <ele>1080</ele>
        <time>2015-06-28T15:42:13Z</time>
      </trkpt>
      <trkpt lat="46.04836" lon="6.48984">
        <ele>1081</ele>
        <time>2015-06-28T15:42:15Z</time>
      </trkpt>
      <trkpt lat="46.0484" lon="6.48989">
        <ele>1083</ele>
        <time>2015-06-28T15:42:18Z</time>
      </trkpt>
      <trkpt lat="46.04845" lon="6.48995">
        <ele>1085</ele>
        <time>2015-06-28T15:42:22Z</time>
      </trkpt>
      <trkpt lat="46.0485" lon="6.48995">
        <ele>1086</ele>
        <time>2015-06-28T15:42:26Z</time>
      </trkpt>
      <trkpt lat="46.04849" lon="6.48988">
        <ele>1080</ele>
        <time>2015-06-28T15:42:29Z</time>
      </trkpt>
      <trkpt lat="46.04849" lon="6.48981">
        <ele>1076</ele>
        <time>2015-06-28T15:42:33Z</time>
      </trkpt>
      <trkpt lat="46.04849" lon="6.48974">
        <ele>1072</ele>
        <time>2015-06-28T15:42:38Z</time>
      </trkpt>
      <trkpt lat="46.04849" lon="6.48967">
        <ele>1071</ele>
        <time>2015-06-28T15:42:43Z</time>
      </trkpt>
      <trkpt lat="46.04846" lon="6.48964">
        <ele>1069</ele>
        <time>2015-06-28T15:43:06Z</time>
      </trkpt>
      <trkpt lat="46.04844" lon="6.48964">
        <ele>1068</ele>
        <time>2015-06-28T15:43:11Z</time>
      </trkpt>
    </trkseg>
  </trk>
</gpx>